<?xml version="1.0" encoding="UTF-8" standalone="no" ?>
<gpx xmlns="http://www.topografix.com/GPX/1/1" xmlns:xsi="http://www.w3.org/2001/XMLSchema-instance" xsi:schemaLocation="http://www.topografix.com/GPX/1/1 http://www.topografix.com/GPX/1/1/gpx.xsd" version="1.1" creator="VisuGPX - https://www.visugpx.com">
  <metadata>
    <name>Pic de Batoua</name>
    <desc><![CDATA[description à venir]]></desc>
  </metadata>
  <trk>
    <name><![CDATA[20090803 Culfredas]]></name>
    <cmt><![CDATA[http://igertu.blogspot.com/2009/08/20090803-culfreda-o-batoua-3034m.html]]></cmt>
    <desc><![CDATA[http://igertu.blogspot.com/2009/08/20090803-culfreda-o-batoua-3034m.html]]></desc>
    <trkseg>
      <trkpt lat="42.74098" lon="0.30817">
        <ele>1380.6</ele>
        <time>2009-08-03T06:30:06Z</time>
      </trkpt>
      <trkpt lat="42.74086" lon="0.30822">
        <ele>1383</ele>
        <time>2009-08-03T06:30:19Z</time>
      </trkpt>
      <trkpt lat="42.74077" lon="0.30822">
        <ele>1386.4</ele>
        <time>2009-08-03T06:30:26Z</time>
      </trkpt>
      <trkpt lat="42.74053" lon="0.30814">
        <ele>1390.7</ele>
        <time>2009-08-03T06:30:44Z</time>
      </trkpt>
      <trkpt lat="42.74046" lon="0.30814">
        <ele>1389.7</ele>
        <time>2009-08-03T06:30:50Z</time>
      </trkpt>
      <trkpt lat="42.74022" lon="0.30815">
        <ele>1391.2</ele>
        <time>2009-08-03T06:31:08Z</time>
      </trkpt>
      <trkpt lat="42.74019" lon="0.30823">
        <ele>1389.2</ele>
        <time>2009-08-03T06:31:13Z</time>
      </trkpt>
      <trkpt lat="42.74014" lon="0.30836">
        <ele>1389.7</ele>
        <time>2009-08-03T06:31:18Z</time>
      </trkpt>
      <trkpt lat="42.73993" lon="0.30874">
        <ele>1392.6</ele>
        <time>2009-08-03T06:31:43Z</time>
      </trkpt>
      <trkpt lat="42.7397" lon="0.30884">
        <ele>1386.8</ele>
        <time>2009-08-03T06:32:02Z</time>
      </trkpt>
      <trkpt lat="42.73944" lon="0.30891">
        <ele>1383</ele>
        <time>2009-08-03T06:32:22Z</time>
      </trkpt>
      <trkpt lat="42.7391" lon="0.30915">
        <ele>1383.5</ele>
        <time>2009-08-03T06:32:48Z</time>
      </trkpt>
      <trkpt lat="42.73884" lon="0.30937">
        <ele>1383.5</ele>
        <time>2009-08-03T06:33:11Z</time>
      </trkpt>
      <trkpt lat="42.73872" lon="0.30944">
        <ele>1386.8</ele>
        <time>2009-08-03T06:33:21Z</time>
      </trkpt>
      <trkpt lat="42.73869" lon="0.30947">
        <ele>1389.7</ele>
        <time>2009-08-03T06:33:23Z</time>
      </trkpt>
      <trkpt lat="42.73858" lon="0.30951">
        <ele>1390.2</ele>
        <time>2009-08-03T06:33:31Z</time>
      </trkpt>
      <trkpt lat="42.7383" lon="0.30959">
        <ele>1398.4</ele>
        <time>2009-08-03T06:33:53Z</time>
      </trkpt>
      <trkpt lat="42.73817" lon="0.30963">
        <ele>1402.2</ele>
        <time>2009-08-03T06:34:04Z</time>
      </trkpt>
      <trkpt lat="42.73791" lon="0.30954">
        <ele>1403.7</ele>
        <time>2009-08-03T06:34:23Z</time>
      </trkpt>
      <trkpt lat="42.73773" lon="0.3096">
        <ele>1403.2</ele>
        <time>2009-08-03T06:34:38Z</time>
      </trkpt>
      <trkpt lat="42.73767" lon="0.3096">
        <ele>1402.7</ele>
        <time>2009-08-03T06:34:43Z</time>
      </trkpt>
      <trkpt lat="42.73742" lon="0.3097">
        <ele>1408.5</ele>
        <time>2009-08-03T06:35:03Z</time>
      </trkpt>
      <trkpt lat="42.73739" lon="0.30972">
        <ele>1409.4</ele>
        <time>2009-08-03T06:35:06Z</time>
      </trkpt>
      <trkpt lat="42.73707" lon="0.30991">
        <ele>1418.1</ele>
        <time>2009-08-03T06:35:34Z</time>
      </trkpt>
      <trkpt lat="42.73686" lon="0.31001">
        <ele>1415.2</ele>
        <time>2009-08-03T06:35:54Z</time>
      </trkpt>
      <trkpt lat="42.73664" lon="0.31012">
        <ele>1419</ele>
        <time>2009-08-03T06:36:13Z</time>
      </trkpt>
      <trkpt lat="42.73632" lon="0.31029">
        <ele>1429.1</ele>
        <time>2009-08-03T06:36:40Z</time>
      </trkpt>
      <trkpt lat="42.73608" lon="0.31048">
        <ele>1432.5</ele>
        <time>2009-08-03T06:37:04Z</time>
      </trkpt>
      <trkpt lat="42.73584" lon="0.31063">
        <ele>1439.7</ele>
        <time>2009-08-03T06:37:26Z</time>
      </trkpt>
      <trkpt lat="42.73561" lon="0.3108">
        <ele>1447.9</ele>
        <time>2009-08-03T06:37:47Z</time>
      </trkpt>
      <trkpt lat="42.73537" lon="0.31088">
        <ele>1454.6</ele>
        <time>2009-08-03T06:38:08Z</time>
      </trkpt>
      <trkpt lat="42.73516" lon="0.311">
        <ele>1454.1</ele>
        <time>2009-08-03T06:38:29Z</time>
      </trkpt>
      <trkpt lat="42.73493" lon="0.31115">
        <ele>1454.1</ele>
        <time>2009-08-03T06:38:51Z</time>
      </trkpt>
      <trkpt lat="42.73474" lon="0.31133">
        <ele>1452.2</ele>
        <time>2009-08-03T06:39:12Z</time>
      </trkpt>
      <trkpt lat="42.73464" lon="0.31155">
        <ele>1470</ele>
        <time>2009-08-03T06:39:26Z</time>
      </trkpt>
      <trkpt lat="42.73464" lon="0.31186">
        <ele>1474.8</ele>
        <time>2009-08-03T06:39:44Z</time>
      </trkpt>
      <trkpt lat="42.73466" lon="0.31203">
        <ele>1467.6</ele>
        <time>2009-08-03T06:39:58Z</time>
      </trkpt>
      <trkpt lat="42.73461" lon="0.31221">
        <ele>1472.9</ele>
        <time>2009-08-03T06:40:09Z</time>
      </trkpt>
      <trkpt lat="42.73467" lon="0.31239">
        <ele>1463.7</ele>
        <time>2009-08-03T06:40:21Z</time>
      </trkpt>
      <trkpt lat="42.73471" lon="0.3126">
        <ele>1467.1</ele>
        <time>2009-08-03T06:40:34Z</time>
      </trkpt>
      <trkpt lat="42.73476" lon="0.31282">
        <ele>1462.3</ele>
        <time>2009-08-03T06:40:50Z</time>
      </trkpt>
      <trkpt lat="42.73474" lon="0.31329">
        <ele>1469</ele>
        <time>2009-08-03T06:41:14Z</time>
      </trkpt>
      <trkpt lat="42.73468" lon="0.31373">
        <ele>1476.7</ele>
        <time>2009-08-03T06:41:35Z</time>
      </trkpt>
      <trkpt lat="42.73458" lon="0.31411">
        <ele>1480.6</ele>
        <time>2009-08-03T06:41:57Z</time>
      </trkpt>
      <trkpt lat="42.73444" lon="0.31446">
        <ele>1490.2</ele>
        <time>2009-08-03T06:42:18Z</time>
      </trkpt>
      <trkpt lat="42.73443" lon="0.31448">
        <ele>1490.2</ele>
        <time>2009-08-03T06:42:20Z</time>
      </trkpt>
      <trkpt lat="42.73436" lon="0.31478">
        <ele>1491.6</ele>
        <time>2009-08-03T06:42:35Z</time>
      </trkpt>
      <trkpt lat="42.73429" lon="0.31503">
        <ele>1497.4</ele>
        <time>2009-08-03T06:42:48Z</time>
      </trkpt>
      <trkpt lat="42.73422" lon="0.31525">
        <ele>1493.5</ele>
        <time>2009-08-03T06:43:06Z</time>
      </trkpt>
      <trkpt lat="42.7341" lon="0.31551">
        <ele>1492.1</ele>
        <time>2009-08-03T06:43:25Z</time>
      </trkpt>
      <trkpt lat="42.73403" lon="0.31582">
        <ele>1485.9</ele>
        <time>2009-08-03T06:43:43Z</time>
      </trkpt>
      <trkpt lat="42.73396" lon="0.31635">
        <ele>1489.7</ele>
        <time>2009-08-03T06:44:11Z</time>
      </trkpt>
      <trkpt lat="42.73387" lon="0.3166">
        <ele>1496.4</ele>
        <time>2009-08-03T06:44:24Z</time>
      </trkpt>
      <trkpt lat="42.73376" lon="0.31693">
        <ele>1496.4</ele>
        <time>2009-08-03T06:44:44Z</time>
      </trkpt>
      <trkpt lat="42.7337" lon="0.31739">
        <ele>1498.4</ele>
        <time>2009-08-03T06:45:09Z</time>
      </trkpt>
      <trkpt lat="42.73361" lon="0.31784">
        <ele>1505.1</ele>
        <time>2009-08-03T06:45:33Z</time>
      </trkpt>
      <trkpt lat="42.73362" lon="0.31787">
        <ele>1505.1</ele>
        <time>2009-08-03T06:45:35Z</time>
      </trkpt>
      <trkpt lat="42.7336" lon="0.31792">
        <ele>1505.1</ele>
        <time>2009-08-03T06:45:38Z</time>
      </trkpt>
      <trkpt lat="42.7336" lon="0.31806">
        <ele>1500.8</ele>
        <time>2009-08-03T06:45:50Z</time>
      </trkpt>
      <trkpt lat="42.73361" lon="0.31849">
        <ele>1502.2</ele>
        <time>2009-08-03T06:46:15Z</time>
      </trkpt>
      <trkpt lat="42.73361" lon="0.31848">
        <ele>1494</ele>
        <time>2009-08-03T06:46:36Z</time>
      </trkpt>
      <trkpt lat="42.73341" lon="0.31885">
        <ele>1507</ele>
        <time>2009-08-03T06:46:59Z</time>
      </trkpt>
      <trkpt lat="42.73338" lon="0.31893">
        <ele>1508.9</ele>
        <time>2009-08-03T06:47:03Z</time>
      </trkpt>
      <trkpt lat="42.73336" lon="0.31903">
        <ele>1507</ele>
        <time>2009-08-03T06:47:08Z</time>
      </trkpt>
      <trkpt lat="42.73317" lon="0.31936">
        <ele>1513.7</ele>
        <time>2009-08-03T06:47:30Z</time>
      </trkpt>
      <trkpt lat="42.73303" lon="0.3197">
        <ele>1514.7</ele>
        <time>2009-08-03T06:47:50Z</time>
      </trkpt>
      <trkpt lat="42.73303" lon="0.31986">
        <ele>1499.8</ele>
        <time>2009-08-03T06:48:16Z</time>
      </trkpt>
      <trkpt lat="42.73294" lon="0.32021">
        <ele>1512.3</ele>
        <time>2009-08-03T06:48:36Z</time>
      </trkpt>
      <trkpt lat="42.73299" lon="0.3203">
        <ele>1508.9</ele>
        <time>2009-08-03T06:48:48Z</time>
      </trkpt>
      <trkpt lat="42.73288" lon="0.32059">
        <ele>1522.9</ele>
        <time>2009-08-03T06:49:07Z</time>
      </trkpt>
      <trkpt lat="42.73287" lon="0.32064">
        <ele>1516.1</ele>
        <time>2009-08-03T06:49:11Z</time>
      </trkpt>
      <trkpt lat="42.73278" lon="0.32096">
        <ele>1512.3</ele>
        <time>2009-08-03T06:49:30Z</time>
      </trkpt>
      <trkpt lat="42.7327" lon="0.32114">
        <ele>1516.1</ele>
        <time>2009-08-03T06:49:46Z</time>
      </trkpt>
      <trkpt lat="42.73259" lon="0.32136">
        <ele>1514.2</ele>
        <time>2009-08-03T06:50:06Z</time>
      </trkpt>
      <trkpt lat="42.73254" lon="0.32142">
        <ele>1515.7</ele>
        <time>2009-08-03T06:50:13Z</time>
      </trkpt>
      <trkpt lat="42.73254" lon="0.32145">
        <ele>1518.5</ele>
        <time>2009-08-03T06:50:39Z</time>
      </trkpt>
      <trkpt lat="42.73243" lon="0.32161">
        <ele>1509.9</ele>
        <time>2009-08-03T06:50:51Z</time>
      </trkpt>
      <trkpt lat="42.73242" lon="0.32164">
        <ele>1508.4</ele>
        <time>2009-08-03T06:50:54Z</time>
      </trkpt>
      <trkpt lat="42.73226" lon="0.3219">
        <ele>1509.9</ele>
        <time>2009-08-03T06:51:16Z</time>
      </trkpt>
      <trkpt lat="42.73202" lon="0.32205">
        <ele>1514.7</ele>
        <time>2009-08-03T06:51:40Z</time>
      </trkpt>
      <trkpt lat="42.73177" lon="0.32209">
        <ele>1519</ele>
        <time>2009-08-03T06:52:01Z</time>
      </trkpt>
      <trkpt lat="42.73146" lon="0.32224">
        <ele>1522.4</ele>
        <time>2009-08-03T06:52:28Z</time>
      </trkpt>
      <trkpt lat="42.73119" lon="0.32247">
        <ele>1529.1</ele>
        <time>2009-08-03T06:52:52Z</time>
      </trkpt>
      <trkpt lat="42.73116" lon="0.32247">
        <ele>1530.1</ele>
        <time>2009-08-03T06:52:54Z</time>
      </trkpt>
      <trkpt lat="42.73113" lon="0.32241">
        <ele>1531</ele>
        <time>2009-08-03T06:52:59Z</time>
      </trkpt>
      <trkpt lat="42.73115" lon="0.32235">
        <ele>1532</ele>
        <time>2009-08-03T06:53:03Z</time>
      </trkpt>
      <trkpt lat="42.73116" lon="0.32231">
        <ele>1532.5</ele>
        <time>2009-08-03T06:53:06Z</time>
      </trkpt>
      <trkpt lat="42.73121" lon="0.32224">
        <ele>1533.4</ele>
        <time>2009-08-03T06:53:12Z</time>
      </trkpt>
      <trkpt lat="42.73124" lon="0.32217">
        <ele>1534.9</ele>
        <time>2009-08-03T06:53:17Z</time>
      </trkpt>
      <trkpt lat="42.73133" lon="0.32203">
        <ele>1537.8</ele>
        <time>2009-08-03T06:53:28Z</time>
      </trkpt>
      <trkpt lat="42.73138" lon="0.32197">
        <ele>1537.8</ele>
        <time>2009-08-03T06:53:34Z</time>
      </trkpt>
      <trkpt lat="42.73155" lon="0.32178">
        <ele>1541.1</ele>
        <time>2009-08-03T06:53:54Z</time>
      </trkpt>
      <trkpt lat="42.73161" lon="0.32163">
        <ele>1543.1</ele>
        <time>2009-08-03T06:54:05Z</time>
      </trkpt>
      <trkpt lat="42.73158" lon="0.32126">
        <ele>1553.1</ele>
        <time>2009-08-03T06:54:26Z</time>
      </trkpt>
      <trkpt lat="42.73157" lon="0.32109">
        <ele>1558</ele>
        <time>2009-08-03T06:54:38Z</time>
      </trkpt>
      <trkpt lat="42.73157" lon="0.32106">
        <ele>1559.4</ele>
        <time>2009-08-03T06:54:40Z</time>
      </trkpt>
      <trkpt lat="42.73156" lon="0.32101">
        <ele>1560.8</ele>
        <time>2009-08-03T06:54:44Z</time>
      </trkpt>
      <trkpt lat="42.7315" lon="0.32078">
        <ele>1566.6</ele>
        <time>2009-08-03T06:55:03Z</time>
      </trkpt>
      <trkpt lat="42.73143" lon="0.32054">
        <ele>1572.9</ele>
        <time>2009-08-03T06:55:24Z</time>
      </trkpt>
      <trkpt lat="42.73142" lon="0.32047">
        <ele>1573.8</ele>
        <time>2009-08-03T06:55:30Z</time>
      </trkpt>
      <trkpt lat="42.73142" lon="0.32042">
        <ele>1573.8</ele>
        <time>2009-08-03T06:55:33Z</time>
      </trkpt>
      <trkpt lat="42.7314" lon="0.32021">
        <ele>1573.3</ele>
        <time>2009-08-03T06:55:49Z</time>
      </trkpt>
      <trkpt lat="42.73139" lon="0.32011">
        <ele>1575.7</ele>
        <time>2009-08-03T06:55:55Z</time>
      </trkpt>
      <trkpt lat="42.73136" lon="0.32">
        <ele>1574.3</ele>
        <time>2009-08-03T06:56:04Z</time>
      </trkpt>
      <trkpt lat="42.7313" lon="0.31976">
        <ele>1577.2</ele>
        <time>2009-08-03T06:56:20Z</time>
      </trkpt>
      <trkpt lat="42.73126" lon="0.31955">
        <ele>1587.3</ele>
        <time>2009-08-03T06:56:38Z</time>
      </trkpt>
      <trkpt lat="42.7313" lon="0.31956">
        <ele>1583.9</ele>
        <time>2009-08-03T06:57:21Z</time>
      </trkpt>
      <trkpt lat="42.73128" lon="0.31951">
        <ele>1585.4</ele>
        <time>2009-08-03T06:57:48Z</time>
      </trkpt>
      <trkpt lat="42.73131" lon="0.31949">
        <ele>1583.4</ele>
        <time>2009-08-03T06:58:24Z</time>
      </trkpt>
      <trkpt lat="42.7313" lon="0.31943">
        <ele>1590.2</ele>
        <time>2009-08-03T06:58:48Z</time>
      </trkpt>
      <trkpt lat="42.73129" lon="0.31946">
        <ele>1592.6</ele>
        <time>2009-08-03T06:59:02Z</time>
      </trkpt>
      <trkpt lat="42.73124" lon="0.31981">
        <ele>1590.2</ele>
        <time>2009-08-03T06:59:26Z</time>
      </trkpt>
      <trkpt lat="42.73117" lon="0.31999">
        <ele>1592.6</ele>
        <time>2009-08-03T06:59:39Z</time>
      </trkpt>
      <trkpt lat="42.73104" lon="0.32027">
        <ele>1592.6</ele>
        <time>2009-08-03T07:00:00Z</time>
      </trkpt>
      <trkpt lat="42.73098" lon="0.3204">
        <ele>1597.8</ele>
        <time>2009-08-03T07:00:11Z</time>
      </trkpt>
      <trkpt lat="42.73085" lon="0.32071">
        <ele>1597.8</ele>
        <time>2009-08-03T07:00:36Z</time>
      </trkpt>
      <trkpt lat="42.73074" lon="0.32091">
        <ele>1598.3</ele>
        <time>2009-08-03T07:00:53Z</time>
      </trkpt>
      <trkpt lat="42.73062" lon="0.32112">
        <ele>1606</ele>
        <time>2009-08-03T07:01:11Z</time>
      </trkpt>
      <trkpt lat="42.73049" lon="0.3213">
        <ele>1604.6</ele>
        <time>2009-08-03T07:01:31Z</time>
      </trkpt>
      <trkpt lat="42.73038" lon="0.32143">
        <ele>1604.1</ele>
        <time>2009-08-03T07:01:47Z</time>
      </trkpt>
      <trkpt lat="42.73021" lon="0.32159">
        <ele>1612.7</ele>
        <time>2009-08-03T07:02:07Z</time>
      </trkpt>
      <trkpt lat="42.73009" lon="0.32167">
        <ele>1613.7</ele>
        <time>2009-08-03T07:02:21Z</time>
      </trkpt>
      <trkpt lat="42.73007" lon="0.32172">
        <ele>1613.2</ele>
        <time>2009-08-03T07:02:24Z</time>
      </trkpt>
      <trkpt lat="42.73002" lon="0.32179">
        <ele>1619</ele>
        <time>2009-08-03T07:02:30Z</time>
      </trkpt>
      <trkpt lat="42.7299" lon="0.32203">
        <ele>1621.9</ele>
        <time>2009-08-03T07:02:53Z</time>
      </trkpt>
      <trkpt lat="42.72988" lon="0.32207">
        <ele>1621.9</ele>
        <time>2009-08-03T07:02:56Z</time>
      </trkpt>
      <trkpt lat="42.72981" lon="0.32225">
        <ele>1626.2</ele>
        <time>2009-08-03T07:03:11Z</time>
      </trkpt>
      <trkpt lat="42.72968" lon="0.32228">
        <ele>1631.5</ele>
        <time>2009-08-03T07:03:27Z</time>
      </trkpt>
      <trkpt lat="42.72971" lon="0.32195">
        <ele>1634.4</ele>
        <time>2009-08-03T07:03:51Z</time>
      </trkpt>
      <trkpt lat="42.72971" lon="0.3216">
        <ele>1637.3</ele>
        <time>2009-08-03T07:04:16Z</time>
      </trkpt>
      <trkpt lat="42.72971" lon="0.32154">
        <ele>1637.3</ele>
        <time>2009-08-03T07:04:21Z</time>
      </trkpt>
      <trkpt lat="42.72973" lon="0.32145">
        <ele>1638.2</ele>
        <time>2009-08-03T07:04:28Z</time>
      </trkpt>
      <trkpt lat="42.72975" lon="0.32141">
        <ele>1638.2</ele>
        <time>2009-08-03T07:04:33Z</time>
      </trkpt>
      <trkpt lat="42.72979" lon="0.32136">
        <ele>1638.2</ele>
        <time>2009-08-03T07:04:38Z</time>
      </trkpt>
      <trkpt lat="42.72993" lon="0.32108">
        <ele>1639.7</ele>
        <time>2009-08-03T07:05:02Z</time>
      </trkpt>
      <trkpt lat="42.72998" lon="0.32076">
        <ele>1644.5</ele>
        <time>2009-08-03T07:05:25Z</time>
      </trkpt>
      <trkpt lat="42.72999" lon="0.32065">
        <ele>1648.8</ele>
        <time>2009-08-03T07:05:32Z</time>
      </trkpt>
      <trkpt lat="42.73" lon="0.3206">
        <ele>1648.8</ele>
        <time>2009-08-03T07:05:36Z</time>
      </trkpt>
      <trkpt lat="42.73001" lon="0.32055">
        <ele>1647.4</ele>
        <time>2009-08-03T07:05:40Z</time>
      </trkpt>
      <trkpt lat="42.73003" lon="0.32052">
        <ele>1647.4</ele>
        <time>2009-08-03T07:05:43Z</time>
      </trkpt>
      <trkpt lat="42.73005" lon="0.32014">
        <ele>1658.4</ele>
        <time>2009-08-03T07:06:08Z</time>
      </trkpt>
      <trkpt lat="42.73005" lon="0.3201">
        <ele>1657</ele>
        <time>2009-08-03T07:06:11Z</time>
      </trkpt>
      <trkpt lat="42.73006" lon="0.32003">
        <ele>1655</ele>
        <time>2009-08-03T07:06:17Z</time>
      </trkpt>
      <trkpt lat="42.73006" lon="0.31989">
        <ele>1660.8</ele>
        <time>2009-08-03T07:06:27Z</time>
      </trkpt>
      <trkpt lat="42.7301" lon="0.31977">
        <ele>1669.9</ele>
        <time>2009-08-03T07:06:49Z</time>
      </trkpt>
      <trkpt lat="42.73002" lon="0.31965">
        <ele>1667.5</ele>
        <time>2009-08-03T07:07:09Z</time>
      </trkpt>
      <trkpt lat="42.73" lon="0.31974">
        <ele>1686.3</ele>
        <time>2009-08-03T07:07:58Z</time>
      </trkpt>
      <trkpt lat="42.72998" lon="0.3199">
        <ele>1662.3</ele>
        <time>2009-08-03T07:08:18Z</time>
      </trkpt>
      <trkpt lat="42.72991" lon="0.32001">
        <ele>1661.8</ele>
        <time>2009-08-03T07:08:30Z</time>
      </trkpt>
      <trkpt lat="42.72986" lon="0.32004">
        <ele>1666.1</ele>
        <time>2009-08-03T07:08:39Z</time>
      </trkpt>
      <trkpt lat="42.7298" lon="0.32014">
        <ele>1673.8</ele>
        <time>2009-08-03T07:08:54Z</time>
      </trkpt>
      <trkpt lat="42.72972" lon="0.32029">
        <ele>1679.1</ele>
        <time>2009-08-03T07:09:11Z</time>
      </trkpt>
      <trkpt lat="42.72962" lon="0.32041">
        <ele>1686.3</ele>
        <time>2009-08-03T07:09:27Z</time>
      </trkpt>
      <trkpt lat="42.72947" lon="0.32031">
        <ele>1683.9</ele>
        <time>2009-08-03T07:10:07Z</time>
      </trkpt>
      <trkpt lat="42.72949" lon="0.31997">
        <ele>1710.3</ele>
        <time>2009-08-03T07:10:44Z</time>
      </trkpt>
      <trkpt lat="42.72943" lon="0.31976">
        <ele>1714.6</ele>
        <time>2009-08-03T07:11:04Z</time>
      </trkpt>
      <trkpt lat="42.72935" lon="0.31981">
        <ele>1707.9</ele>
        <time>2009-08-03T07:11:17Z</time>
      </trkpt>
      <trkpt lat="42.72922" lon="0.31997">
        <ele>1706</ele>
        <time>2009-08-03T07:11:41Z</time>
      </trkpt>
      <trkpt lat="42.72917" lon="0.3198">
        <ele>1707.9</ele>
        <time>2009-08-03T07:12:05Z</time>
      </trkpt>
      <trkpt lat="42.72897" lon="0.31997">
        <ele>1716.6</ele>
        <time>2009-08-03T07:12:42Z</time>
      </trkpt>
      <trkpt lat="42.72884" lon="0.32008">
        <ele>1728.1</ele>
        <time>2009-08-03T07:13:13Z</time>
      </trkpt>
      <trkpt lat="42.72869" lon="0.32003">
        <ele>1742.5</ele>
        <time>2009-08-03T07:13:46Z</time>
      </trkpt>
      <trkpt lat="42.72849" lon="0.32021">
        <ele>1742</ele>
        <time>2009-08-03T07:14:25Z</time>
      </trkpt>
      <trkpt lat="42.72837" lon="0.32027">
        <ele>1746.9</ele>
        <time>2009-08-03T07:14:50Z</time>
      </trkpt>
      <trkpt lat="42.72832" lon="0.32004">
        <ele>1763.2</ele>
        <time>2009-08-03T07:15:38Z</time>
      </trkpt>
      <trkpt lat="42.72821" lon="0.31998">
        <ele>1750.7</ele>
        <time>2009-08-03T07:16:07Z</time>
      </trkpt>
      <trkpt lat="42.72809" lon="0.31985">
        <ele>1781.5</ele>
        <time>2009-08-03T07:16:52Z</time>
      </trkpt>
      <trkpt lat="42.72802" lon="0.31982">
        <ele>1766.6</ele>
        <time>2009-08-03T07:17:11Z</time>
      </trkpt>
      <trkpt lat="42.72785" lon="0.32002">
        <ele>1776.7</ele>
        <time>2009-08-03T07:17:46Z</time>
      </trkpt>
      <trkpt lat="42.72776" lon="0.32016">
        <ele>1788.2</ele>
        <time>2009-08-03T07:18:23Z</time>
      </trkpt>
      <trkpt lat="42.72768" lon="0.32026">
        <ele>1793.5</ele>
        <time>2009-08-03T07:18:47Z</time>
      </trkpt>
      <trkpt lat="42.72763" lon="0.32041">
        <ele>1800.2</ele>
        <time>2009-08-03T07:19:02Z</time>
      </trkpt>
      <trkpt lat="42.72756" lon="0.32053">
        <ele>1798.8</ele>
        <time>2009-08-03T07:19:19Z</time>
      </trkpt>
      <trkpt lat="42.72747" lon="0.32069">
        <ele>1795.9</ele>
        <time>2009-08-03T07:19:38Z</time>
      </trkpt>
      <trkpt lat="42.7274" lon="0.32078">
        <ele>1797.8</ele>
        <time>2009-08-03T07:19:57Z</time>
      </trkpt>
      <trkpt lat="42.72739" lon="0.32096">
        <ele>1802.1</ele>
        <time>2009-08-03T07:20:18Z</time>
      </trkpt>
      <trkpt lat="42.72722" lon="0.32135">
        <ele>1821.8</ele>
        <time>2009-08-03T07:21:06Z</time>
      </trkpt>
      <trkpt lat="42.72709" lon="0.32152">
        <ele>1834.8</ele>
        <time>2009-08-03T07:21:45Z</time>
      </trkpt>
      <trkpt lat="42.72693" lon="0.32186">
        <ele>1843.5</ele>
        <time>2009-08-03T07:22:51Z</time>
      </trkpt>
      <trkpt lat="42.72687" lon="0.32199">
        <ele>1852.1</ele>
        <time>2009-08-03T07:23:13Z</time>
      </trkpt>
      <trkpt lat="42.72674" lon="0.32215">
        <ele>1850.2</ele>
        <time>2009-08-03T07:23:35Z</time>
      </trkpt>
      <trkpt lat="42.72663" lon="0.3223">
        <ele>1851.2</ele>
        <time>2009-08-03T07:23:54Z</time>
      </trkpt>
      <trkpt lat="42.72651" lon="0.32241">
        <ele>1864.1</ele>
        <time>2009-08-03T07:24:14Z</time>
      </trkpt>
      <trkpt lat="42.72635" lon="0.32245">
        <ele>1861.7</ele>
        <time>2009-08-03T07:24:41Z</time>
      </trkpt>
      <trkpt lat="42.72616" lon="0.32254">
        <ele>1874.2</ele>
        <time>2009-08-03T07:25:09Z</time>
      </trkpt>
      <trkpt lat="42.7261" lon="0.32256">
        <ele>1873.3</ele>
        <time>2009-08-03T07:25:13Z</time>
      </trkpt>
      <trkpt lat="42.72592" lon="0.32256">
        <ele>1868.5</ele>
        <time>2009-08-03T07:25:27Z</time>
      </trkpt>
      <trkpt lat="42.72586" lon="0.32253">
        <ele>1868</ele>
        <time>2009-08-03T07:25:32Z</time>
      </trkpt>
      <trkpt lat="42.72569" lon="0.32253">
        <ele>1870.9</ele>
        <time>2009-08-03T07:25:48Z</time>
      </trkpt>
      <trkpt lat="42.72557" lon="0.32255">
        <ele>1871.3</ele>
        <time>2009-08-03T07:25:57Z</time>
      </trkpt>
      <trkpt lat="42.72552" lon="0.32262">
        <ele>1873.7</ele>
        <time>2009-08-03T07:26:00Z</time>
      </trkpt>
      <trkpt lat="42.72544" lon="0.32262">
        <ele>1876.6</ele>
        <time>2009-08-03T07:26:07Z</time>
      </trkpt>
      <trkpt lat="42.72536" lon="0.32267">
        <ele>1876.2</ele>
        <time>2009-08-03T07:26:13Z</time>
      </trkpt>
      <trkpt lat="42.72512" lon="0.32277">
        <ele>1882.4</ele>
        <time>2009-08-03T07:26:33Z</time>
      </trkpt>
      <trkpt lat="42.72503" lon="0.32286">
        <ele>1879</ele>
        <time>2009-08-03T07:26:42Z</time>
      </trkpt>
      <trkpt lat="42.72496" lon="0.3229">
        <ele>1880</ele>
        <time>2009-08-03T07:26:49Z</time>
      </trkpt>
      <trkpt lat="42.72471" lon="0.32287">
        <ele>1877.1</ele>
        <time>2009-08-03T07:27:10Z</time>
      </trkpt>
      <trkpt lat="42.72456" lon="0.32286">
        <ele>1882.4</ele>
        <time>2009-08-03T07:27:25Z</time>
      </trkpt>
      <trkpt lat="42.7245" lon="0.32286">
        <ele>1887.2</ele>
        <time>2009-08-03T07:27:30Z</time>
      </trkpt>
      <trkpt lat="42.72433" lon="0.32296">
        <ele>1885.3</ele>
        <time>2009-08-03T07:27:52Z</time>
      </trkpt>
      <trkpt lat="42.72423" lon="0.32294">
        <ele>1888.2</ele>
        <time>2009-08-03T07:28:08Z</time>
      </trkpt>
      <trkpt lat="42.72407" lon="0.323">
        <ele>1894.9</ele>
        <time>2009-08-03T07:28:26Z</time>
      </trkpt>
      <trkpt lat="42.72393" lon="0.32303">
        <ele>1896.8</ele>
        <time>2009-08-03T07:28:40Z</time>
      </trkpt>
      <trkpt lat="42.7238" lon="0.32297">
        <ele>1900.2</ele>
        <time>2009-08-03T07:28:56Z</time>
      </trkpt>
      <trkpt lat="42.72377" lon="0.32297">
        <ele>1900.7</ele>
        <time>2009-08-03T07:28:59Z</time>
      </trkpt>
      <trkpt lat="42.72366" lon="0.323">
        <ele>1901.1</ele>
        <time>2009-08-03T07:29:08Z</time>
      </trkpt>
      <trkpt lat="42.72349" lon="0.32288">
        <ele>1908.4</ele>
        <time>2009-08-03T07:29:23Z</time>
      </trkpt>
      <trkpt lat="42.72333" lon="0.32287">
        <ele>1907.9</ele>
        <time>2009-08-03T07:29:40Z</time>
      </trkpt>
      <trkpt lat="42.72319" lon="0.32277">
        <ele>1908.4</ele>
        <time>2009-08-03T07:30:04Z</time>
      </trkpt>
      <trkpt lat="42.72309" lon="0.3228">
        <ele>1915.6</ele>
        <time>2009-08-03T07:30:19Z</time>
      </trkpt>
      <trkpt lat="42.72297" lon="0.32289">
        <ele>1916.5</ele>
        <time>2009-08-03T07:30:38Z</time>
      </trkpt>
      <trkpt lat="42.72291" lon="0.32294">
        <ele>1915.6</ele>
        <time>2009-08-03T07:30:55Z</time>
      </trkpt>
      <trkpt lat="42.7229" lon="0.32294">
        <ele>1918.4</ele>
        <time>2009-08-03T07:31:01Z</time>
      </trkpt>
      <trkpt lat="42.72278" lon="0.32301">
        <ele>1913.6</ele>
        <time>2009-08-03T07:31:15Z</time>
      </trkpt>
      <trkpt lat="42.72268" lon="0.323">
        <ele>1909.3</ele>
        <time>2009-08-03T07:31:39Z</time>
      </trkpt>
      <trkpt lat="42.72266" lon="0.323">
        <ele>1907.9</ele>
        <time>2009-08-03T07:31:41Z</time>
      </trkpt>
      <trkpt lat="42.72252" lon="0.32298">
        <ele>1902.6</ele>
        <time>2009-08-03T07:31:56Z</time>
      </trkpt>
      <trkpt lat="42.72242" lon="0.32299">
        <ele>1912.2</ele>
        <time>2009-08-03T07:32:24Z</time>
      </trkpt>
      <trkpt lat="42.72221" lon="0.32302">
        <ele>1904</ele>
        <time>2009-08-03T07:32:49Z</time>
      </trkpt>
      <trkpt lat="42.72193" lon="0.32316">
        <ele>1902.1</ele>
        <time>2009-08-03T07:33:15Z</time>
      </trkpt>
      <trkpt lat="42.72191" lon="0.32317">
        <ele>1902.6</ele>
        <time>2009-08-03T07:33:16Z</time>
      </trkpt>
      <trkpt lat="42.72188" lon="0.32316">
        <ele>1902.1</ele>
        <time>2009-08-03T07:33:19Z</time>
      </trkpt>
      <trkpt lat="42.7217" lon="0.32321">
        <ele>1901.1</ele>
        <time>2009-08-03T07:33:36Z</time>
      </trkpt>
      <trkpt lat="42.7215" lon="0.3232">
        <ele>1899.7</ele>
        <time>2009-08-03T07:33:56Z</time>
      </trkpt>
      <trkpt lat="42.72143" lon="0.32327">
        <ele>1901.1</ele>
        <time>2009-08-03T07:34:30Z</time>
      </trkpt>
      <trkpt lat="42.7214" lon="0.3233">
        <ele>1902.1</ele>
        <time>2009-08-03T07:34:34Z</time>
      </trkpt>
      <trkpt lat="42.72127" lon="0.32348">
        <ele>1904</ele>
        <time>2009-08-03T07:34:56Z</time>
      </trkpt>
      <trkpt lat="42.72117" lon="0.32364">
        <ele>1904</ele>
        <time>2009-08-03T07:35:16Z</time>
      </trkpt>
      <trkpt lat="42.72103" lon="0.32367">
        <ele>1903.5</ele>
        <time>2009-08-03T07:35:42Z</time>
      </trkpt>
      <trkpt lat="42.72098" lon="0.32365">
        <ele>1904</ele>
        <time>2009-08-03T07:36:05Z</time>
      </trkpt>
      <trkpt lat="42.7209" lon="0.32362">
        <ele>1900.7</ele>
        <time>2009-08-03T07:36:22Z</time>
      </trkpt>
      <trkpt lat="42.72074" lon="0.32359">
        <ele>1904.5</ele>
        <time>2009-08-03T07:36:39Z</time>
      </trkpt>
      <trkpt lat="42.72062" lon="0.32351">
        <ele>1907.4</ele>
        <time>2009-08-03T07:36:54Z</time>
      </trkpt>
      <trkpt lat="42.72046" lon="0.32347">
        <ele>1911.2</ele>
        <time>2009-08-03T07:37:11Z</time>
      </trkpt>
      <trkpt lat="42.72017" lon="0.3236">
        <ele>1917</ele>
        <time>2009-08-03T07:37:38Z</time>
      </trkpt>
      <trkpt lat="42.72" lon="0.32365">
        <ele>1919.9</ele>
        <time>2009-08-03T07:37:54Z</time>
      </trkpt>
      <trkpt lat="42.7197" lon="0.32368">
        <ele>1926.1</ele>
        <time>2009-08-03T07:38:24Z</time>
      </trkpt>
      <trkpt lat="42.71946" lon="0.32365">
        <ele>1930</ele>
        <time>2009-08-03T07:38:49Z</time>
      </trkpt>
      <trkpt lat="42.71922" lon="0.32358">
        <ele>1933.8</ele>
        <time>2009-08-03T07:39:15Z</time>
      </trkpt>
      <trkpt lat="42.71901" lon="0.32357">
        <ele>1938.2</ele>
        <time>2009-08-03T07:39:39Z</time>
      </trkpt>
      <trkpt lat="42.71882" lon="0.32361">
        <ele>1940.6</ele>
        <time>2009-08-03T07:40:04Z</time>
      </trkpt>
      <trkpt lat="42.7187" lon="0.32371">
        <ele>1943.9</ele>
        <time>2009-08-03T07:40:21Z</time>
      </trkpt>
      <trkpt lat="42.71855" lon="0.32375">
        <ele>1947.8</ele>
        <time>2009-08-03T07:40:42Z</time>
      </trkpt>
      <trkpt lat="42.71841" lon="0.32382">
        <ele>1952.1</ele>
        <time>2009-08-03T07:41:04Z</time>
      </trkpt>
      <trkpt lat="42.71829" lon="0.32394">
        <ele>1955.9</ele>
        <time>2009-08-03T07:41:24Z</time>
      </trkpt>
      <trkpt lat="42.71815" lon="0.324">
        <ele>1959.3</ele>
        <time>2009-08-03T07:41:45Z</time>
      </trkpt>
      <trkpt lat="42.71801" lon="0.32399">
        <ele>1961.7</ele>
        <time>2009-08-03T07:42:07Z</time>
      </trkpt>
      <trkpt lat="42.71785" lon="0.32402">
        <ele>1965.1</ele>
        <time>2009-08-03T07:42:29Z</time>
      </trkpt>
      <trkpt lat="42.71769" lon="0.32405">
        <ele>1968.9</ele>
        <time>2009-08-03T07:42:53Z</time>
      </trkpt>
      <trkpt lat="42.71755" lon="0.32411">
        <ele>1971.8</ele>
        <time>2009-08-03T07:43:15Z</time>
      </trkpt>
      <trkpt lat="42.71742" lon="0.32407">
        <ele>1968.9</ele>
        <time>2009-08-03T07:43:38Z</time>
      </trkpt>
      <trkpt lat="42.71727" lon="0.32409">
        <ele>1975.2</ele>
        <time>2009-08-03T07:44:04Z</time>
      </trkpt>
      <trkpt lat="42.71715" lon="0.32407">
        <ele>1981.4</ele>
        <time>2009-08-03T07:44:27Z</time>
      </trkpt>
      <trkpt lat="42.71701" lon="0.32407">
        <ele>1984.8</ele>
        <time>2009-08-03T07:44:51Z</time>
      </trkpt>
      <trkpt lat="42.71686" lon="0.32409">
        <ele>1991</ele>
        <time>2009-08-03T07:45:15Z</time>
      </trkpt>
      <trkpt lat="42.71676" lon="0.32404">
        <ele>1993.9</ele>
        <time>2009-08-03T07:45:37Z</time>
      </trkpt>
      <trkpt lat="42.71662" lon="0.32398">
        <ele>2000.6</ele>
        <time>2009-08-03T07:46:01Z</time>
      </trkpt>
      <trkpt lat="42.71652" lon="0.32393">
        <ele>2005.9</ele>
        <time>2009-08-03T07:46:23Z</time>
      </trkpt>
      <trkpt lat="42.7164" lon="0.32388">
        <ele>2011.7</ele>
        <time>2009-08-03T07:46:47Z</time>
      </trkpt>
      <trkpt lat="42.71627" lon="0.32381">
        <ele>2016</ele>
        <time>2009-08-03T07:47:12Z</time>
      </trkpt>
      <trkpt lat="42.71618" lon="0.32377">
        <ele>2020.3</ele>
        <time>2009-08-03T07:47:30Z</time>
      </trkpt>
      <trkpt lat="42.71608" lon="0.32374">
        <ele>2024.2</ele>
        <time>2009-08-03T07:47:51Z</time>
      </trkpt>
      <trkpt lat="42.71597" lon="0.32374">
        <ele>2024.7</ele>
        <time>2009-08-03T07:48:11Z</time>
      </trkpt>
      <trkpt lat="42.71587" lon="0.32373">
        <ele>2029.5</ele>
        <time>2009-08-03T07:48:35Z</time>
      </trkpt>
      <trkpt lat="42.71581" lon="0.3237">
        <ele>2033.3</ele>
        <time>2009-08-03T07:48:55Z</time>
      </trkpt>
      <trkpt lat="42.71573" lon="0.32364">
        <ele>2047.3</ele>
        <time>2009-08-03T07:49:34Z</time>
      </trkpt>
      <trkpt lat="42.71563" lon="0.32368">
        <ele>2049.7</ele>
        <time>2009-08-03T07:49:55Z</time>
      </trkpt>
      <trkpt lat="42.71554" lon="0.32372">
        <ele>2054</ele>
        <time>2009-08-03T07:50:13Z</time>
      </trkpt>
      <trkpt lat="42.71547" lon="0.32374">
        <ele>2049.7</ele>
        <time>2009-08-03T07:50:33Z</time>
      </trkpt>
      <trkpt lat="42.71539" lon="0.3238">
        <ele>2045.3</ele>
        <time>2009-08-03T07:50:52Z</time>
      </trkpt>
      <trkpt lat="42.71539" lon="0.32397">
        <ele>2043.9</ele>
        <time>2009-08-03T07:51:24Z</time>
      </trkpt>
      <trkpt lat="42.71535" lon="0.32409">
        <ele>2040.5</ele>
        <time>2009-08-03T07:51:44Z</time>
      </trkpt>
      <trkpt lat="42.71535" lon="0.32417">
        <ele>2040.5</ele>
        <time>2009-08-03T07:52:07Z</time>
      </trkpt>
      <trkpt lat="42.71536" lon="0.32422">
        <ele>2049.7</ele>
        <time>2009-08-03T07:52:35Z</time>
      </trkpt>
      <trkpt lat="42.71528" lon="0.32431">
        <ele>2045.8</ele>
        <time>2009-08-03T07:52:56Z</time>
      </trkpt>
      <trkpt lat="42.7153" lon="0.3243">
        <ele>2055.9</ele>
        <time>2009-08-03T07:53:45Z</time>
      </trkpt>
      <trkpt lat="42.7153" lon="0.32433">
        <ele>2053.5</ele>
        <time>2009-08-03T07:54:35Z</time>
      </trkpt>
      <trkpt lat="42.71524" lon="0.3245">
        <ele>2038.6</ele>
        <time>2009-08-03T07:54:56Z</time>
      </trkpt>
      <trkpt lat="42.71523" lon="0.32453">
        <ele>2055</ele>
        <time>2009-08-03T07:55:10Z</time>
      </trkpt>
      <trkpt lat="42.71525" lon="0.32455">
        <ele>2072.3</ele>
        <time>2009-08-03T07:55:31Z</time>
      </trkpt>
      <trkpt lat="42.71524" lon="0.32459">
        <ele>2081.9</ele>
        <time>2009-08-03T07:55:55Z</time>
      </trkpt>
      <trkpt lat="42.71524" lon="0.3247">
        <ele>2083.8</ele>
        <time>2009-08-03T07:56:14Z</time>
      </trkpt>
      <trkpt lat="42.71522" lon="0.3248">
        <ele>2090.5</ele>
        <time>2009-08-03T07:56:37Z</time>
      </trkpt>
      <trkpt lat="42.71523" lon="0.32487">
        <ele>2097.7</ele>
        <time>2009-08-03T07:56:56Z</time>
      </trkpt>
      <trkpt lat="42.71521" lon="0.32492">
        <ele>2103</ele>
        <time>2009-08-03T07:57:15Z</time>
      </trkpt>
      <trkpt lat="42.71513" lon="0.32505">
        <ele>2104</ele>
        <time>2009-08-03T07:57:33Z</time>
      </trkpt>
      <trkpt lat="42.71507" lon="0.32517">
        <ele>2104.5</ele>
        <time>2009-08-03T07:57:50Z</time>
      </trkpt>
      <trkpt lat="42.715" lon="0.3252">
        <ele>2113.6</ele>
        <time>2009-08-03T07:58:07Z</time>
      </trkpt>
      <trkpt lat="42.71494" lon="0.32523">
        <ele>2117.4</ele>
        <time>2009-08-03T07:58:30Z</time>
      </trkpt>
      <trkpt lat="42.71494" lon="0.32523">
        <ele>2113.1</ele>
        <time>2009-08-03T07:58:53Z</time>
      </trkpt>
      <trkpt lat="42.71486" lon="0.32525">
        <ele>2120.8</ele>
        <time>2009-08-03T08:02:44Z</time>
      </trkpt>
      <trkpt lat="42.71478" lon="0.3253">
        <ele>2122.7</ele>
        <time>2009-08-03T08:03:04Z</time>
      </trkpt>
      <trkpt lat="42.71473" lon="0.32525">
        <ele>2126.6</ele>
        <time>2009-08-03T08:03:21Z</time>
      </trkpt>
      <trkpt lat="42.7147" lon="0.32514">
        <ele>2129.9</ele>
        <time>2009-08-03T08:03:40Z</time>
      </trkpt>
      <trkpt lat="42.71464" lon="0.32511">
        <ele>2138.1</ele>
        <time>2009-08-03T08:04:00Z</time>
      </trkpt>
      <trkpt lat="42.71459" lon="0.32509">
        <ele>2141.5</ele>
        <time>2009-08-03T08:04:21Z</time>
      </trkpt>
      <trkpt lat="42.71452" lon="0.32511">
        <ele>2145.3</ele>
        <time>2009-08-03T08:04:39Z</time>
      </trkpt>
      <trkpt lat="42.71443" lon="0.32513">
        <ele>2148.7</ele>
        <time>2009-08-03T08:05:02Z</time>
      </trkpt>
      <trkpt lat="42.71439" lon="0.32508">
        <ele>2150.6</ele>
        <time>2009-08-03T08:05:23Z</time>
      </trkpt>
      <trkpt lat="42.71438" lon="0.325">
        <ele>2155.9</ele>
        <time>2009-08-03T08:05:43Z</time>
      </trkpt>
      <trkpt lat="42.71439" lon="0.32496">
        <ele>2157.3</ele>
        <time>2009-08-03T08:06:06Z</time>
      </trkpt>
      <trkpt lat="42.71434" lon="0.32486">
        <ele>2163.6</ele>
        <time>2009-08-03T08:06:28Z</time>
      </trkpt>
      <trkpt lat="42.71429" lon="0.32488">
        <ele>2168.9</ele>
        <time>2009-08-03T08:06:46Z</time>
      </trkpt>
      <trkpt lat="42.71424" lon="0.32481">
        <ele>2172.2</ele>
        <time>2009-08-03T08:07:26Z</time>
      </trkpt>
      <trkpt lat="42.71418" lon="0.32473">
        <ele>2176.1</ele>
        <time>2009-08-03T08:07:46Z</time>
      </trkpt>
      <trkpt lat="42.71412" lon="0.32467">
        <ele>2179.4</ele>
        <time>2009-08-03T08:08:07Z</time>
      </trkpt>
      <trkpt lat="42.71408" lon="0.32464">
        <ele>2181.8</ele>
        <time>2009-08-03T08:08:25Z</time>
      </trkpt>
      <trkpt lat="42.714" lon="0.32463">
        <ele>2184.7</ele>
        <time>2009-08-03T08:08:46Z</time>
      </trkpt>
      <trkpt lat="42.71392" lon="0.32464">
        <ele>2188.1</ele>
        <time>2009-08-03T08:09:06Z</time>
      </trkpt>
      <trkpt lat="42.71384" lon="0.32464">
        <ele>2191.5</ele>
        <time>2009-08-03T08:09:26Z</time>
      </trkpt>
      <trkpt lat="42.71378" lon="0.3246">
        <ele>2193.9</ele>
        <time>2009-08-03T08:09:47Z</time>
      </trkpt>
      <trkpt lat="42.71371" lon="0.32451">
        <ele>2196.3</ele>
        <time>2009-08-03T08:10:08Z</time>
      </trkpt>
      <trkpt lat="42.71364" lon="0.32442">
        <ele>2200.1</ele>
        <time>2009-08-03T08:10:30Z</time>
      </trkpt>
      <trkpt lat="42.71356" lon="0.32445">
        <ele>2200.6</ele>
        <time>2009-08-03T08:10:51Z</time>
      </trkpt>
      <trkpt lat="42.71345" lon="0.32448">
        <ele>2205.9</ele>
        <time>2009-08-03T08:11:15Z</time>
      </trkpt>
      <trkpt lat="42.71336" lon="0.32453">
        <ele>2214.1</ele>
        <time>2009-08-03T08:11:39Z</time>
      </trkpt>
      <trkpt lat="42.71327" lon="0.32454">
        <ele>2218.9</ele>
        <time>2009-08-03T08:12:03Z</time>
      </trkpt>
      <trkpt lat="42.7132" lon="0.32455">
        <ele>2221.3</ele>
        <time>2009-08-03T08:12:21Z</time>
      </trkpt>
      <trkpt lat="42.71314" lon="0.32455">
        <ele>2221.3</ele>
        <time>2009-08-03T08:12:42Z</time>
      </trkpt>
      <trkpt lat="42.71308" lon="0.32452">
        <ele>2231.8</ele>
        <time>2009-08-03T08:13:01Z</time>
      </trkpt>
      <trkpt lat="42.71302" lon="0.32452">
        <ele>2239</ele>
        <time>2009-08-03T08:13:22Z</time>
      </trkpt>
      <trkpt lat="42.71299" lon="0.32444">
        <ele>2242.4</ele>
        <time>2009-08-03T08:13:46Z</time>
      </trkpt>
      <trkpt lat="42.71292" lon="0.32439">
        <ele>2248.7</ele>
        <time>2009-08-03T08:14:45Z</time>
      </trkpt>
      <trkpt lat="42.7129" lon="0.32441">
        <ele>2245.3</ele>
        <time>2009-08-03T08:15:05Z</time>
      </trkpt>
      <trkpt lat="42.71284" lon="0.32439">
        <ele>2245.3</ele>
        <time>2009-08-03T08:15:24Z</time>
      </trkpt>
      <trkpt lat="42.71277" lon="0.32431">
        <ele>2249.1</ele>
        <time>2009-08-03T08:15:47Z</time>
      </trkpt>
      <trkpt lat="42.7127" lon="0.3242">
        <ele>2250.1</ele>
        <time>2009-08-03T08:16:07Z</time>
      </trkpt>
      <trkpt lat="42.71262" lon="0.32417">
        <ele>2254.9</ele>
        <time>2009-08-03T08:16:29Z</time>
      </trkpt>
      <trkpt lat="42.71255" lon="0.32416">
        <ele>2257.3</ele>
        <time>2009-08-03T08:16:48Z</time>
      </trkpt>
      <trkpt lat="42.71249" lon="0.32419">
        <ele>2260.2</ele>
        <time>2009-08-03T08:17:08Z</time>
      </trkpt>
      <trkpt lat="42.71242" lon="0.32417">
        <ele>2267.4</ele>
        <time>2009-08-03T08:17:28Z</time>
      </trkpt>
      <trkpt lat="42.71238" lon="0.32417">
        <ele>2273.2</ele>
        <time>2009-08-03T08:17:59Z</time>
      </trkpt>
      <trkpt lat="42.71233" lon="0.32413">
        <ele>2280.9</ele>
        <time>2009-08-03T08:18:30Z</time>
      </trkpt>
      <trkpt lat="42.71226" lon="0.32405">
        <ele>2285.7</ele>
        <time>2009-08-03T08:18:52Z</time>
      </trkpt>
      <trkpt lat="42.71218" lon="0.32393">
        <ele>2286.6</ele>
        <time>2009-08-03T08:19:16Z</time>
      </trkpt>
      <trkpt lat="42.71216" lon="0.32395">
        <ele>2281.8</ele>
        <time>2009-08-03T08:19:42Z</time>
      </trkpt>
      <trkpt lat="42.71216" lon="0.32396">
        <ele>2276.1</ele>
        <time>2009-08-03T08:21:06Z</time>
      </trkpt>
      <trkpt lat="42.71214" lon="0.324">
        <ele>2282.3</ele>
        <time>2009-08-03T08:25:43Z</time>
      </trkpt>
      <trkpt lat="42.71208" lon="0.32401">
        <ele>2286.2</ele>
        <time>2009-08-03T08:26:03Z</time>
      </trkpt>
      <trkpt lat="42.71201" lon="0.32404">
        <ele>2292.4</ele>
        <time>2009-08-03T08:26:26Z</time>
      </trkpt>
      <trkpt lat="42.71195" lon="0.32408">
        <ele>2295.8</ele>
        <time>2009-08-03T08:26:48Z</time>
      </trkpt>
      <trkpt lat="42.71188" lon="0.32405">
        <ele>2298.2</ele>
        <time>2009-08-03T08:27:08Z</time>
      </trkpt>
      <trkpt lat="42.7118" lon="0.32404">
        <ele>2302</ele>
        <time>2009-08-03T08:27:30Z</time>
      </trkpt>
      <trkpt lat="42.71173" lon="0.32405">
        <ele>2304.9</ele>
        <time>2009-08-03T08:27:51Z</time>
      </trkpt>
      <trkpt lat="42.71165" lon="0.32401">
        <ele>2309.7</ele>
        <time>2009-08-03T08:28:15Z</time>
      </trkpt>
      <trkpt lat="42.7116" lon="0.32396">
        <ele>2315</ele>
        <time>2009-08-03T08:28:35Z</time>
      </trkpt>
      <trkpt lat="42.71154" lon="0.32396">
        <ele>2316.4</ele>
        <time>2009-08-03T08:28:56Z</time>
      </trkpt>
      <trkpt lat="42.71148" lon="0.32399">
        <ele>2319.3</ele>
        <time>2009-08-03T08:29:16Z</time>
      </trkpt>
      <trkpt lat="42.7114" lon="0.32398">
        <ele>2324.1</ele>
        <time>2009-08-03T08:29:40Z</time>
      </trkpt>
      <trkpt lat="42.71139" lon="0.32396">
        <ele>2331.3</ele>
        <time>2009-08-03T08:30:42Z</time>
      </trkpt>
      <trkpt lat="42.71133" lon="0.32397">
        <ele>2333.7</ele>
        <time>2009-08-03T08:30:58Z</time>
      </trkpt>
      <trkpt lat="42.71125" lon="0.324">
        <ele>2337.1</ele>
        <time>2009-08-03T08:31:21Z</time>
      </trkpt>
      <trkpt lat="42.71118" lon="0.32397">
        <ele>2340.9</ele>
        <time>2009-08-03T08:31:41Z</time>
      </trkpt>
      <trkpt lat="42.71111" lon="0.32393">
        <ele>2346.2</ele>
        <time>2009-08-03T08:32:04Z</time>
      </trkpt>
      <trkpt lat="42.71104" lon="0.32386">
        <ele>2350.1</ele>
        <time>2009-08-03T08:32:30Z</time>
      </trkpt>
      <trkpt lat="42.71096" lon="0.32378">
        <ele>2354.9</ele>
        <time>2009-08-03T08:32:54Z</time>
      </trkpt>
      <trkpt lat="42.7109" lon="0.32369">
        <ele>2357.8</ele>
        <time>2009-08-03T08:33:17Z</time>
      </trkpt>
      <trkpt lat="42.71082" lon="0.32362">
        <ele>2363.5</ele>
        <time>2009-08-03T08:33:42Z</time>
      </trkpt>
      <trkpt lat="42.71078" lon="0.32362">
        <ele>2368.8</ele>
        <time>2009-08-03T08:34:07Z</time>
      </trkpt>
      <trkpt lat="42.71073" lon="0.32359">
        <ele>2373.2</ele>
        <time>2009-08-03T08:34:25Z</time>
      </trkpt>
      <trkpt lat="42.7107" lon="0.32357">
        <ele>2374.6</ele>
        <time>2009-08-03T08:34:44Z</time>
      </trkpt>
      <trkpt lat="42.71064" lon="0.32361">
        <ele>2375.6</ele>
        <time>2009-08-03T08:35:02Z</time>
      </trkpt>
      <trkpt lat="42.71057" lon="0.3236">
        <ele>2380.4</ele>
        <time>2009-08-03T08:35:25Z</time>
      </trkpt>
      <trkpt lat="42.71053" lon="0.32361">
        <ele>2387.1</ele>
        <time>2009-08-03T08:35:49Z</time>
      </trkpt>
      <trkpt lat="42.71044" lon="0.32363">
        <ele>2384.7</ele>
        <time>2009-08-03T08:36:12Z</time>
      </trkpt>
      <trkpt lat="42.7104" lon="0.32362">
        <ele>2391.4</ele>
        <time>2009-08-03T08:36:34Z</time>
      </trkpt>
      <trkpt lat="42.71032" lon="0.3235">
        <ele>2397.7</ele>
        <time>2009-08-03T08:36:59Z</time>
      </trkpt>
      <trkpt lat="42.71026" lon="0.32337">
        <ele>2402.5</ele>
        <time>2009-08-03T08:37:23Z</time>
      </trkpt>
      <trkpt lat="42.71021" lon="0.32328">
        <ele>2402.5</ele>
        <time>2009-08-03T08:37:45Z</time>
      </trkpt>
      <trkpt lat="42.71017" lon="0.3232">
        <ele>2409.7</ele>
        <time>2009-08-03T08:38:08Z</time>
      </trkpt>
      <trkpt lat="42.7101" lon="0.32317">
        <ele>2410.6</ele>
        <time>2009-08-03T08:38:29Z</time>
      </trkpt>
      <trkpt lat="42.71004" lon="0.32308">
        <ele>2423.6</ele>
        <time>2009-08-03T08:38:53Z</time>
      </trkpt>
      <trkpt lat="42.70999" lon="0.32301">
        <ele>2416.4</ele>
        <time>2009-08-03T08:39:17Z</time>
      </trkpt>
      <trkpt lat="42.70995" lon="0.32295">
        <ele>2412.1</ele>
        <time>2009-08-03T08:39:36Z</time>
      </trkpt>
      <trkpt lat="42.70992" lon="0.32284">
        <ele>2424.6</ele>
        <time>2009-08-03T08:39:57Z</time>
      </trkpt>
      <trkpt lat="42.70992" lon="0.32269">
        <ele>2437.1</ele>
        <time>2009-08-03T08:40:20Z</time>
      </trkpt>
      <trkpt lat="42.70986" lon="0.32267">
        <ele>2436.1</ele>
        <time>2009-08-03T08:40:42Z</time>
      </trkpt>
      <trkpt lat="42.70981" lon="0.32264">
        <ele>2438.5</ele>
        <time>2009-08-03T08:41:12Z</time>
      </trkpt>
      <trkpt lat="42.70973" lon="0.32261">
        <ele>2442.8</ele>
        <time>2009-08-03T08:41:35Z</time>
      </trkpt>
      <trkpt lat="42.70966" lon="0.32255">
        <ele>2450.1</ele>
        <time>2009-08-03T08:42:00Z</time>
      </trkpt>
      <trkpt lat="42.7096" lon="0.3225">
        <ele>2456.3</ele>
        <time>2009-08-03T08:42:24Z</time>
      </trkpt>
      <trkpt lat="42.70952" lon="0.32246">
        <ele>2454.4</ele>
        <time>2009-08-03T08:42:48Z</time>
      </trkpt>
      <trkpt lat="42.7095" lon="0.32241">
        <ele>2466.9</ele>
        <time>2009-08-03T08:43:13Z</time>
      </trkpt>
      <trkpt lat="42.70944" lon="0.32236">
        <ele>2468.3</ele>
        <time>2009-08-03T08:43:33Z</time>
      </trkpt>
      <trkpt lat="42.70936" lon="0.32234">
        <ele>2465</ele>
        <time>2009-08-03T08:43:56Z</time>
      </trkpt>
      <trkpt lat="42.70933" lon="0.32229">
        <ele>2469.8</ele>
        <time>2009-08-03T08:44:14Z</time>
      </trkpt>
      <trkpt lat="42.70928" lon="0.32225">
        <ele>2471.7</ele>
        <time>2009-08-03T08:44:37Z</time>
      </trkpt>
      <trkpt lat="42.70921" lon="0.32221">
        <ele>2477</ele>
        <time>2009-08-03T08:44:59Z</time>
      </trkpt>
      <trkpt lat="42.70916" lon="0.32217">
        <ele>2481.3</ele>
        <time>2009-08-03T08:45:20Z</time>
      </trkpt>
      <trkpt lat="42.70916" lon="0.32214">
        <ele>2482.3</ele>
        <time>2009-08-03T08:45:58Z</time>
      </trkpt>
      <trkpt lat="42.70907" lon="0.32212">
        <ele>2485.6</ele>
        <time>2009-08-03T08:46:34Z</time>
      </trkpt>
      <trkpt lat="42.70901" lon="0.32206">
        <ele>2491.4</ele>
        <time>2009-08-03T08:46:58Z</time>
      </trkpt>
      <trkpt lat="42.70894" lon="0.32206">
        <ele>2490.9</ele>
        <time>2009-08-03T08:47:21Z</time>
      </trkpt>
      <trkpt lat="42.70887" lon="0.32204">
        <ele>2498.6</ele>
        <time>2009-08-03T08:47:42Z</time>
      </trkpt>
      <trkpt lat="42.70881" lon="0.32204">
        <ele>2504.4</ele>
        <time>2009-08-03T08:48:04Z</time>
      </trkpt>
      <trkpt lat="42.70873" lon="0.32201">
        <ele>2507.3</ele>
        <time>2009-08-03T08:48:29Z</time>
      </trkpt>
      <trkpt lat="42.7087" lon="0.32201">
        <ele>2509.7</ele>
        <time>2009-08-03T08:48:53Z</time>
      </trkpt>
      <trkpt lat="42.70864" lon="0.32198">
        <ele>2514</ele>
        <time>2009-08-03T08:49:11Z</time>
      </trkpt>
      <trkpt lat="42.70856" lon="0.32195">
        <ele>2516.9</ele>
        <time>2009-08-03T08:49:33Z</time>
      </trkpt>
      <trkpt lat="42.70846" lon="0.32192">
        <ele>2513</ele>
        <time>2009-08-03T08:49:56Z</time>
      </trkpt>
      <trkpt lat="42.7084" lon="0.32183">
        <ele>2515.9</ele>
        <time>2009-08-03T08:50:20Z</time>
      </trkpt>
      <trkpt lat="42.70835" lon="0.32177">
        <ele>2520.7</ele>
        <time>2009-08-03T08:50:39Z</time>
      </trkpt>
      <trkpt lat="42.70832" lon="0.32173">
        <ele>2524.6</ele>
        <time>2009-08-03T08:51:05Z</time>
      </trkpt>
      <trkpt lat="42.70826" lon="0.32165">
        <ele>2529.8</ele>
        <time>2009-08-03T08:51:30Z</time>
      </trkpt>
      <trkpt lat="42.70824" lon="0.32157">
        <ele>2535.6</ele>
        <time>2009-08-03T08:52:00Z</time>
      </trkpt>
      <trkpt lat="42.70818" lon="0.32148">
        <ele>2540.4</ele>
        <time>2009-08-03T08:52:23Z</time>
      </trkpt>
      <trkpt lat="42.70814" lon="0.32143">
        <ele>2541.4</ele>
        <time>2009-08-03T08:52:49Z</time>
      </trkpt>
      <trkpt lat="42.7081" lon="0.32134">
        <ele>2549.1</ele>
        <time>2009-08-03T08:53:10Z</time>
      </trkpt>
      <trkpt lat="42.70806" lon="0.32123">
        <ele>2556.3</ele>
        <time>2009-08-03T08:53:34Z</time>
      </trkpt>
      <trkpt lat="42.708" lon="0.32118">
        <ele>2560.1</ele>
        <time>2009-08-03T08:54:12Z</time>
      </trkpt>
      <trkpt lat="42.70795" lon="0.32114">
        <ele>2564</ele>
        <time>2009-08-03T08:54:33Z</time>
      </trkpt>
      <trkpt lat="42.70791" lon="0.32107">
        <ele>2567.3</ele>
        <time>2009-08-03T08:54:55Z</time>
      </trkpt>
      <trkpt lat="42.7079" lon="0.321">
        <ele>2574.5</ele>
        <time>2009-08-03T08:55:17Z</time>
      </trkpt>
      <trkpt lat="42.70788" lon="0.32091">
        <ele>2577.4</ele>
        <time>2009-08-03T08:55:41Z</time>
      </trkpt>
      <trkpt lat="42.70787" lon="0.32084">
        <ele>2581.3</ele>
        <time>2009-08-03T08:56:08Z</time>
      </trkpt>
      <trkpt lat="42.70787" lon="0.32075">
        <ele>2585.1</ele>
        <time>2009-08-03T08:56:29Z</time>
      </trkpt>
      <trkpt lat="42.70787" lon="0.32068">
        <ele>2589</ele>
        <time>2009-08-03T08:56:59Z</time>
      </trkpt>
      <trkpt lat="42.7079" lon="0.32058">
        <ele>2593.3</ele>
        <time>2009-08-03T08:57:21Z</time>
      </trkpt>
      <trkpt lat="42.70792" lon="0.32049">
        <ele>2597.1</ele>
        <time>2009-08-03T08:57:49Z</time>
      </trkpt>
      <trkpt lat="42.70794" lon="0.32039">
        <ele>2601.5</ele>
        <time>2009-08-03T08:58:13Z</time>
      </trkpt>
      <trkpt lat="42.70794" lon="0.32029">
        <ele>2604.8</ele>
        <time>2009-08-03T08:58:38Z</time>
      </trkpt>
      <trkpt lat="42.70793" lon="0.32017">
        <ele>2608.2</ele>
        <time>2009-08-03T08:59:03Z</time>
      </trkpt>
      <trkpt lat="42.70791" lon="0.32017">
        <ele>2605.8</ele>
        <time>2009-08-03T08:59:34Z</time>
      </trkpt>
      <trkpt lat="42.70787" lon="0.32008">
        <ele>2614.9</ele>
        <time>2009-08-03T09:00:07Z</time>
      </trkpt>
      <trkpt lat="42.70785" lon="0.32001">
        <ele>2619.7</ele>
        <time>2009-08-03T09:00:32Z</time>
      </trkpt>
      <trkpt lat="42.70781" lon="0.31995">
        <ele>2626.5</ele>
        <time>2009-08-03T09:00:50Z</time>
      </trkpt>
      <trkpt lat="42.70776" lon="0.31994">
        <ele>2626.5</ele>
        <time>2009-08-03T09:01:14Z</time>
      </trkpt>
      <trkpt lat="42.7077" lon="0.31987">
        <ele>2629.3</ele>
        <time>2009-08-03T09:01:41Z</time>
      </trkpt>
      <trkpt lat="42.70767" lon="0.31982">
        <ele>2636.6</ele>
        <time>2009-08-03T09:02:12Z</time>
      </trkpt>
      <trkpt lat="42.7076" lon="0.31977">
        <ele>2642.3</ele>
        <time>2009-08-03T09:02:37Z</time>
      </trkpt>
      <trkpt lat="42.70755" lon="0.31975">
        <ele>2642.8</ele>
        <time>2009-08-03T09:02:59Z</time>
      </trkpt>
      <trkpt lat="42.70753" lon="0.31971">
        <ele>2647.6</ele>
        <time>2009-08-03T09:03:24Z</time>
      </trkpt>
      <trkpt lat="42.70748" lon="0.31967">
        <ele>2652.4</ele>
        <time>2009-08-03T09:03:47Z</time>
      </trkpt>
      <trkpt lat="42.70745" lon="0.31965">
        <ele>2656.7</ele>
        <time>2009-08-03T09:04:11Z</time>
      </trkpt>
      <trkpt lat="42.70741" lon="0.31963">
        <ele>2658.7</ele>
        <time>2009-08-03T09:04:31Z</time>
      </trkpt>
      <trkpt lat="42.70738" lon="0.31959">
        <ele>2659.1</ele>
        <time>2009-08-03T09:04:58Z</time>
      </trkpt>
      <trkpt lat="42.70734" lon="0.31959">
        <ele>2663</ele>
        <time>2009-08-03T09:05:26Z</time>
      </trkpt>
      <trkpt lat="42.70725" lon="0.31961">
        <ele>2662.5</ele>
        <time>2009-08-03T09:05:50Z</time>
      </trkpt>
      <trkpt lat="42.7072" lon="0.31954">
        <ele>2671.6</ele>
        <time>2009-08-03T09:06:29Z</time>
      </trkpt>
      <trkpt lat="42.70715" lon="0.3195">
        <ele>2673.6</ele>
        <time>2009-08-03T09:06:58Z</time>
      </trkpt>
      <trkpt lat="42.70712" lon="0.31948">
        <ele>2678.4</ele>
        <time>2009-08-03T09:07:20Z</time>
      </trkpt>
      <trkpt lat="42.70709" lon="0.3195">
        <ele>2679.3</ele>
        <time>2009-08-03T09:08:01Z</time>
      </trkpt>
      <trkpt lat="42.70701" lon="0.31952">
        <ele>2681.3</ele>
        <time>2009-08-03T09:08:23Z</time>
      </trkpt>
      <trkpt lat="42.7069" lon="0.31957">
        <ele>2683.7</ele>
        <time>2009-08-03T09:08:50Z</time>
      </trkpt>
      <trkpt lat="42.7068" lon="0.31964">
        <ele>2686.5</ele>
        <time>2009-08-03T09:09:10Z</time>
      </trkpt>
      <trkpt lat="42.70674" lon="0.31966">
        <ele>2688.5</ele>
        <time>2009-08-03T09:09:32Z</time>
      </trkpt>
      <trkpt lat="42.70668" lon="0.31971">
        <ele>2687</ele>
        <time>2009-08-03T09:10:15Z</time>
      </trkpt>
      <trkpt lat="42.70661" lon="0.31986">
        <ele>2687</ele>
        <time>2009-08-03T09:10:40Z</time>
      </trkpt>
      <trkpt lat="42.70649" lon="0.32">
        <ele>2687.5</ele>
        <time>2009-08-03T09:11:02Z</time>
      </trkpt>
      <trkpt lat="42.70642" lon="0.32016">
        <ele>2691.8</ele>
        <time>2009-08-03T09:11:27Z</time>
      </trkpt>
      <trkpt lat="42.70641" lon="0.32021">
        <ele>2693.8</ele>
        <time>2009-08-03T09:11:59Z</time>
      </trkpt>
      <trkpt lat="42.70637" lon="0.32035">
        <ele>2696.6</ele>
        <time>2009-08-03T09:12:27Z</time>
      </trkpt>
      <trkpt lat="42.70632" lon="0.32049">
        <ele>2701</ele>
        <time>2009-08-03T09:12:56Z</time>
      </trkpt>
      <trkpt lat="42.70634" lon="0.32057">
        <ele>2704.3</ele>
        <time>2009-08-03T09:13:17Z</time>
      </trkpt>
      <trkpt lat="42.70627" lon="0.32066">
        <ele>2702.4</ele>
        <time>2009-08-03T09:13:47Z</time>
      </trkpt>
      <trkpt lat="42.70622" lon="0.32082">
        <ele>2705.3</ele>
        <time>2009-08-03T09:14:10Z</time>
      </trkpt>
      <trkpt lat="42.70613" lon="0.32092">
        <ele>2708.2</ele>
        <time>2009-08-03T09:14:33Z</time>
      </trkpt>
      <trkpt lat="42.70608" lon="0.32106">
        <ele>2713</ele>
        <time>2009-08-03T09:15:00Z</time>
      </trkpt>
      <trkpt lat="42.70606" lon="0.32119">
        <ele>2719.7</ele>
        <time>2009-08-03T09:15:23Z</time>
      </trkpt>
      <trkpt lat="42.70604" lon="0.32128">
        <ele>2723.1</ele>
        <time>2009-08-03T09:15:47Z</time>
      </trkpt>
      <trkpt lat="42.70602" lon="0.32137">
        <ele>2727.4</ele>
        <time>2009-08-03T09:16:10Z</time>
      </trkpt>
      <trkpt lat="42.70604" lon="0.32145">
        <ele>2731.2</ele>
        <time>2009-08-03T09:16:36Z</time>
      </trkpt>
      <trkpt lat="42.7061" lon="0.32152">
        <ele>2735.6</ele>
        <time>2009-08-03T09:16:59Z</time>
      </trkpt>
      <trkpt lat="42.70611" lon="0.32159">
        <ele>2738</ele>
        <time>2009-08-03T09:17:21Z</time>
      </trkpt>
      <trkpt lat="42.7061" lon="0.32166">
        <ele>2739.9</ele>
        <time>2009-08-03T09:17:41Z</time>
      </trkpt>
      <trkpt lat="42.70608" lon="0.32173">
        <ele>2744.7</ele>
        <time>2009-08-03T09:18:04Z</time>
      </trkpt>
      <trkpt lat="42.70608" lon="0.3218">
        <ele>2748.1</ele>
        <time>2009-08-03T09:18:21Z</time>
      </trkpt>
      <trkpt lat="42.70606" lon="0.32187">
        <ele>2752.9</ele>
        <time>2009-08-03T09:18:40Z</time>
      </trkpt>
      <trkpt lat="42.70604" lon="0.32188">
        <ele>2753.8</ele>
        <time>2009-08-03T09:19:02Z</time>
      </trkpt>
      <trkpt lat="42.70605" lon="0.32192">
        <ele>2757.2</ele>
        <time>2009-08-03T09:19:31Z</time>
      </trkpt>
      <trkpt lat="42.70605" lon="0.322">
        <ele>2759.6</ele>
        <time>2009-08-03T09:19:55Z</time>
      </trkpt>
      <trkpt lat="42.70606" lon="0.32204">
        <ele>2763.4</ele>
        <time>2009-08-03T09:20:35Z</time>
      </trkpt>
      <trkpt lat="42.70603" lon="0.3221">
        <ele>2763.4</ele>
        <time>2009-08-03T09:21:07Z</time>
      </trkpt>
      <trkpt lat="42.70605" lon="0.32218">
        <ele>2767.8</ele>
        <time>2009-08-03T09:21:27Z</time>
      </trkpt>
      <trkpt lat="42.70604" lon="0.32223">
        <ele>2771.1</ele>
        <time>2009-08-03T09:21:47Z</time>
      </trkpt>
      <trkpt lat="42.70602" lon="0.32231">
        <ele>2773.5</ele>
        <time>2009-08-03T09:22:08Z</time>
      </trkpt>
      <trkpt lat="42.70598" lon="0.32238">
        <ele>2775</ele>
        <time>2009-08-03T09:22:27Z</time>
      </trkpt>
      <trkpt lat="42.70598" lon="0.32246">
        <ele>2780.3</ele>
        <time>2009-08-03T09:22:48Z</time>
      </trkpt>
      <trkpt lat="42.70598" lon="0.32252">
        <ele>2783.6</ele>
        <time>2009-08-03T09:23:10Z</time>
      </trkpt>
      <trkpt lat="42.70597" lon="0.32259">
        <ele>2787</ele>
        <time>2009-08-03T09:23:31Z</time>
      </trkpt>
      <trkpt lat="42.70596" lon="0.32266">
        <ele>2791.3</ele>
        <time>2009-08-03T09:23:53Z</time>
      </trkpt>
      <trkpt lat="42.70597" lon="0.32274">
        <ele>2795.2</ele>
        <time>2009-08-03T09:24:16Z</time>
      </trkpt>
      <trkpt lat="42.70595" lon="0.3228">
        <ele>2798.1</ele>
        <time>2009-08-03T09:24:35Z</time>
      </trkpt>
      <trkpt lat="42.70593" lon="0.32287">
        <ele>2801.9</ele>
        <time>2009-08-03T09:25:03Z</time>
      </trkpt>
      <trkpt lat="42.7059" lon="0.32294">
        <ele>2804.8</ele>
        <time>2009-08-03T09:25:22Z</time>
      </trkpt>
      <trkpt lat="42.70589" lon="0.32303">
        <ele>2810.1</ele>
        <time>2009-08-03T09:25:43Z</time>
      </trkpt>
      <trkpt lat="42.70587" lon="0.3231">
        <ele>2812.5</ele>
        <time>2009-08-03T09:26:08Z</time>
      </trkpt>
      <trkpt lat="42.70587" lon="0.3232">
        <ele>2815.4</ele>
        <time>2009-08-03T09:26:30Z</time>
      </trkpt>
      <trkpt lat="42.70585" lon="0.32327">
        <ele>2818.2</ele>
        <time>2009-08-03T09:26:51Z</time>
      </trkpt>
      <trkpt lat="42.7058" lon="0.32335">
        <ele>2821.1</ele>
        <time>2009-08-03T09:27:13Z</time>
      </trkpt>
      <trkpt lat="42.70579" lon="0.32342">
        <ele>2824</ele>
        <time>2009-08-03T09:27:35Z</time>
      </trkpt>
      <trkpt lat="42.70576" lon="0.32351">
        <ele>2826.4</ele>
        <time>2009-08-03T09:27:55Z</time>
      </trkpt>
      <trkpt lat="42.70574" lon="0.32359">
        <ele>2832.2</ele>
        <time>2009-08-03T09:28:16Z</time>
      </trkpt>
      <trkpt lat="42.7057" lon="0.32368">
        <ele>2838.9</ele>
        <time>2009-08-03T09:28:37Z</time>
      </trkpt>
      <trkpt lat="42.70569" lon="0.32376">
        <ele>2842.8</ele>
        <time>2009-08-03T09:29:00Z</time>
      </trkpt>
      <trkpt lat="42.70565" lon="0.32384">
        <ele>2845.2</ele>
        <time>2009-08-03T09:29:20Z</time>
      </trkpt>
      <trkpt lat="42.70562" lon="0.32392">
        <ele>2850</ele>
        <time>2009-08-03T09:29:40Z</time>
      </trkpt>
      <trkpt lat="42.70557" lon="0.32403">
        <ele>2855.3</ele>
        <time>2009-08-03T09:30:06Z</time>
      </trkpt>
      <trkpt lat="42.70554" lon="0.32414">
        <ele>2858.1</ele>
        <time>2009-08-03T09:30:27Z</time>
      </trkpt>
      <trkpt lat="42.70551" lon="0.32423">
        <ele>2862</ele>
        <time>2009-08-03T09:30:50Z</time>
      </trkpt>
      <trkpt lat="42.70547" lon="0.32433">
        <ele>2865.8</ele>
        <time>2009-08-03T09:31:11Z</time>
      </trkpt>
      <trkpt lat="42.70542" lon="0.32441">
        <ele>2869.7</ele>
        <time>2009-08-03T09:31:33Z</time>
      </trkpt>
      <trkpt lat="42.70537" lon="0.32453">
        <ele>2874</ele>
        <time>2009-08-03T09:31:54Z</time>
      </trkpt>
      <trkpt lat="42.70534" lon="0.32467">
        <ele>2877.8</ele>
        <time>2009-08-03T09:32:17Z</time>
      </trkpt>
      <trkpt lat="42.70531" lon="0.32478">
        <ele>2881.2</ele>
        <time>2009-08-03T09:32:38Z</time>
      </trkpt>
      <trkpt lat="42.7053" lon="0.32489">
        <ele>2885.5</ele>
        <time>2009-08-03T09:33:02Z</time>
      </trkpt>
      <trkpt lat="42.7053" lon="0.32498">
        <ele>2889.9</ele>
        <time>2009-08-03T09:33:23Z</time>
      </trkpt>
      <trkpt lat="42.70528" lon="0.32509">
        <ele>2893.7</ele>
        <time>2009-08-03T09:33:47Z</time>
      </trkpt>
      <trkpt lat="42.70525" lon="0.32523">
        <ele>2896.6</ele>
        <time>2009-08-03T09:34:11Z</time>
      </trkpt>
      <trkpt lat="42.70525" lon="0.32541">
        <ele>2900.4</ele>
        <time>2009-08-03T09:34:37Z</time>
      </trkpt>
      <trkpt lat="42.70524" lon="0.32542">
        <ele>2904.3</ele>
        <time>2009-08-03T09:35:02Z</time>
      </trkpt>
      <trkpt lat="42.70524" lon="0.3255">
        <ele>2903.8</ele>
        <time>2009-08-03T09:35:24Z</time>
      </trkpt>
      <trkpt lat="42.70524" lon="0.32552">
        <ele>2906.2</ele>
        <time>2009-08-03T09:36:22Z</time>
      </trkpt>
      <trkpt lat="42.70526" lon="0.32566">
        <ele>2902.8</ele>
        <time>2009-08-03T09:36:40Z</time>
      </trkpt>
      <trkpt lat="42.70527" lon="0.32568">
        <ele>2902.4</ele>
        <time>2009-08-03T09:36:42Z</time>
      </trkpt>
      <trkpt lat="42.70528" lon="0.32584">
        <ele>2900</ele>
        <time>2009-08-03T09:37:02Z</time>
      </trkpt>
      <trkpt lat="42.70529" lon="0.32601">
        <ele>2897.1</ele>
        <time>2009-08-03T09:37:22Z</time>
      </trkpt>
      <trkpt lat="42.70529" lon="0.3261">
        <ele>2895.6</ele>
        <time>2009-08-03T09:37:36Z</time>
      </trkpt>
      <trkpt lat="42.70532" lon="0.32619">
        <ele>2893.7</ele>
        <time>2009-08-03T09:37:55Z</time>
      </trkpt>
      <trkpt lat="42.70534" lon="0.32624">
        <ele>2894.2</ele>
        <time>2009-08-03T09:38:26Z</time>
      </trkpt>
      <trkpt lat="42.70535" lon="0.32638">
        <ele>2892.7</ele>
        <time>2009-08-03T09:38:38Z</time>
      </trkpt>
      <trkpt lat="42.70536" lon="0.32672">
        <ele>2887.5</ele>
        <time>2009-08-03T09:39:04Z</time>
      </trkpt>
      <trkpt lat="42.70537" lon="0.32691">
        <ele>2883.6</ele>
        <time>2009-08-03T09:39:19Z</time>
      </trkpt>
      <trkpt lat="42.70538" lon="0.32727">
        <ele>2874.5</ele>
        <time>2009-08-03T09:39:47Z</time>
      </trkpt>
      <trkpt lat="42.70537" lon="0.32745">
        <ele>2871.6</ele>
        <time>2009-08-03T09:40:02Z</time>
      </trkpt>
      <trkpt lat="42.70542" lon="0.32757">
        <ele>2868.7</ele>
        <time>2009-08-03T09:40:13Z</time>
      </trkpt>
      <trkpt lat="42.70544" lon="0.32769">
        <ele>2865.8</ele>
        <time>2009-08-03T09:40:23Z</time>
      </trkpt>
      <trkpt lat="42.70553" lon="0.3281">
        <ele>2860.5</ele>
        <time>2009-08-03T09:40:54Z</time>
      </trkpt>
      <trkpt lat="42.70565" lon="0.32846">
        <ele>2856.7</ele>
        <time>2009-08-03T09:41:20Z</time>
      </trkpt>
      <trkpt lat="42.70577" lon="0.32879">
        <ele>2857.7</ele>
        <time>2009-08-03T09:41:46Z</time>
      </trkpt>
      <trkpt lat="42.70587" lon="0.32901">
        <ele>2859.1</ele>
        <time>2009-08-03T09:42:07Z</time>
      </trkpt>
      <trkpt lat="42.70594" lon="0.32919">
        <ele>2859.1</ele>
        <time>2009-08-03T09:42:27Z</time>
      </trkpt>
      <trkpt lat="42.70602" lon="0.32941">
        <ele>2861</ele>
        <time>2009-08-03T09:42:51Z</time>
      </trkpt>
      <trkpt lat="42.70606" lon="0.32956">
        <ele>2862</ele>
        <time>2009-08-03T09:43:04Z</time>
      </trkpt>
      <trkpt lat="42.70612" lon="0.32981">
        <ele>2862.9</ele>
        <time>2009-08-03T09:43:26Z</time>
      </trkpt>
      <trkpt lat="42.7062" lon="0.32992">
        <ele>2866.3</ele>
        <time>2009-08-03T09:43:47Z</time>
      </trkpt>
      <trkpt lat="42.70624" lon="0.33012">
        <ele>2867.8</ele>
        <time>2009-08-03T09:44:08Z</time>
      </trkpt>
      <trkpt lat="42.7063" lon="0.33028">
        <ele>2871.6</ele>
        <time>2009-08-03T09:44:31Z</time>
      </trkpt>
      <trkpt lat="42.70637" lon="0.33038">
        <ele>2876.9</ele>
        <time>2009-08-03T09:44:55Z</time>
      </trkpt>
      <trkpt lat="42.70643" lon="0.33051">
        <ele>2879.3</ele>
        <time>2009-08-03T09:45:18Z</time>
      </trkpt>
      <trkpt lat="42.70652" lon="0.33056">
        <ele>2883.1</ele>
        <time>2009-08-03T09:45:40Z</time>
      </trkpt>
      <trkpt lat="42.70661" lon="0.33062">
        <ele>2886</ele>
        <time>2009-08-03T09:46:02Z</time>
      </trkpt>
      <trkpt lat="42.70669" lon="0.33071">
        <ele>2888.9</ele>
        <time>2009-08-03T09:46:27Z</time>
      </trkpt>
      <trkpt lat="42.70675" lon="0.33074">
        <ele>2894.7</ele>
        <time>2009-08-03T09:46:52Z</time>
      </trkpt>
      <trkpt lat="42.70678" lon="0.33082">
        <ele>2897.1</ele>
        <time>2009-08-03T09:47:10Z</time>
      </trkpt>
      <trkpt lat="42.70683" lon="0.33084">
        <ele>2900.4</ele>
        <time>2009-08-03T09:47:32Z</time>
      </trkpt>
      <trkpt lat="42.70686" lon="0.33092">
        <ele>2902.8</ele>
        <time>2009-08-03T09:47:51Z</time>
      </trkpt>
      <trkpt lat="42.70689" lon="0.33101">
        <ele>2906.2</ele>
        <time>2009-08-03T09:48:12Z</time>
      </trkpt>
      <trkpt lat="42.70693" lon="0.33108">
        <ele>2909.1</ele>
        <time>2009-08-03T09:48:32Z</time>
      </trkpt>
      <trkpt lat="42.70698" lon="0.33115">
        <ele>2915.3</ele>
        <time>2009-08-03T09:48:54Z</time>
      </trkpt>
      <trkpt lat="42.70704" lon="0.33116">
        <ele>2919.7</ele>
        <time>2009-08-03T09:49:16Z</time>
      </trkpt>
      <trkpt lat="42.70711" lon="0.33116">
        <ele>2923.5</ele>
        <time>2009-08-03T09:49:41Z</time>
      </trkpt>
      <trkpt lat="42.70714" lon="0.33124">
        <ele>2924.5</ele>
        <time>2009-08-03T09:50:04Z</time>
      </trkpt>
      <trkpt lat="42.70718" lon="0.33132">
        <ele>2927.8</ele>
        <time>2009-08-03T09:50:22Z</time>
      </trkpt>
      <trkpt lat="42.70718" lon="0.33152">
        <ele>2930.7</ele>
        <time>2009-08-03T09:50:48Z</time>
      </trkpt>
      <trkpt lat="42.70715" lon="0.33164">
        <ele>2932.6</ele>
        <time>2009-08-03T09:51:12Z</time>
      </trkpt>
      <trkpt lat="42.70719" lon="0.33171">
        <ele>2929.8</ele>
        <time>2009-08-03T09:51:34Z</time>
      </trkpt>
      <trkpt lat="42.7072" lon="0.3318">
        <ele>2930.7</ele>
        <time>2009-08-03T09:51:52Z</time>
      </trkpt>
      <trkpt lat="42.70715" lon="0.33193">
        <ele>2937.4</ele>
        <time>2009-08-03T09:52:14Z</time>
      </trkpt>
      <trkpt lat="42.70722" lon="0.33205">
        <ele>2933.1</ele>
        <time>2009-08-03T09:52:34Z</time>
      </trkpt>
      <trkpt lat="42.70723" lon="0.33219">
        <ele>2932.6</ele>
        <time>2009-08-03T09:52:55Z</time>
      </trkpt>
      <trkpt lat="42.70724" lon="0.33221">
        <ele>2931.2</ele>
        <time>2009-08-03T09:52:57Z</time>
      </trkpt>
      <trkpt lat="42.70723" lon="0.33234">
        <ele>2933.1</ele>
        <time>2009-08-03T09:53:07Z</time>
      </trkpt>
      <trkpt lat="42.70723" lon="0.33251">
        <ele>2933.1</ele>
        <time>2009-08-03T09:53:31Z</time>
      </trkpt>
      <trkpt lat="42.70728" lon="0.33265">
        <ele>2931.7</ele>
        <time>2009-08-03T09:53:49Z</time>
      </trkpt>
      <trkpt lat="42.7073" lon="0.33285">
        <ele>2932.6</ele>
        <time>2009-08-03T09:54:09Z</time>
      </trkpt>
      <trkpt lat="42.70732" lon="0.33287">
        <ele>2933.6</ele>
        <time>2009-08-03T09:54:32Z</time>
      </trkpt>
      <trkpt lat="42.70738" lon="0.33295">
        <ele>2938.4</ele>
        <time>2009-08-03T09:55:11Z</time>
      </trkpt>
      <trkpt lat="42.70743" lon="0.33289">
        <ele>2939.4</ele>
        <time>2009-08-03T09:55:59Z</time>
      </trkpt>
      <trkpt lat="42.70744" lon="0.33291">
        <ele>2944.7</ele>
        <time>2009-08-03T09:56:27Z</time>
      </trkpt>
      <trkpt lat="42.70748" lon="0.3329">
        <ele>2946.6</ele>
        <time>2009-08-03T09:56:46Z</time>
      </trkpt>
      <trkpt lat="42.70751" lon="0.33293">
        <ele>2947.5</ele>
        <time>2009-08-03T09:57:11Z</time>
      </trkpt>
      <trkpt lat="42.70751" lon="0.333">
        <ele>2950.9</ele>
        <time>2009-08-03T09:57:29Z</time>
      </trkpt>
      <trkpt lat="42.70753" lon="0.33308">
        <ele>2953.3</ele>
        <time>2009-08-03T09:57:50Z</time>
      </trkpt>
      <trkpt lat="42.70757" lon="0.33324">
        <ele>2955.2</ele>
        <time>2009-08-03T09:58:15Z</time>
      </trkpt>
      <trkpt lat="42.70762" lon="0.33337">
        <ele>2957.6</ele>
        <time>2009-08-03T09:58:35Z</time>
      </trkpt>
      <trkpt lat="42.70765" lon="0.33352">
        <ele>2961</ele>
        <time>2009-08-03T09:58:55Z</time>
      </trkpt>
      <trkpt lat="42.70769" lon="0.33368">
        <ele>2963.9</ele>
        <time>2009-08-03T09:59:18Z</time>
      </trkpt>
      <trkpt lat="42.70772" lon="0.3338">
        <ele>2966.8</ele>
        <time>2009-08-03T09:59:39Z</time>
      </trkpt>
      <trkpt lat="42.70776" lon="0.33389">
        <ele>2971.1</ele>
        <time>2009-08-03T09:59:58Z</time>
      </trkpt>
      <trkpt lat="42.70777" lon="0.33397">
        <ele>2974</ele>
        <time>2009-08-03T10:00:19Z</time>
      </trkpt>
      <trkpt lat="42.70778" lon="0.33406">
        <ele>2976.4</ele>
        <time>2009-08-03T10:00:37Z</time>
      </trkpt>
      <trkpt lat="42.70778" lon="0.33414">
        <ele>2978.8</ele>
        <time>2009-08-03T10:00:56Z</time>
      </trkpt>
      <trkpt lat="42.70777" lon="0.33422">
        <ele>2984.1</ele>
        <time>2009-08-03T10:01:17Z</time>
      </trkpt>
      <trkpt lat="42.7078" lon="0.33429">
        <ele>2987.4</ele>
        <time>2009-08-03T10:01:36Z</time>
      </trkpt>
      <trkpt lat="42.70781" lon="0.33439">
        <ele>2990.8</ele>
        <time>2009-08-03T10:01:57Z</time>
      </trkpt>
      <trkpt lat="42.70788" lon="0.33454">
        <ele>2989.8</ele>
        <time>2009-08-03T10:02:19Z</time>
      </trkpt>
      <trkpt lat="42.7079" lon="0.33463">
        <ele>2995.6</ele>
        <time>2009-08-03T10:02:38Z</time>
      </trkpt>
      <trkpt lat="42.70795" lon="0.3347">
        <ele>2997</ele>
        <time>2009-08-03T10:02:58Z</time>
      </trkpt>
      <trkpt lat="42.708" lon="0.3348">
        <ele>2999</ele>
        <time>2009-08-03T10:03:18Z</time>
      </trkpt>
      <trkpt lat="42.70807" lon="0.33491">
        <ele>3000.4</ele>
        <time>2009-08-03T10:03:37Z</time>
      </trkpt>
      <trkpt lat="42.70811" lon="0.335">
        <ele>3003.3</ele>
        <time>2009-08-03T10:03:57Z</time>
      </trkpt>
      <trkpt lat="42.70816" lon="0.33511">
        <ele>3006.7</ele>
        <time>2009-08-03T10:04:18Z</time>
      </trkpt>
      <trkpt lat="42.70818" lon="0.33522">
        <ele>3010</ele>
        <time>2009-08-03T10:04:39Z</time>
      </trkpt>
      <trkpt lat="42.70824" lon="0.33532">
        <ele>3012.9</ele>
        <time>2009-08-03T10:05:03Z</time>
      </trkpt>
      <trkpt lat="42.70828" lon="0.3354">
        <ele>3015.3</ele>
        <time>2009-08-03T10:05:21Z</time>
      </trkpt>
      <trkpt lat="42.70831" lon="0.33547">
        <ele>3019.2</ele>
        <time>2009-08-03T10:05:38Z</time>
      </trkpt>
      <trkpt lat="42.70833" lon="0.33561">
        <ele>3023.5</ele>
        <time>2009-08-03T10:06:02Z</time>
      </trkpt>
      <trkpt lat="42.70835" lon="0.3357">
        <ele>3024.4</ele>
        <time>2009-08-03T10:06:19Z</time>
      </trkpt>
      <trkpt lat="42.70838" lon="0.33581">
        <ele>3030.2</ele>
        <time>2009-08-03T10:06:39Z</time>
      </trkpt>
      <trkpt lat="42.70841" lon="0.33593">
        <ele>3032.6</ele>
        <time>2009-08-03T10:06:59Z</time>
      </trkpt>
      <trkpt lat="42.70851" lon="0.33608">
        <ele>3035</ele>
        <time>2009-08-03T10:07:25Z</time>
      </trkpt>
      <trkpt lat="42.70861" lon="0.33616">
        <ele>3037.9</ele>
        <time>2009-08-03T10:07:44Z</time>
      </trkpt>
      <trkpt lat="42.70871" lon="0.33627">
        <ele>3038.9</ele>
        <time>2009-08-03T10:08:07Z</time>
      </trkpt>
      <trkpt lat="42.70874" lon="0.33634">
        <ele>3042.2</ele>
        <time>2009-08-03T10:13:55Z</time>
      </trkpt>
      <trkpt lat="42.70884" lon="0.33644">
        <ele>3040.8</ele>
        <time>2009-08-03T10:14:36Z</time>
      </trkpt>
      <trkpt lat="42.70893" lon="0.33657">
        <ele>3037.9</ele>
        <time>2009-08-03T10:15:06Z</time>
      </trkpt>
      <trkpt lat="42.70902" lon="0.33669">
        <ele>3035</ele>
        <time>2009-08-03T10:15:29Z</time>
      </trkpt>
      <trkpt lat="42.70907" lon="0.33679">
        <ele>3032.6</ele>
        <time>2009-08-03T10:15:51Z</time>
      </trkpt>
      <trkpt lat="42.70906" lon="0.33689">
        <ele>3028.3</ele>
        <time>2009-08-03T10:16:14Z</time>
      </trkpt>
      <trkpt lat="42.7091" lon="0.33694">
        <ele>3025.9</ele>
        <time>2009-08-03T10:16:31Z</time>
      </trkpt>
      <trkpt lat="42.70912" lon="0.337">
        <ele>3021.6</ele>
        <time>2009-08-03T10:16:50Z</time>
      </trkpt>
      <trkpt lat="42.70914" lon="0.33703">
        <ele>3017.7</ele>
        <time>2009-08-03T10:17:11Z</time>
      </trkpt>
      <trkpt lat="42.70918" lon="0.33706">
        <ele>3015.3</ele>
        <time>2009-08-03T10:17:30Z</time>
      </trkpt>
      <trkpt lat="42.70922" lon="0.33709">
        <ele>3012.4</ele>
        <time>2009-08-03T10:17:47Z</time>
      </trkpt>
      <trkpt lat="42.70926" lon="0.3371">
        <ele>3012.4</ele>
        <time>2009-08-03T10:18:05Z</time>
      </trkpt>
      <trkpt lat="42.70929" lon="0.33714">
        <ele>3011</ele>
        <time>2009-08-03T10:18:23Z</time>
      </trkpt>
      <trkpt lat="42.70931" lon="0.33718">
        <ele>3010</ele>
        <time>2009-08-03T10:18:40Z</time>
      </trkpt>
      <trkpt lat="42.7093" lon="0.3372">
        <ele>3009.1</ele>
        <time>2009-08-03T10:19:02Z</time>
      </trkpt>
      <trkpt lat="42.70932" lon="0.33725">
        <ele>3009.5</ele>
        <time>2009-08-03T10:19:22Z</time>
      </trkpt>
      <trkpt lat="42.70942" lon="0.33732">
        <ele>3011.5</ele>
        <time>2009-08-03T10:19:46Z</time>
      </trkpt>
      <trkpt lat="42.70946" lon="0.33737">
        <ele>3010.5</ele>
        <time>2009-08-03T10:20:05Z</time>
      </trkpt>
      <trkpt lat="42.70952" lon="0.33744">
        <ele>3011.5</ele>
        <time>2009-08-03T10:20:24Z</time>
      </trkpt>
      <trkpt lat="42.70957" lon="0.33747">
        <ele>3014.8</ele>
        <time>2009-08-03T10:20:42Z</time>
      </trkpt>
      <trkpt lat="42.70961" lon="0.33754">
        <ele>3018.7</ele>
        <time>2009-08-03T10:21:02Z</time>
      </trkpt>
      <trkpt lat="42.70965" lon="0.33758">
        <ele>3021.6</ele>
        <time>2009-08-03T10:21:19Z</time>
      </trkpt>
      <trkpt lat="42.70968" lon="0.33761">
        <ele>3022.5</ele>
        <time>2009-08-03T10:21:45Z</time>
      </trkpt>
      <trkpt lat="42.70974" lon="0.33767">
        <ele>3026.4</ele>
        <time>2009-08-03T10:22:09Z</time>
      </trkpt>
      <trkpt lat="42.70976" lon="0.3377">
        <ele>3029.3</ele>
        <time>2009-08-03T10:22:30Z</time>
      </trkpt>
      <trkpt lat="42.7098" lon="0.33773">
        <ele>3031.7</ele>
        <time>2009-08-03T10:22:47Z</time>
      </trkpt>
      <trkpt lat="42.70983" lon="0.33781">
        <ele>3033.1</ele>
        <time>2009-08-03T10:23:06Z</time>
      </trkpt>
      <trkpt lat="42.70987" lon="0.33795">
        <ele>3034.1</ele>
        <time>2009-08-03T10:23:27Z</time>
      </trkpt>
      <trkpt lat="42.70991" lon="0.33804">
        <ele>3035.5</ele>
        <time>2009-08-03T10:23:46Z</time>
      </trkpt>
      <trkpt lat="42.70996" lon="0.33816">
        <ele>3036</ele>
        <time>2009-08-03T10:24:05Z</time>
      </trkpt>
      <trkpt lat="42.70998" lon="0.33817">
        <ele>3037.4</ele>
        <time>2009-08-03T10:24:55Z</time>
      </trkpt>
      <trkpt lat="42.70997" lon="0.33822">
        <ele>3037.9</ele>
        <time>2009-08-03T10:29:29Z</time>
      </trkpt>
      <trkpt lat="42.70997" lon="0.33835">
        <ele>3035</ele>
        <time>2009-08-03T10:29:49Z</time>
      </trkpt>
      <trkpt lat="42.70999" lon="0.33842">
        <ele>3034.1</ele>
        <time>2009-08-03T10:30:09Z</time>
      </trkpt>
      <trkpt lat="42.71" lon="0.33853">
        <ele>3032.6</ele>
        <time>2009-08-03T10:30:31Z</time>
      </trkpt>
      <trkpt lat="42.71" lon="0.33858">
        <ele>3030.2</ele>
        <time>2009-08-03T10:30:48Z</time>
      </trkpt>
      <trkpt lat="42.71002" lon="0.3387">
        <ele>3027.8</ele>
        <time>2009-08-03T10:31:07Z</time>
      </trkpt>
      <trkpt lat="42.71003" lon="0.33871">
        <ele>3024.4</ele>
        <time>2009-08-03T10:31:31Z</time>
      </trkpt>
      <trkpt lat="42.71002" lon="0.33871">
        <ele>3025.9</ele>
        <time>2009-08-03T10:36:14Z</time>
      </trkpt>
      <trkpt lat="42.71001" lon="0.33871">
        <ele>3025.9</ele>
        <time>2009-08-03T10:36:38Z</time>
      </trkpt>
      <trkpt lat="42.71005" lon="0.33873">
        <ele>3027.3</ele>
        <time>2009-08-03T10:37:08Z</time>
      </trkpt>
      <trkpt lat="42.71008" lon="0.33876">
        <ele>3027.8</ele>
        <time>2009-08-03T10:37:31Z</time>
      </trkpt>
      <trkpt lat="42.71012" lon="0.33885">
        <ele>3028.8</ele>
        <time>2009-08-03T10:37:53Z</time>
      </trkpt>
      <trkpt lat="42.71018" lon="0.33891">
        <ele>3032.1</ele>
        <time>2009-08-03T10:38:12Z</time>
      </trkpt>
      <trkpt lat="42.71024" lon="0.33897">
        <ele>3032.1</ele>
        <time>2009-08-03T10:38:31Z</time>
      </trkpt>
      <trkpt lat="42.71029" lon="0.33903">
        <ele>3035.5</ele>
        <time>2009-08-03T10:38:48Z</time>
      </trkpt>
      <trkpt lat="42.7103" lon="0.33907">
        <ele>3034.5</ele>
        <time>2009-08-03T10:39:02Z</time>
      </trkpt>
      <trkpt lat="42.7104" lon="0.33926">
        <ele>3036.9</ele>
        <time>2009-08-03T10:39:23Z</time>
      </trkpt>
      <trkpt lat="42.71045" lon="0.33942">
        <ele>3038.4</ele>
        <time>2009-08-03T10:39:42Z</time>
      </trkpt>
      <trkpt lat="42.71045" lon="0.33942">
        <ele>3037.9</ele>
        <time>2009-08-03T10:43:32Z</time>
      </trkpt>
      <trkpt lat="42.71041" lon="0.33927">
        <ele>3037.4</ele>
        <time>2009-08-03T10:44:05Z</time>
      </trkpt>
      <trkpt lat="42.71035" lon="0.33916">
        <ele>3036</ele>
        <time>2009-08-03T10:44:23Z</time>
      </trkpt>
      <trkpt lat="42.71034" lon="0.33914">
        <ele>3036</ele>
        <time>2009-08-03T10:44:26Z</time>
      </trkpt>
      <trkpt lat="42.7103" lon="0.33905">
        <ele>3035</ele>
        <time>2009-08-03T10:44:43Z</time>
      </trkpt>
      <trkpt lat="42.71026" lon="0.33898">
        <ele>3032.6</ele>
        <time>2009-08-03T10:45:03Z</time>
      </trkpt>
      <trkpt lat="42.7102" lon="0.33896">
        <ele>3031.2</ele>
        <time>2009-08-03T10:45:21Z</time>
      </trkpt>
      <trkpt lat="42.71018" lon="0.33892">
        <ele>3030.7</ele>
        <time>2009-08-03T10:45:40Z</time>
      </trkpt>
      <trkpt lat="42.71013" lon="0.33886">
        <ele>3028.8</ele>
        <time>2009-08-03T10:46:06Z</time>
      </trkpt>
      <trkpt lat="42.71008" lon="0.33877">
        <ele>3025.9</ele>
        <time>2009-08-03T10:46:27Z</time>
      </trkpt>
      <trkpt lat="42.71007" lon="0.33874">
        <ele>3024.9</ele>
        <time>2009-08-03T10:46:51Z</time>
      </trkpt>
      <trkpt lat="42.71001" lon="0.33868">
        <ele>3024</ele>
        <time>2009-08-03T10:47:16Z</time>
      </trkpt>
      <trkpt lat="42.71" lon="0.33858">
        <ele>3025.9</ele>
        <time>2009-08-03T10:47:36Z</time>
      </trkpt>
      <trkpt lat="42.70997" lon="0.33849">
        <ele>3028.8</ele>
        <time>2009-08-03T10:47:53Z</time>
      </trkpt>
      <trkpt lat="42.70996" lon="0.33834">
        <ele>3030.7</ele>
        <time>2009-08-03T10:48:16Z</time>
      </trkpt>
      <trkpt lat="42.70994" lon="0.33815">
        <ele>3032.1</ele>
        <time>2009-08-03T10:48:37Z</time>
      </trkpt>
      <trkpt lat="42.70989" lon="0.33802">
        <ele>3032.1</ele>
        <time>2009-08-03T10:48:57Z</time>
      </trkpt>
      <trkpt lat="42.70987" lon="0.33796">
        <ele>3031.2</ele>
        <time>2009-08-03T10:49:19Z</time>
      </trkpt>
      <trkpt lat="42.70984" lon="0.33782">
        <ele>3031.2</ele>
        <time>2009-08-03T10:49:37Z</time>
      </trkpt>
      <trkpt lat="42.70978" lon="0.33774">
        <ele>3029.3</ele>
        <time>2009-08-03T10:49:57Z</time>
      </trkpt>
      <trkpt lat="42.70974" lon="0.33768">
        <ele>3027.3</ele>
        <time>2009-08-03T10:50:18Z</time>
      </trkpt>
      <trkpt lat="42.70971" lon="0.33762">
        <ele>3024.9</ele>
        <time>2009-08-03T10:50:37Z</time>
      </trkpt>
      <trkpt lat="42.70966" lon="0.33758">
        <ele>3019.6</ele>
        <time>2009-08-03T10:50:59Z</time>
      </trkpt>
      <trkpt lat="42.70966" lon="0.33755">
        <ele>3020.6</ele>
        <time>2009-08-03T10:51:25Z</time>
      </trkpt>
      <trkpt lat="42.7096" lon="0.33753">
        <ele>3014.4</ele>
        <time>2009-08-03T10:51:48Z</time>
      </trkpt>
      <trkpt lat="42.70958" lon="0.33747">
        <ele>3013.4</ele>
        <time>2009-08-03T10:52:04Z</time>
      </trkpt>
      <trkpt lat="42.70955" lon="0.33742">
        <ele>3012.9</ele>
        <time>2009-08-03T10:52:25Z</time>
      </trkpt>
      <trkpt lat="42.70948" lon="0.33737">
        <ele>3010.5</ele>
        <time>2009-08-03T10:52:39Z</time>
      </trkpt>
      <trkpt lat="42.70937" lon="0.33726">
        <ele>3010.5</ele>
        <time>2009-08-03T10:52:58Z</time>
      </trkpt>
      <trkpt lat="42.70935" lon="0.33727">
        <ele>3009.5</ele>
        <time>2009-08-03T10:53:19Z</time>
      </trkpt>
      <trkpt lat="42.7093" lon="0.33724">
        <ele>3007.6</ele>
        <time>2009-08-03T10:53:39Z</time>
      </trkpt>
      <trkpt lat="42.70931" lon="0.33719">
        <ele>3004.3</ele>
        <time>2009-08-03T10:53:57Z</time>
      </trkpt>
      <trkpt lat="42.7093" lon="0.33717">
        <ele>3006.7</ele>
        <time>2009-08-03T10:54:45Z</time>
      </trkpt>
      <trkpt lat="42.70926" lon="0.33709">
        <ele>3011</ele>
        <time>2009-08-03T10:55:05Z</time>
      </trkpt>
      <trkpt lat="42.70917" lon="0.33707">
        <ele>3011.9</ele>
        <time>2009-08-03T10:55:23Z</time>
      </trkpt>
      <trkpt lat="42.70911" lon="0.33704">
        <ele>3012.9</ele>
        <time>2009-08-03T10:55:40Z</time>
      </trkpt>
      <trkpt lat="42.70907" lon="0.33698">
        <ele>3016.3</ele>
        <time>2009-08-03T10:56:00Z</time>
      </trkpt>
      <trkpt lat="42.70904" lon="0.33689">
        <ele>3020.6</ele>
        <time>2009-08-03T10:56:21Z</time>
      </trkpt>
      <trkpt lat="42.70905" lon="0.33679">
        <ele>3024.9</ele>
        <time>2009-08-03T10:56:43Z</time>
      </trkpt>
      <trkpt lat="42.709" lon="0.3367">
        <ele>3028.8</ele>
        <time>2009-08-03T10:57:02Z</time>
      </trkpt>
      <trkpt lat="42.70891" lon="0.33657">
        <ele>3032.6</ele>
        <time>2009-08-03T10:57:25Z</time>
      </trkpt>
      <trkpt lat="42.70883" lon="0.33646">
        <ele>3035.5</ele>
        <time>2009-08-03T10:57:43Z</time>
      </trkpt>
      <trkpt lat="42.70878" lon="0.3364">
        <ele>3037.9</ele>
        <time>2009-08-03T10:57:55Z</time>
      </trkpt>
      <trkpt lat="42.70868" lon="0.33625">
        <ele>3038.9</ele>
        <time>2009-08-03T10:58:15Z</time>
      </trkpt>
      <trkpt lat="42.70853" lon="0.33611">
        <ele>3037.9</ele>
        <time>2009-08-03T10:58:38Z</time>
      </trkpt>
      <trkpt lat="42.70841" lon="0.33599">
        <ele>3035</ele>
        <time>2009-08-03T10:58:57Z</time>
      </trkpt>
      <trkpt lat="42.70836" lon="0.33584">
        <ele>3030.2</ele>
        <time>2009-08-03T10:59:18Z</time>
      </trkpt>
      <trkpt lat="42.70834" lon="0.33573">
        <ele>3027.3</ele>
        <time>2009-08-03T10:59:36Z</time>
      </trkpt>
      <trkpt lat="42.70833" lon="0.33566">
        <ele>3024.9</ele>
        <time>2009-08-03T10:59:47Z</time>
      </trkpt>
      <trkpt lat="42.70829" lon="0.33551">
        <ele>3021.6</ele>
        <time>2009-08-03T11:00:09Z</time>
      </trkpt>
      <trkpt lat="42.70824" lon="0.33542">
        <ele>3017.7</ele>
        <time>2009-08-03T11:00:29Z</time>
      </trkpt>
      <trkpt lat="42.70822" lon="0.33535">
        <ele>3014.4</ele>
        <time>2009-08-03T11:00:46Z</time>
      </trkpt>
      <trkpt lat="42.70815" lon="0.33523">
        <ele>3012.4</ele>
        <time>2009-08-03T11:01:04Z</time>
      </trkpt>
      <trkpt lat="42.70815" lon="0.33518">
        <ele>3008.6</ele>
        <time>2009-08-03T11:01:27Z</time>
      </trkpt>
      <trkpt lat="42.70809" lon="0.33501">
        <ele>3003.8</ele>
        <time>2009-08-03T11:01:49Z</time>
      </trkpt>
      <trkpt lat="42.70804" lon="0.33492">
        <ele>3000.4</ele>
        <time>2009-08-03T11:02:07Z</time>
      </trkpt>
      <trkpt lat="42.70802" lon="0.33491">
        <ele>3000.4</ele>
        <time>2009-08-03T11:02:09Z</time>
      </trkpt>
      <trkpt lat="42.70791" lon="0.33472">
        <ele>2998</ele>
        <time>2009-08-03T11:02:34Z</time>
      </trkpt>
      <trkpt lat="42.70789" lon="0.33465">
        <ele>2996.1</ele>
        <time>2009-08-03T11:02:50Z</time>
      </trkpt>
      <trkpt lat="42.70788" lon="0.33464">
        <ele>2997</ele>
        <time>2009-08-03T11:03:03Z</time>
      </trkpt>
      <trkpt lat="42.70788" lon="0.33462">
        <ele>2992.7</ele>
        <time>2009-08-03T11:03:12Z</time>
      </trkpt>
      <trkpt lat="42.70781" lon="0.33445">
        <ele>2991.8</ele>
        <time>2009-08-03T11:03:33Z</time>
      </trkpt>
      <trkpt lat="42.70778" lon="0.33433">
        <ele>2987.9</ele>
        <time>2009-08-03T11:03:51Z</time>
      </trkpt>
      <trkpt lat="42.70776" lon="0.33424">
        <ele>2983.6</ele>
        <time>2009-08-03T11:04:11Z</time>
      </trkpt>
      <trkpt lat="42.70776" lon="0.33419">
        <ele>2979.7</ele>
        <time>2009-08-03T11:04:30Z</time>
      </trkpt>
      <trkpt lat="42.70776" lon="0.33416">
        <ele>2979.3</ele>
        <time>2009-08-03T11:04:46Z</time>
      </trkpt>
      <trkpt lat="42.70777" lon="0.33407">
        <ele>2977.3</ele>
        <time>2009-08-03T11:05:29Z</time>
      </trkpt>
      <trkpt lat="42.70775" lon="0.33397">
        <ele>2973.5</ele>
        <time>2009-08-03T11:05:47Z</time>
      </trkpt>
      <trkpt lat="42.70773" lon="0.33389">
        <ele>2971.1</ele>
        <time>2009-08-03T11:06:07Z</time>
      </trkpt>
      <trkpt lat="42.70769" lon="0.3338">
        <ele>2966.8</ele>
        <time>2009-08-03T11:06:25Z</time>
      </trkpt>
      <trkpt lat="42.70766" lon="0.33371">
        <ele>2962</ele>
        <time>2009-08-03T11:06:43Z</time>
      </trkpt>
      <trkpt lat="42.70765" lon="0.33363">
        <ele>2960.5</ele>
        <time>2009-08-03T11:06:51Z</time>
      </trkpt>
      <trkpt lat="42.70759" lon="0.33347">
        <ele>2954.7</ele>
        <time>2009-08-03T11:07:12Z</time>
      </trkpt>
      <trkpt lat="42.70753" lon="0.33327">
        <ele>2950.9</ele>
        <time>2009-08-03T11:07:35Z</time>
      </trkpt>
      <trkpt lat="42.70751" lon="0.33317">
        <ele>2949</ele>
        <time>2009-08-03T11:07:54Z</time>
      </trkpt>
      <trkpt lat="42.7075" lon="0.33308">
        <ele>2950.9</ele>
        <time>2009-08-03T11:08:12Z</time>
      </trkpt>
      <trkpt lat="42.70746" lon="0.33316">
        <ele>2947.1</ele>
        <time>2009-08-03T11:08:36Z</time>
      </trkpt>
      <trkpt lat="42.70743" lon="0.33325">
        <ele>2944.2</ele>
        <time>2009-08-03T11:08:57Z</time>
      </trkpt>
      <trkpt lat="42.7074" lon="0.33335">
        <ele>2938.9</ele>
        <time>2009-08-03T11:09:21Z</time>
      </trkpt>
      <trkpt lat="42.70739" lon="0.33339">
        <ele>2934.6</ele>
        <time>2009-08-03T11:09:47Z</time>
      </trkpt>
      <trkpt lat="42.70735" lon="0.33347">
        <ele>2930.2</ele>
        <time>2009-08-03T11:10:05Z</time>
      </trkpt>
      <trkpt lat="42.70732" lon="0.33338">
        <ele>2928.8</ele>
        <time>2009-08-03T11:10:29Z</time>
      </trkpt>
      <trkpt lat="42.70737" lon="0.33331">
        <ele>2921.6</ele>
        <time>2009-08-03T11:10:58Z</time>
      </trkpt>
      <trkpt lat="42.70734" lon="0.33326">
        <ele>2923</ele>
        <time>2009-08-03T11:11:18Z</time>
      </trkpt>
      <trkpt lat="42.70735" lon="0.33307">
        <ele>2922.5</ele>
        <time>2009-08-03T11:11:58Z</time>
      </trkpt>
      <trkpt lat="42.7073" lon="0.33296">
        <ele>2929.3</ele>
        <time>2009-08-03T11:12:15Z</time>
      </trkpt>
      <trkpt lat="42.70727" lon="0.33286">
        <ele>2934.1</ele>
        <time>2009-08-03T11:12:36Z</time>
      </trkpt>
      <trkpt lat="42.70725" lon="0.33265">
        <ele>2929.8</ele>
        <time>2009-08-03T11:13:02Z</time>
      </trkpt>
      <trkpt lat="42.70724" lon="0.33262">
        <ele>2930.2</ele>
        <time>2009-08-03T11:13:04Z</time>
      </trkpt>
      <trkpt lat="42.7072" lon="0.33241">
        <ele>2934.6</ele>
        <time>2009-08-03T11:13:27Z</time>
      </trkpt>
      <trkpt lat="42.70721" lon="0.33223">
        <ele>2934.1</ele>
        <time>2009-08-03T11:13:40Z</time>
      </trkpt>
      <trkpt lat="42.70721" lon="0.33209">
        <ele>2932.2</ele>
        <time>2009-08-03T11:13:57Z</time>
      </trkpt>
      <trkpt lat="42.70717" lon="0.33198">
        <ele>2932.2</ele>
        <time>2009-08-03T11:14:13Z</time>
      </trkpt>
      <trkpt lat="42.7072" lon="0.33181">
        <ele>2935</ele>
        <time>2009-08-03T11:14:44Z</time>
      </trkpt>
      <trkpt lat="42.70717" lon="0.33171">
        <ele>2935</ele>
        <time>2009-08-03T11:15:02Z</time>
      </trkpt>
      <trkpt lat="42.70715" lon="0.33162">
        <ele>2937</ele>
        <time>2009-08-03T11:15:22Z</time>
      </trkpt>
      <trkpt lat="42.70717" lon="0.33146">
        <ele>2934.6</ele>
        <time>2009-08-03T11:15:48Z</time>
      </trkpt>
      <trkpt lat="42.70714" lon="0.3313">
        <ele>2930.7</ele>
        <time>2009-08-03T11:16:11Z</time>
      </trkpt>
      <trkpt lat="42.70712" lon="0.33123">
        <ele>2929.3</ele>
        <time>2009-08-03T11:16:31Z</time>
      </trkpt>
      <trkpt lat="42.70703" lon="0.33115">
        <ele>2926.9</ele>
        <time>2009-08-03T11:16:51Z</time>
      </trkpt>
      <trkpt lat="42.70699" lon="0.3311">
        <ele>2924.9</ele>
        <time>2009-08-03T11:16:58Z</time>
      </trkpt>
      <trkpt lat="42.70696" lon="0.33103">
        <ele>2921.6</ele>
        <time>2009-08-03T11:17:04Z</time>
      </trkpt>
      <trkpt lat="42.70695" lon="0.33099">
        <ele>2919.2</ele>
        <time>2009-08-03T11:17:08Z</time>
      </trkpt>
      <trkpt lat="42.70688" lon="0.33093">
        <ele>2912.5</ele>
        <time>2009-08-03T11:17:26Z</time>
      </trkpt>
      <trkpt lat="42.70684" lon="0.33091">
        <ele>2911.5</ele>
        <time>2009-08-03T11:17:41Z</time>
      </trkpt>
      <trkpt lat="42.70678" lon="0.33083">
        <ele>2904.3</ele>
        <time>2009-08-03T11:17:58Z</time>
      </trkpt>
      <trkpt lat="42.70676" lon="0.33075">
        <ele>2898.5</ele>
        <time>2009-08-03T11:18:15Z</time>
      </trkpt>
      <trkpt lat="42.70666" lon="0.33072">
        <ele>2893.7</ele>
        <time>2009-08-03T11:18:31Z</time>
      </trkpt>
      <trkpt lat="42.70665" lon="0.33069">
        <ele>2892.7</ele>
        <time>2009-08-03T11:18:33Z</time>
      </trkpt>
      <trkpt lat="42.70648" lon="0.33057">
        <ele>2886</ele>
        <time>2009-08-03T11:18:56Z</time>
      </trkpt>
      <trkpt lat="42.70638" lon="0.33048">
        <ele>2883.1</ele>
        <time>2009-08-03T11:19:16Z</time>
      </trkpt>
      <trkpt lat="42.7063" lon="0.33033">
        <ele>2874</ele>
        <time>2009-08-03T11:19:38Z</time>
      </trkpt>
      <trkpt lat="42.70625" lon="0.33024">
        <ele>2870.2</ele>
        <time>2009-08-03T11:19:48Z</time>
      </trkpt>
      <trkpt lat="42.70621" lon="0.33007">
        <ele>2870.2</ele>
        <time>2009-08-03T11:19:59Z</time>
      </trkpt>
      <trkpt lat="42.70613" lon="0.32987">
        <ele>2866.8</ele>
        <time>2009-08-03T11:20:17Z</time>
      </trkpt>
      <trkpt lat="42.70612" lon="0.32986">
        <ele>2865.8</ele>
        <time>2009-08-03T11:20:19Z</time>
      </trkpt>
      <trkpt lat="42.70609" lon="0.32981">
        <ele>2863.4</ele>
        <time>2009-08-03T11:20:24Z</time>
      </trkpt>
      <trkpt lat="42.70609" lon="0.32978">
        <ele>2863.9</ele>
        <time>2009-08-03T11:20:26Z</time>
      </trkpt>
      <trkpt lat="42.70602" lon="0.32952">
        <ele>2862</ele>
        <time>2009-08-03T11:20:46Z</time>
      </trkpt>
      <trkpt lat="42.706" lon="0.32939">
        <ele>2862.5</ele>
        <time>2009-08-03T11:20:59Z</time>
      </trkpt>
      <trkpt lat="42.70589" lon="0.32913">
        <ele>2861</ele>
        <time>2009-08-03T11:21:21Z</time>
      </trkpt>
      <trkpt lat="42.70588" lon="0.32902">
        <ele>2861.5</ele>
        <time>2009-08-03T11:21:32Z</time>
      </trkpt>
      <trkpt lat="42.70582" lon="0.32879">
        <ele>2862.9</ele>
        <time>2009-08-03T11:21:53Z</time>
      </trkpt>
      <trkpt lat="42.70572" lon="0.32863">
        <ele>2860.1</ele>
        <time>2009-08-03T11:22:08Z</time>
      </trkpt>
      <trkpt lat="42.70553" lon="0.32825">
        <ele>2856.2</ele>
        <time>2009-08-03T11:22:35Z</time>
      </trkpt>
      <trkpt lat="42.70544" lon="0.32789">
        <ele>2859.6</ele>
        <time>2009-08-03T11:23:04Z</time>
      </trkpt>
      <trkpt lat="42.70538" lon="0.32756">
        <ele>2864.9</ele>
        <time>2009-08-03T11:23:31Z</time>
      </trkpt>
      <trkpt lat="42.70535" lon="0.32736">
        <ele>2870.6</ele>
        <time>2009-08-03T11:23:55Z</time>
      </trkpt>
      <trkpt lat="42.70535" lon="0.32712">
        <ele>2875.9</ele>
        <time>2009-08-03T11:24:24Z</time>
      </trkpt>
      <trkpt lat="42.70535" lon="0.32685">
        <ele>2880.2</ele>
        <time>2009-08-03T11:24:50Z</time>
      </trkpt>
      <trkpt lat="42.70534" lon="0.32673">
        <ele>2886.5</ele>
        <time>2009-08-03T11:25:19Z</time>
      </trkpt>
      <trkpt lat="42.70533" lon="0.32655">
        <ele>2889.9</ele>
        <time>2009-08-03T11:25:53Z</time>
      </trkpt>
      <trkpt lat="42.70531" lon="0.32627">
        <ele>2895.1</ele>
        <time>2009-08-03T11:26:15Z</time>
      </trkpt>
      <trkpt lat="42.70527" lon="0.32611">
        <ele>2899.5</ele>
        <time>2009-08-03T11:26:35Z</time>
      </trkpt>
      <trkpt lat="42.70525" lon="0.32599">
        <ele>2900.4</ele>
        <time>2009-08-03T11:26:48Z</time>
      </trkpt>
      <trkpt lat="42.70526" lon="0.32579">
        <ele>2903.3</ele>
        <time>2009-08-03T11:27:08Z</time>
      </trkpt>
      <trkpt lat="42.70524" lon="0.32561">
        <ele>2904.8</ele>
        <time>2009-08-03T11:27:29Z</time>
      </trkpt>
      <trkpt lat="42.70521" lon="0.32543">
        <ele>2905.7</ele>
        <time>2009-08-03T11:27:50Z</time>
      </trkpt>
      <trkpt lat="42.70519" lon="0.32533">
        <ele>2904.3</ele>
        <time>2009-08-03T11:28:15Z</time>
      </trkpt>
      <trkpt lat="42.70514" lon="0.32529">
        <ele>2901.9</ele>
        <time>2009-08-03T11:28:31Z</time>
      </trkpt>
      <trkpt lat="42.70512" lon="0.32517">
        <ele>2897.6</ele>
        <time>2009-08-03T11:28:49Z</time>
      </trkpt>
      <trkpt lat="42.70502" lon="0.32513">
        <ele>2893.7</ele>
        <time>2009-08-03T11:29:15Z</time>
      </trkpt>
      <trkpt lat="42.70496" lon="0.32508">
        <ele>2889.9</ele>
        <time>2009-08-03T11:29:29Z</time>
      </trkpt>
      <trkpt lat="42.70483" lon="0.3251">
        <ele>2887.9</ele>
        <time>2009-08-03T11:29:50Z</time>
      </trkpt>
      <trkpt lat="42.70478" lon="0.32512">
        <ele>2882.2</ele>
        <time>2009-08-03T11:30:06Z</time>
      </trkpt>
      <trkpt lat="42.70474" lon="0.32509">
        <ele>2878.3</ele>
        <time>2009-08-03T11:30:27Z</time>
      </trkpt>
      <trkpt lat="42.70471" lon="0.32509">
        <ele>2875</ele>
        <time>2009-08-03T11:30:55Z</time>
      </trkpt>
      <trkpt lat="42.70472" lon="0.32512">
        <ele>2877.8</ele>
        <time>2009-08-03T11:35:33Z</time>
      </trkpt>
      <trkpt lat="42.70473" lon="0.32513">
        <ele>2874.5</ele>
        <time>2009-08-03T11:37:03Z</time>
      </trkpt>
      <trkpt lat="42.70472" lon="0.32512">
        <ele>2875.4</ele>
        <time>2009-08-03T11:39:09Z</time>
      </trkpt>
      <trkpt lat="42.70466" lon="0.32503">
        <ele>2870.6</ele>
        <time>2009-08-03T11:39:28Z</time>
      </trkpt>
      <trkpt lat="42.70458" lon="0.325">
        <ele>2867.3</ele>
        <time>2009-08-03T11:39:46Z</time>
      </trkpt>
      <trkpt lat="42.70452" lon="0.32499">
        <ele>2862.9</ele>
        <time>2009-08-03T11:40:05Z</time>
      </trkpt>
      <trkpt lat="42.70453" lon="0.32484">
        <ele>2856.2</ele>
        <time>2009-08-03T11:40:24Z</time>
      </trkpt>
      <trkpt lat="42.70454" lon="0.32481">
        <ele>2854.8</ele>
        <time>2009-08-03T11:40:28Z</time>
      </trkpt>
      <trkpt lat="42.70454" lon="0.32472">
        <ele>2850.4</ele>
        <time>2009-08-03T11:40:44Z</time>
      </trkpt>
      <trkpt lat="42.70454" lon="0.32468">
        <ele>2848.5</ele>
        <time>2009-08-03T11:40:51Z</time>
      </trkpt>
      <trkpt lat="42.70456" lon="0.32457">
        <ele>2844.2</ele>
        <time>2009-08-03T11:41:03Z</time>
      </trkpt>
      <trkpt lat="42.7045" lon="0.3246">
        <ele>2840.8</ele>
        <time>2009-08-03T11:41:29Z</time>
      </trkpt>
      <trkpt lat="42.70447" lon="0.32458">
        <ele>2837.9</ele>
        <time>2009-08-03T11:41:40Z</time>
      </trkpt>
      <trkpt lat="42.70441" lon="0.32462">
        <ele>2834.1</ele>
        <time>2009-08-03T11:41:55Z</time>
      </trkpt>
      <trkpt lat="42.70436" lon="0.32465">
        <ele>2833.6</ele>
        <time>2009-08-03T11:42:03Z</time>
      </trkpt>
      <trkpt lat="42.7043" lon="0.32474">
        <ele>2828.8</ele>
        <time>2009-08-03T11:42:24Z</time>
      </trkpt>
      <trkpt lat="42.70425" lon="0.32475">
        <ele>2825.9</ele>
        <time>2009-08-03T11:42:35Z</time>
      </trkpt>
      <trkpt lat="42.7042" lon="0.32478">
        <ele>2824.5</ele>
        <time>2009-08-03T11:42:40Z</time>
      </trkpt>
      <trkpt lat="42.70405" lon="0.32497">
        <ele>2819.2</ele>
        <time>2009-08-03T11:42:59Z</time>
      </trkpt>
      <trkpt lat="42.70398" lon="0.32498">
        <ele>2815.8</ele>
        <time>2009-08-03T11:43:17Z</time>
      </trkpt>
      <trkpt lat="42.70398" lon="0.32498">
        <ele>2816.8</ele>
        <time>2009-08-03T11:43:42Z</time>
      </trkpt>
      <trkpt lat="42.70397" lon="0.32499">
        <ele>2819.2</ele>
        <time>2009-08-03T11:45:07Z</time>
      </trkpt>
      <trkpt lat="42.70396" lon="0.32498">
        <ele>2818.7</ele>
        <time>2009-08-03T11:45:27Z</time>
      </trkpt>
      <trkpt lat="42.70379" lon="0.32497">
        <ele>2809.6</ele>
        <time>2009-08-03T11:45:48Z</time>
      </trkpt>
      <trkpt lat="42.70372" lon="0.32495">
        <ele>2802.9</ele>
        <time>2009-08-03T11:46:06Z</time>
      </trkpt>
      <trkpt lat="42.70365" lon="0.32487">
        <ele>2797.6</ele>
        <time>2009-08-03T11:46:25Z</time>
      </trkpt>
      <trkpt lat="42.70356" lon="0.32491">
        <ele>2792.3</ele>
        <time>2009-08-03T11:46:45Z</time>
      </trkpt>
      <trkpt lat="42.70348" lon="0.32483">
        <ele>2786</ele>
        <time>2009-08-03T11:47:04Z</time>
      </trkpt>
      <trkpt lat="42.70337" lon="0.32481">
        <ele>2779.8</ele>
        <time>2009-08-03T11:47:21Z</time>
      </trkpt>
      <trkpt lat="42.70326" lon="0.32477">
        <ele>2774</ele>
        <time>2009-08-03T11:47:39Z</time>
      </trkpt>
      <trkpt lat="42.7031" lon="0.32475">
        <ele>2769.7</ele>
        <time>2009-08-03T11:48:00Z</time>
      </trkpt>
      <trkpt lat="42.70306" lon="0.32479">
        <ele>2763.9</ele>
        <time>2009-08-03T11:48:19Z</time>
      </trkpt>
      <trkpt lat="42.70297" lon="0.32476">
        <ele>2763.9</ele>
        <time>2009-08-03T11:48:37Z</time>
      </trkpt>
      <trkpt lat="42.70294" lon="0.32479">
        <ele>2761</ele>
        <time>2009-08-03T11:48:55Z</time>
      </trkpt>
      <trkpt lat="42.70292" lon="0.32479">
        <ele>2760.1</ele>
        <time>2009-08-03T11:48:59Z</time>
      </trkpt>
      <trkpt lat="42.70284" lon="0.32473">
        <ele>2756.7</ele>
        <time>2009-08-03T11:49:17Z</time>
      </trkpt>
      <trkpt lat="42.70275" lon="0.32471">
        <ele>2752.9</ele>
        <time>2009-08-03T11:49:36Z</time>
      </trkpt>
      <trkpt lat="42.70266" lon="0.32475">
        <ele>2747.6</ele>
        <time>2009-08-03T11:49:57Z</time>
      </trkpt>
      <trkpt lat="42.70266" lon="0.32475">
        <ele>2747.6</ele>
        <time>2009-08-03T11:49:58Z</time>
      </trkpt>
      <trkpt lat="42.70266" lon="0.32476">
        <ele>2747.1</ele>
        <time>2009-08-03T11:50:27Z</time>
      </trkpt>
      <trkpt lat="42.70265" lon="0.32477">
        <ele>2746.6</ele>
        <time>2009-08-03T11:50:58Z</time>
      </trkpt>
      <trkpt lat="42.70263" lon="0.32474">
        <ele>2746.1</ele>
        <time>2009-08-03T11:51:23Z</time>
      </trkpt>
      <trkpt lat="42.70254" lon="0.32471">
        <ele>2741.3</ele>
        <time>2009-08-03T11:51:46Z</time>
      </trkpt>
      <trkpt lat="42.70246" lon="0.32476">
        <ele>2738</ele>
        <time>2009-08-03T11:52:07Z</time>
      </trkpt>
      <trkpt lat="42.70236" lon="0.32482">
        <ele>2735.6</ele>
        <time>2009-08-03T11:52:26Z</time>
      </trkpt>
      <trkpt lat="42.70231" lon="0.32481">
        <ele>2733.2</ele>
        <time>2009-08-03T11:52:34Z</time>
      </trkpt>
      <trkpt lat="42.70218" lon="0.32482">
        <ele>2731.7</ele>
        <time>2009-08-03T11:52:54Z</time>
      </trkpt>
      <trkpt lat="42.70202" lon="0.32481">
        <ele>2727.9</ele>
        <time>2009-08-03T11:53:15Z</time>
      </trkpt>
      <trkpt lat="42.7019" lon="0.32483">
        <ele>2724.5</ele>
        <time>2009-08-03T11:53:33Z</time>
      </trkpt>
      <trkpt lat="42.70175" lon="0.3248">
        <ele>2720.7</ele>
        <time>2009-08-03T11:53:53Z</time>
      </trkpt>
      <trkpt lat="42.70166" lon="0.32476">
        <ele>2716.3</ele>
        <time>2009-08-03T11:54:12Z</time>
      </trkpt>
      <trkpt lat="42.70156" lon="0.32475">
        <ele>2713.5</ele>
        <time>2009-08-03T11:54:32Z</time>
      </trkpt>
      <trkpt lat="42.70144" lon="0.32476">
        <ele>2708.7</ele>
        <time>2009-08-03T11:54:52Z</time>
      </trkpt>
      <trkpt lat="42.7013" lon="0.32482">
        <ele>2703.4</ele>
        <time>2009-08-03T11:55:12Z</time>
      </trkpt>
      <trkpt lat="42.70118" lon="0.32487">
        <ele>2697.1</ele>
        <time>2009-08-03T11:55:32Z</time>
      </trkpt>
      <trkpt lat="42.70111" lon="0.32486">
        <ele>2692.8</ele>
        <time>2009-08-03T11:55:51Z</time>
      </trkpt>
      <trkpt lat="42.70103" lon="0.32482">
        <ele>2686.1</ele>
        <time>2009-08-03T11:56:11Z</time>
      </trkpt>
      <trkpt lat="42.70094" lon="0.32483">
        <ele>2682.2</ele>
        <time>2009-08-03T11:56:20Z</time>
      </trkpt>
      <trkpt lat="42.70083" lon="0.32484">
        <ele>2677.4</ele>
        <time>2009-08-03T11:56:41Z</time>
      </trkpt>
      <trkpt lat="42.70079" lon="0.32484">
        <ele>2673.1</ele>
        <time>2009-08-03T11:56:59Z</time>
      </trkpt>
      <trkpt lat="42.70073" lon="0.3248">
        <ele>2671.6</ele>
        <time>2009-08-03T11:57:10Z</time>
      </trkpt>
      <trkpt lat="42.70063" lon="0.32476">
        <ele>2668.8</ele>
        <time>2009-08-03T11:57:33Z</time>
      </trkpt>
      <trkpt lat="42.70051" lon="0.32472">
        <ele>2672.1</ele>
        <time>2009-08-03T11:57:48Z</time>
      </trkpt>
      <trkpt lat="42.70037" lon="0.32474">
        <ele>2674</ele>
        <time>2009-08-03T11:58:05Z</time>
      </trkpt>
      <trkpt lat="42.70028" lon="0.32478">
        <ele>2671.2</ele>
        <time>2009-08-03T11:58:26Z</time>
      </trkpt>
      <trkpt lat="42.70025" lon="0.32482">
        <ele>2673.6</ele>
        <time>2009-08-03T11:58:46Z</time>
      </trkpt>
      <trkpt lat="42.70024" lon="0.32482">
        <ele>2674</ele>
        <time>2009-08-03T11:59:14Z</time>
      </trkpt>
      <trkpt lat="42.70024" lon="0.32481">
        <ele>2677.4</ele>
        <time>2009-08-03T11:59:51Z</time>
      </trkpt>
      <trkpt lat="42.70023" lon="0.32481">
        <ele>2678.4</ele>
        <time>2009-08-03T12:00:33Z</time>
      </trkpt>
      <trkpt lat="42.70014" lon="0.32485">
        <ele>2675.5</ele>
        <time>2009-08-03T12:01:18Z</time>
      </trkpt>
      <trkpt lat="42.70003" lon="0.32492">
        <ele>2672.6</ele>
        <time>2009-08-03T12:01:35Z</time>
      </trkpt>
      <trkpt lat="42.69993" lon="0.32495">
        <ele>2669.2</ele>
        <time>2009-08-03T12:01:49Z</time>
      </trkpt>
      <trkpt lat="42.69988" lon="0.32496">
        <ele>2667.8</ele>
        <time>2009-08-03T12:01:57Z</time>
      </trkpt>
      <trkpt lat="42.69984" lon="0.32499">
        <ele>2664.9</ele>
        <time>2009-08-03T12:02:02Z</time>
      </trkpt>
      <trkpt lat="42.69967" lon="0.32497">
        <ele>2660.1</ele>
        <time>2009-08-03T12:02:26Z</time>
      </trkpt>
      <trkpt lat="42.69966" lon="0.32496">
        <ele>2658.7</ele>
        <time>2009-08-03T12:02:40Z</time>
      </trkpt>
      <trkpt lat="42.69959" lon="0.32499">
        <ele>2657.7</ele>
        <time>2009-08-03T12:02:47Z</time>
      </trkpt>
      <trkpt lat="42.69936" lon="0.32509">
        <ele>2655.3</ele>
        <time>2009-08-03T12:03:08Z</time>
      </trkpt>
      <trkpt lat="42.6992" lon="0.32507">
        <ele>2651.5</ele>
        <time>2009-08-03T12:03:23Z</time>
      </trkpt>
      <trkpt lat="42.69891" lon="0.325">
        <ele>2640.4</ele>
        <time>2009-08-03T12:03:50Z</time>
      </trkpt>
      <trkpt lat="42.69858" lon="0.32496">
        <ele>2630.3</ele>
        <time>2009-08-03T12:04:15Z</time>
      </trkpt>
      <trkpt lat="42.69819" lon="0.32498">
        <ele>2628.4</ele>
        <time>2009-08-03T12:04:47Z</time>
      </trkpt>
      <trkpt lat="42.6979" lon="0.32493">
        <ele>2623.6</ele>
        <time>2009-08-03T12:05:11Z</time>
      </trkpt>
      <trkpt lat="42.69755" lon="0.32491">
        <ele>2614.9</ele>
        <time>2009-08-03T12:05:37Z</time>
      </trkpt>
      <trkpt lat="42.69716" lon="0.32488">
        <ele>2609.2</ele>
        <time>2009-08-03T12:06:05Z</time>
      </trkpt>
      <trkpt lat="42.69682" lon="0.32478">
        <ele>2601.9</ele>
        <time>2009-08-03T12:06:33Z</time>
      </trkpt>
      <trkpt lat="42.69647" lon="0.32472">
        <ele>2598.1</ele>
        <time>2009-08-03T12:07:01Z</time>
      </trkpt>
      <trkpt lat="42.69611" lon="0.32467">
        <ele>2594.7</ele>
        <time>2009-08-03T12:07:30Z</time>
      </trkpt>
      <trkpt lat="42.696" lon="0.32467">
        <ele>2591.9</ele>
        <time>2009-08-03T12:07:39Z</time>
      </trkpt>
      <trkpt lat="42.69597" lon="0.32463">
        <ele>2589.9</ele>
        <time>2009-08-03T12:07:43Z</time>
      </trkpt>
      <trkpt lat="42.69576" lon="0.32454">
        <ele>2583.2</ele>
        <time>2009-08-03T12:08:02Z</time>
      </trkpt>
      <trkpt lat="42.69543" lon="0.32454">
        <ele>2576</ele>
        <time>2009-08-03T12:08:31Z</time>
      </trkpt>
      <trkpt lat="42.69517" lon="0.32448">
        <ele>2569.3</ele>
        <time>2009-08-03T12:08:54Z</time>
      </trkpt>
      <trkpt lat="42.69491" lon="0.32437">
        <ele>2563</ele>
        <time>2009-08-03T12:09:16Z</time>
      </trkpt>
      <trkpt lat="42.6948" lon="0.32432">
        <ele>2562.5</ele>
        <time>2009-08-03T12:09:37Z</time>
      </trkpt>
      <trkpt lat="42.6948" lon="0.32431">
        <ele>2564.5</ele>
        <time>2009-08-03T12:09:58Z</time>
      </trkpt>
      <trkpt lat="42.69477" lon="0.32427">
        <ele>2564</ele>
        <time>2009-08-03T12:10:02Z</time>
      </trkpt>
      <trkpt lat="42.69466" lon="0.32423">
        <ele>2559.6</ele>
        <time>2009-08-03T12:10:24Z</time>
      </trkpt>
      <trkpt lat="42.69461" lon="0.32422">
        <ele>2558.2</ele>
        <time>2009-08-03T12:10:36Z</time>
      </trkpt>
      <trkpt lat="42.69433" lon="0.32407">
        <ele>2555.8</ele>
        <time>2009-08-03T12:11:01Z</time>
      </trkpt>
      <trkpt lat="42.69407" lon="0.32375">
        <ele>2552</ele>
        <time>2009-08-03T12:11:29Z</time>
      </trkpt>
      <trkpt lat="42.69374" lon="0.32357">
        <ele>2548.1</ele>
        <time>2009-08-03T12:11:58Z</time>
      </trkpt>
      <trkpt lat="42.6934" lon="0.3235">
        <ele>2542.8</ele>
        <time>2009-08-03T12:12:26Z</time>
      </trkpt>
      <trkpt lat="42.69317" lon="0.32343">
        <ele>2536.1</ele>
        <time>2009-08-03T12:12:48Z</time>
      </trkpt>
      <trkpt lat="42.69287" lon="0.32319">
        <ele>2535.6</ele>
        <time>2009-08-03T12:13:19Z</time>
      </trkpt>
      <trkpt lat="42.69268" lon="0.32309">
        <ele>2540.4</ele>
        <time>2009-08-03T12:13:46Z</time>
      </trkpt>
      <trkpt lat="42.69255" lon="0.3231">
        <ele>2544.3</ele>
        <time>2009-08-03T12:14:12Z</time>
      </trkpt>
      <trkpt lat="42.69254" lon="0.32312">
        <ele>2542.8</ele>
        <time>2009-08-03T12:14:52Z</time>
      </trkpt>
      <trkpt lat="42.69254" lon="0.32311">
        <ele>2543.8</ele>
        <time>2009-08-03T12:15:19Z</time>
      </trkpt>
      <trkpt lat="42.69253" lon="0.32312">
        <ele>2543.3</ele>
        <time>2009-08-03T12:16:01Z</time>
      </trkpt>
      <trkpt lat="42.69254" lon="0.32314">
        <ele>2550.5</ele>
        <time>2009-08-03T12:17:07Z</time>
      </trkpt>
      <trkpt lat="42.69256" lon="0.32313">
        <ele>2543.8</ele>
        <time>2009-08-03T12:19:52Z</time>
      </trkpt>
      <trkpt lat="42.69254" lon="0.32314">
        <ele>2540.9</ele>
        <time>2009-08-03T12:21:01Z</time>
      </trkpt>
      <trkpt lat="42.69258" lon="0.32312">
        <ele>2541.4</ele>
        <time>2009-08-03T12:21:33Z</time>
      </trkpt>
      <trkpt lat="42.69274" lon="0.32313">
        <ele>2536.6</ele>
        <time>2009-08-03T12:21:56Z</time>
      </trkpt>
      <trkpt lat="42.6928" lon="0.32326">
        <ele>2535.6</ele>
        <time>2009-08-03T12:22:18Z</time>
      </trkpt>
      <trkpt lat="42.69281" lon="0.32325">
        <ele>2535.6</ele>
        <time>2009-08-03T12:22:31Z</time>
      </trkpt>
      <trkpt lat="42.69289" lon="0.32319">
        <ele>2534.2</ele>
        <time>2009-08-03T12:22:40Z</time>
      </trkpt>
      <trkpt lat="42.69305" lon="0.32311">
        <ele>2531.3</ele>
        <time>2009-08-03T12:23:00Z</time>
      </trkpt>
      <trkpt lat="42.69308" lon="0.32309">
        <ele>2530.3</ele>
        <time>2009-08-03T12:23:03Z</time>
      </trkpt>
      <trkpt lat="42.6931" lon="0.32304">
        <ele>2528.9</ele>
        <time>2009-08-03T12:23:07Z</time>
      </trkpt>
      <trkpt lat="42.69307" lon="0.32267">
        <ele>2524.6</ele>
        <time>2009-08-03T12:23:32Z</time>
      </trkpt>
      <trkpt lat="42.69307" lon="0.32264">
        <ele>2524.1</ele>
        <time>2009-08-03T12:23:34Z</time>
      </trkpt>
      <trkpt lat="42.69305" lon="0.32233">
        <ele>2521.2</ele>
        <time>2009-08-03T12:23:54Z</time>
      </trkpt>
      <trkpt lat="42.693" lon="0.32188">
        <ele>2516.4</ele>
        <time>2009-08-03T12:24:22Z</time>
      </trkpt>
      <trkpt lat="42.693" lon="0.32186">
        <ele>2515.9</ele>
        <time>2009-08-03T12:24:23Z</time>
      </trkpt>
      <trkpt lat="42.69301" lon="0.32184">
        <ele>2515.4</ele>
        <time>2009-08-03T12:24:25Z</time>
      </trkpt>
      <trkpt lat="42.69305" lon="0.32155">
        <ele>2510.6</ele>
        <time>2009-08-03T12:24:48Z</time>
      </trkpt>
      <trkpt lat="42.69313" lon="0.32138">
        <ele>2507.3</ele>
        <time>2009-08-03T12:25:11Z</time>
      </trkpt>
      <trkpt lat="42.69318" lon="0.32123">
        <ele>2500.5</ele>
        <time>2009-08-03T12:25:32Z</time>
      </trkpt>
      <trkpt lat="42.69326" lon="0.32118">
        <ele>2496.7</ele>
        <time>2009-08-03T12:25:56Z</time>
      </trkpt>
      <trkpt lat="42.69333" lon="0.32123">
        <ele>2488.5</ele>
        <time>2009-08-03T12:26:16Z</time>
      </trkpt>
      <trkpt lat="42.69341" lon="0.32111">
        <ele>2483.7</ele>
        <time>2009-08-03T12:26:35Z</time>
      </trkpt>
      <trkpt lat="42.69344" lon="0.32108">
        <ele>2484.2</ele>
        <time>2009-08-03T12:26:38Z</time>
      </trkpt>
      <trkpt lat="42.69345" lon="0.32107">
        <ele>2481.3</ele>
        <time>2009-08-03T12:26:43Z</time>
      </trkpt>
      <trkpt lat="42.69351" lon="0.32112">
        <ele>2477.5</ele>
        <time>2009-08-03T12:26:50Z</time>
      </trkpt>
      <trkpt lat="42.69351" lon="0.32126">
        <ele>2472.2</ele>
        <time>2009-08-03T12:27:06Z</time>
      </trkpt>
      <trkpt lat="42.69359" lon="0.32136">
        <ele>2463.5</ele>
        <time>2009-08-03T12:27:25Z</time>
      </trkpt>
      <trkpt lat="42.69365" lon="0.32144">
        <ele>2457.3</ele>
        <time>2009-08-03T12:27:46Z</time>
      </trkpt>
      <trkpt lat="42.6937" lon="0.3214">
        <ele>2454.9</ele>
        <time>2009-08-03T12:27:55Z</time>
      </trkpt>
      <trkpt lat="42.69375" lon="0.32142">
        <ele>2451</ele>
        <time>2009-08-03T12:28:15Z</time>
      </trkpt>
      <trkpt lat="42.69381" lon="0.32121">
        <ele>2451</ele>
        <time>2009-08-03T12:28:43Z</time>
      </trkpt>
      <trkpt lat="42.69385" lon="0.32118">
        <ele>2447.7</ele>
        <time>2009-08-03T12:28:52Z</time>
      </trkpt>
      <trkpt lat="42.69392" lon="0.32109">
        <ele>2444.8</ele>
        <time>2009-08-03T12:29:07Z</time>
      </trkpt>
      <trkpt lat="42.69396" lon="0.32097">
        <ele>2441.9</ele>
        <time>2009-08-03T12:29:17Z</time>
      </trkpt>
      <trkpt lat="42.69405" lon="0.32074">
        <ele>2430.8</ele>
        <time>2009-08-03T12:29:39Z</time>
      </trkpt>
      <trkpt lat="42.69406" lon="0.32072">
        <ele>2429.9</ele>
        <time>2009-08-03T12:29:41Z</time>
      </trkpt>
      <trkpt lat="42.6941" lon="0.32062">
        <ele>2427</ele>
        <time>2009-08-03T12:29:49Z</time>
      </trkpt>
      <trkpt lat="42.69418" lon="0.32045">
        <ele>2420.7</ele>
        <time>2009-08-03T12:30:04Z</time>
      </trkpt>
      <trkpt lat="42.6942" lon="0.32036">
        <ele>2414.5</ele>
        <time>2009-08-03T12:30:13Z</time>
      </trkpt>
      <trkpt lat="42.69428" lon="0.32018">
        <ele>2410.6</ele>
        <time>2009-08-03T12:30:29Z</time>
      </trkpt>
      <trkpt lat="42.69434" lon="0.31992">
        <ele>2404.9</ele>
        <time>2009-08-03T12:30:49Z</time>
      </trkpt>
      <trkpt lat="42.69439" lon="0.31973">
        <ele>2396.2</ele>
        <time>2009-08-03T12:31:07Z</time>
      </trkpt>
      <trkpt lat="42.69444" lon="0.31949">
        <ele>2391.4</ele>
        <time>2009-08-03T12:31:27Z</time>
      </trkpt>
      <trkpt lat="42.69449" lon="0.31928">
        <ele>2383.7</ele>
        <time>2009-08-03T12:31:47Z</time>
      </trkpt>
      <trkpt lat="42.69454" lon="0.31909">
        <ele>2378.9</ele>
        <time>2009-08-03T12:32:02Z</time>
      </trkpt>
      <trkpt lat="42.69456" lon="0.31906">
        <ele>2374.6</ele>
        <time>2009-08-03T12:32:07Z</time>
      </trkpt>
      <trkpt lat="42.6946" lon="0.31905">
        <ele>2368.3</ele>
        <time>2009-08-03T12:32:16Z</time>
      </trkpt>
      <trkpt lat="42.69466" lon="0.31897">
        <ele>2364</ele>
        <time>2009-08-03T12:32:26Z</time>
      </trkpt>
      <trkpt lat="42.69472" lon="0.31889">
        <ele>2355.8</ele>
        <time>2009-08-03T12:32:41Z</time>
      </trkpt>
      <trkpt lat="42.69473" lon="0.31882">
        <ele>2355.4</ele>
        <time>2009-08-03T12:32:47Z</time>
      </trkpt>
      <trkpt lat="42.69475" lon="0.3188">
        <ele>2350.6</ele>
        <time>2009-08-03T12:32:52Z</time>
      </trkpt>
      <trkpt lat="42.69488" lon="0.31854">
        <ele>2345.8</ele>
        <time>2009-08-03T12:33:14Z</time>
      </trkpt>
      <trkpt lat="42.69493" lon="0.31848">
        <ele>2340.5</ele>
        <time>2009-08-03T12:33:36Z</time>
      </trkpt>
      <trkpt lat="42.69494" lon="0.31847">
        <ele>2340.5</ele>
        <time>2009-08-03T12:33:37Z</time>
      </trkpt>
      <trkpt lat="42.69501" lon="0.3184">
        <ele>2339</ele>
        <time>2009-08-03T12:33:48Z</time>
      </trkpt>
      <trkpt lat="42.69505" lon="0.31833">
        <ele>2335.7</ele>
        <time>2009-08-03T12:33:57Z</time>
      </trkpt>
      <trkpt lat="42.69509" lon="0.31833">
        <ele>2330.4</ele>
        <time>2009-08-03T12:34:05Z</time>
      </trkpt>
      <trkpt lat="42.69511" lon="0.31828">
        <ele>2328</ele>
        <time>2009-08-03T12:34:12Z</time>
      </trkpt>
      <trkpt lat="42.69515" lon="0.31811">
        <ele>2319.8</ele>
        <time>2009-08-03T12:34:32Z</time>
      </trkpt>
      <trkpt lat="42.69518" lon="0.31791">
        <ele>2316</ele>
        <time>2009-08-03T12:34:49Z</time>
      </trkpt>
      <trkpt lat="42.69514" lon="0.31775">
        <ele>2309.7</ele>
        <time>2009-08-03T12:35:08Z</time>
      </trkpt>
      <trkpt lat="42.69515" lon="0.3177">
        <ele>2305.4</ele>
        <time>2009-08-03T12:35:26Z</time>
      </trkpt>
      <trkpt lat="42.69518" lon="0.3177">
        <ele>2302.5</ele>
        <time>2009-08-03T12:35:30Z</time>
      </trkpt>
      <trkpt lat="42.69534" lon="0.31772">
        <ele>2291.9</ele>
        <time>2009-08-03T12:35:53Z</time>
      </trkpt>
      <trkpt lat="42.69535" lon="0.31763">
        <ele>2291.4</ele>
        <time>2009-08-03T12:35:59Z</time>
      </trkpt>
      <trkpt lat="42.69538" lon="0.31743">
        <ele>2291</ele>
        <time>2009-08-03T12:36:13Z</time>
      </trkpt>
      <trkpt lat="42.69536" lon="0.3172">
        <ele>2281.8</ele>
        <time>2009-08-03T12:36:37Z</time>
      </trkpt>
      <trkpt lat="42.69531" lon="0.31707">
        <ele>2275.6</ele>
        <time>2009-08-03T12:37:03Z</time>
      </trkpt>
      <trkpt lat="42.69533" lon="0.31691">
        <ele>2268.4</ele>
        <time>2009-08-03T12:37:22Z</time>
      </trkpt>
      <trkpt lat="42.69533" lon="0.31688">
        <ele>2266.9</ele>
        <time>2009-08-03T12:37:26Z</time>
      </trkpt>
      <trkpt lat="42.6954" lon="0.31675">
        <ele>2258.3</ele>
        <time>2009-08-03T12:37:43Z</time>
      </trkpt>
      <trkpt lat="42.69546" lon="0.31663">
        <ele>2253.5</ele>
        <time>2009-08-03T12:37:58Z</time>
      </trkpt>
      <trkpt lat="42.69549" lon="0.31642">
        <ele>2253.9</ele>
        <time>2009-08-03T12:38:13Z</time>
      </trkpt>
      <trkpt lat="42.69558" lon="0.31622">
        <ele>2245.8</ele>
        <time>2009-08-03T12:38:38Z</time>
      </trkpt>
      <trkpt lat="42.69564" lon="0.31626">
        <ele>2236.2</ele>
        <time>2009-08-03T12:38:55Z</time>
      </trkpt>
      <trkpt lat="42.69572" lon="0.31607">
        <ele>2230.4</ele>
        <time>2009-08-03T12:39:17Z</time>
      </trkpt>
      <trkpt lat="42.69578" lon="0.31595">
        <ele>2222.7</ele>
        <time>2009-08-03T12:39:35Z</time>
      </trkpt>
      <trkpt lat="42.69588" lon="0.31587">
        <ele>2213.1</ele>
        <time>2009-08-03T12:39:54Z</time>
      </trkpt>
      <trkpt lat="42.69595" lon="0.31577">
        <ele>2205.9</ele>
        <time>2009-08-03T12:40:13Z</time>
      </trkpt>
      <trkpt lat="42.69601" lon="0.31578">
        <ele>2203</ele>
        <time>2009-08-03T12:40:39Z</time>
      </trkpt>
      <trkpt lat="42.69599" lon="0.31579">
        <ele>2198.7</ele>
        <time>2009-08-03T12:41:29Z</time>
      </trkpt>
      <trkpt lat="42.69608" lon="0.31581">
        <ele>2212.6</ele>
        <time>2009-08-03T12:42:45Z</time>
      </trkpt>
      <trkpt lat="42.69596" lon="0.31582">
        <ele>2202.5</ele>
        <time>2009-08-03T12:50:59Z</time>
      </trkpt>
      <trkpt lat="42.69592" lon="0.31578">
        <ele>2195.8</ele>
        <time>2009-08-03T12:51:10Z</time>
      </trkpt>
      <trkpt lat="42.69596" lon="0.3156">
        <ele>2187.6</ele>
        <time>2009-08-03T12:51:23Z</time>
      </trkpt>
      <trkpt lat="42.69607" lon="0.31533">
        <ele>2177.5</ele>
        <time>2009-08-03T12:51:45Z</time>
      </trkpt>
      <trkpt lat="42.69614" lon="0.31516">
        <ele>2170.8</ele>
        <time>2009-08-03T12:52:01Z</time>
      </trkpt>
      <trkpt lat="42.69614" lon="0.31503">
        <ele>2166</ele>
        <time>2009-08-03T12:52:13Z</time>
      </trkpt>
      <trkpt lat="42.69614" lon="0.31485">
        <ele>2159.3</ele>
        <time>2009-08-03T12:52:31Z</time>
      </trkpt>
      <trkpt lat="42.69613" lon="0.31476">
        <ele>2154</ele>
        <time>2009-08-03T12:52:49Z</time>
      </trkpt>
      <trkpt lat="42.69615" lon="0.31465">
        <ele>2150.1</ele>
        <time>2009-08-03T12:53:00Z</time>
      </trkpt>
      <trkpt lat="42.69614" lon="0.31443">
        <ele>2144.8</ele>
        <time>2009-08-03T12:53:17Z</time>
      </trkpt>
      <trkpt lat="42.69615" lon="0.31433">
        <ele>2142.4</ele>
        <time>2009-08-03T12:53:24Z</time>
      </trkpt>
      <trkpt lat="42.69616" lon="0.31424">
        <ele>2139.6</ele>
        <time>2009-08-03T12:53:31Z</time>
      </trkpt>
      <trkpt lat="42.69617" lon="0.31405">
        <ele>2133.8</ele>
        <time>2009-08-03T12:53:46Z</time>
      </trkpt>
      <trkpt lat="42.69619" lon="0.31391">
        <ele>2128.5</ele>
        <time>2009-08-03T12:54:00Z</time>
      </trkpt>
      <trkpt lat="42.69622" lon="0.31381">
        <ele>2125.6</ele>
        <time>2009-08-03T12:54:09Z</time>
      </trkpt>
      <trkpt lat="42.69619" lon="0.31359">
        <ele>2124.2</ele>
        <time>2009-08-03T12:54:32Z</time>
      </trkpt>
      <trkpt lat="42.69628" lon="0.3135">
        <ele>2122.2</ele>
        <time>2009-08-03T12:54:55Z</time>
      </trkpt>
      <trkpt lat="42.69635" lon="0.31346">
        <ele>2114.6</ele>
        <time>2009-08-03T12:55:14Z</time>
      </trkpt>
      <trkpt lat="42.69637" lon="0.31337">
        <ele>2111.2</ele>
        <time>2009-08-03T12:55:47Z</time>
      </trkpt>
      <trkpt lat="42.69636" lon="0.31322">
        <ele>2108.8</ele>
        <time>2009-08-03T12:56:01Z</time>
      </trkpt>
      <trkpt lat="42.69635" lon="0.31305">
        <ele>2103</ele>
        <time>2009-08-03T12:56:21Z</time>
      </trkpt>
      <trkpt lat="42.69634" lon="0.31303">
        <ele>2100.6</ele>
        <time>2009-08-03T12:56:29Z</time>
      </trkpt>
      <trkpt lat="42.69637" lon="0.31289">
        <ele>2098.2</ele>
        <time>2009-08-03T12:56:51Z</time>
      </trkpt>
      <trkpt lat="42.69641" lon="0.31283">
        <ele>2095.3</ele>
        <time>2009-08-03T12:57:05Z</time>
      </trkpt>
      <trkpt lat="42.69651" lon="0.31267">
        <ele>2091</ele>
        <time>2009-08-03T12:57:25Z</time>
      </trkpt>
      <trkpt lat="42.69657" lon="0.31258">
        <ele>2084.8</ele>
        <time>2009-08-03T12:57:45Z</time>
      </trkpt>
      <trkpt lat="42.69665" lon="0.31252">
        <ele>2081.4</ele>
        <time>2009-08-03T12:58:00Z</time>
      </trkpt>
      <trkpt lat="42.69673" lon="0.3125">
        <ele>2073.2</ele>
        <time>2009-08-03T12:58:19Z</time>
      </trkpt>
      <trkpt lat="42.69679" lon="0.31238">
        <ele>2068.9</ele>
        <time>2009-08-03T12:58:37Z</time>
      </trkpt>
      <trkpt lat="42.69674" lon="0.31236">
        <ele>2061.2</ele>
        <time>2009-08-03T12:58:57Z</time>
      </trkpt>
      <trkpt lat="42.69672" lon="0.31223">
        <ele>2054</ele>
        <time>2009-08-03T12:59:17Z</time>
      </trkpt>
      <trkpt lat="42.69673" lon="0.31209">
        <ele>2050.1</ele>
        <time>2009-08-03T12:59:35Z</time>
      </trkpt>
      <trkpt lat="42.69673" lon="0.31193">
        <ele>2046.8</ele>
        <time>2009-08-03T12:59:54Z</time>
      </trkpt>
      <trkpt lat="42.69677" lon="0.31173">
        <ele>2042.5</ele>
        <time>2009-08-03T13:00:16Z</time>
      </trkpt>
      <trkpt lat="42.69673" lon="0.31157">
        <ele>2040.1</ele>
        <time>2009-08-03T13:00:42Z</time>
      </trkpt>
      <trkpt lat="42.69677" lon="0.31154">
        <ele>2034.3</ele>
        <time>2009-08-03T13:01:02Z</time>
      </trkpt>
      <trkpt lat="42.69675" lon="0.3115">
        <ele>2033.8</ele>
        <time>2009-08-03T13:01:05Z</time>
      </trkpt>
      <trkpt lat="42.69676" lon="0.31137">
        <ele>2030</ele>
        <time>2009-08-03T13:01:18Z</time>
      </trkpt>
      <trkpt lat="42.69672" lon="0.31129">
        <ele>2028</ele>
        <time>2009-08-03T13:01:25Z</time>
      </trkpt>
      <trkpt lat="42.69669" lon="0.31123">
        <ele>2027.1</ele>
        <time>2009-08-03T13:01:30Z</time>
      </trkpt>
      <trkpt lat="42.69668" lon="0.31102">
        <ele>2021.3</ele>
        <time>2009-08-03T13:01:50Z</time>
      </trkpt>
      <trkpt lat="42.69668" lon="0.31099">
        <ele>2020.8</ele>
        <time>2009-08-03T13:01:53Z</time>
      </trkpt>
      <trkpt lat="42.69683" lon="0.31087">
        <ele>2017.9</ele>
        <time>2009-08-03T13:02:10Z</time>
      </trkpt>
      <trkpt lat="42.69691" lon="0.31066">
        <ele>2016</ele>
        <time>2009-08-03T13:02:25Z</time>
      </trkpt>
      <trkpt lat="42.69697" lon="0.31048">
        <ele>2012.7</ele>
        <time>2009-08-03T13:02:39Z</time>
      </trkpt>
      <trkpt lat="42.697" lon="0.31034">
        <ele>2008.8</ele>
        <time>2009-08-03T13:02:52Z</time>
      </trkpt>
      <trkpt lat="42.69706" lon="0.31021">
        <ele>2010.3</ele>
        <time>2009-08-03T13:03:01Z</time>
      </trkpt>
      <trkpt lat="42.69705" lon="0.31016">
        <ele>2009.8</ele>
        <time>2009-08-03T13:03:04Z</time>
      </trkpt>
      <trkpt lat="42.69703" lon="0.30987">
        <ele>2004.5</ele>
        <time>2009-08-03T13:03:25Z</time>
      </trkpt>
      <trkpt lat="42.69707" lon="0.30979">
        <ele>2002.6</ele>
        <time>2009-08-03T13:03:34Z</time>
      </trkpt>
      <trkpt lat="42.69708" lon="0.30976">
        <ele>2003</ele>
        <time>2009-08-03T13:03:36Z</time>
      </trkpt>
      <trkpt lat="42.69709" lon="0.30962">
        <ele>1995.8</ele>
        <time>2009-08-03T13:03:54Z</time>
      </trkpt>
      <trkpt lat="42.69719" lon="0.3095">
        <ele>1991</ele>
        <time>2009-08-03T13:04:13Z</time>
      </trkpt>
      <trkpt lat="42.69723" lon="0.30936">
        <ele>1983.8</ele>
        <time>2009-08-03T13:04:44Z</time>
      </trkpt>
      <trkpt lat="42.69724" lon="0.30931">
        <ele>1981.4</ele>
        <time>2009-08-03T13:04:49Z</time>
      </trkpt>
      <trkpt lat="42.69737" lon="0.30915">
        <ele>1975.2</ele>
        <time>2009-08-03T13:05:09Z</time>
      </trkpt>
      <trkpt lat="42.69738" lon="0.3091">
        <ele>1973.7</ele>
        <time>2009-08-03T13:05:14Z</time>
      </trkpt>
      <trkpt lat="42.69749" lon="0.30879">
        <ele>1966</ele>
        <time>2009-08-03T13:05:40Z</time>
      </trkpt>
      <trkpt lat="42.69755" lon="0.30845">
        <ele>1957.9</ele>
        <time>2009-08-03T13:06:09Z</time>
      </trkpt>
      <trkpt lat="42.69758" lon="0.30838">
        <ele>1956.4</ele>
        <time>2009-08-03T13:06:15Z</time>
      </trkpt>
      <trkpt lat="42.69759" lon="0.30835">
        <ele>1955.5</ele>
        <time>2009-08-03T13:06:17Z</time>
      </trkpt>
      <trkpt lat="42.69761" lon="0.30829">
        <ele>1954</ele>
        <time>2009-08-03T13:06:22Z</time>
      </trkpt>
      <trkpt lat="42.69763" lon="0.30801">
        <ele>1945.8</ele>
        <time>2009-08-03T13:06:47Z</time>
      </trkpt>
      <trkpt lat="42.69769" lon="0.30791">
        <ele>1943</ele>
        <time>2009-08-03T13:07:03Z</time>
      </trkpt>
      <trkpt lat="42.69769" lon="0.30778">
        <ele>1939.1</ele>
        <time>2009-08-03T13:07:17Z</time>
      </trkpt>
      <trkpt lat="42.69759" lon="0.30776">
        <ele>1935.8</ele>
        <time>2009-08-03T13:07:32Z</time>
      </trkpt>
      <trkpt lat="42.69759" lon="0.30769">
        <ele>1935.3</ele>
        <time>2009-08-03T13:07:40Z</time>
      </trkpt>
      <trkpt lat="42.69762" lon="0.30766">
        <ele>1934.8</ele>
        <time>2009-08-03T13:07:44Z</time>
      </trkpt>
      <trkpt lat="42.6977" lon="0.30745">
        <ele>1938.6</ele>
        <time>2009-08-03T13:08:08Z</time>
      </trkpt>
      <trkpt lat="42.69776" lon="0.30744">
        <ele>1940.6</ele>
        <time>2009-08-03T13:08:35Z</time>
      </trkpt>
      <trkpt lat="42.6979" lon="0.30737">
        <ele>1936.2</ele>
        <time>2009-08-03T13:08:49Z</time>
      </trkpt>
      <trkpt lat="42.69796" lon="0.30722">
        <ele>1932.4</ele>
        <time>2009-08-03T13:09:01Z</time>
      </trkpt>
      <trkpt lat="42.69805" lon="0.30707">
        <ele>1926.6</ele>
        <time>2009-08-03T13:09:20Z</time>
      </trkpt>
      <trkpt lat="42.69815" lon="0.30689">
        <ele>1922.8</ele>
        <time>2009-08-03T13:09:38Z</time>
      </trkpt>
      <trkpt lat="42.69819" lon="0.30686">
        <ele>1921.8</ele>
        <time>2009-08-03T13:09:47Z</time>
      </trkpt>
      <trkpt lat="42.69833" lon="0.30671">
        <ele>1920.4</ele>
        <time>2009-08-03T13:10:03Z</time>
      </trkpt>
      <trkpt lat="42.69861" lon="0.3065">
        <ele>1917</ele>
        <time>2009-08-03T13:10:27Z</time>
      </trkpt>
      <trkpt lat="42.69866" lon="0.30646">
        <ele>1917</ele>
        <time>2009-08-03T13:10:32Z</time>
      </trkpt>
      <trkpt lat="42.69876" lon="0.30617">
        <ele>1915.1</ele>
        <time>2009-08-03T13:10:50Z</time>
      </trkpt>
      <trkpt lat="42.69877" lon="0.30615">
        <ele>1914.1</ele>
        <time>2009-08-03T13:10:52Z</time>
      </trkpt>
      <trkpt lat="42.69886" lon="0.30586">
        <ele>1910.3</ele>
        <time>2009-08-03T13:11:10Z</time>
      </trkpt>
      <trkpt lat="42.69906" lon="0.30559">
        <ele>1902.6</ele>
        <time>2009-08-03T13:11:31Z</time>
      </trkpt>
      <trkpt lat="42.6991" lon="0.30552">
        <ele>1900.2</ele>
        <time>2009-08-03T13:11:37Z</time>
      </trkpt>
      <trkpt lat="42.69917" lon="0.30545">
        <ele>1897.8</ele>
        <time>2009-08-03T13:11:45Z</time>
      </trkpt>
      <trkpt lat="42.69925" lon="0.3051">
        <ele>1895.9</ele>
        <time>2009-08-03T13:12:05Z</time>
      </trkpt>
      <trkpt lat="42.6993" lon="0.30494">
        <ele>1891.1</ele>
        <time>2009-08-03T13:12:18Z</time>
      </trkpt>
      <trkpt lat="42.69931" lon="0.30491">
        <ele>1891.1</ele>
        <time>2009-08-03T13:12:20Z</time>
      </trkpt>
      <trkpt lat="42.69935" lon="0.30472">
        <ele>1890.1</ele>
        <time>2009-08-03T13:12:32Z</time>
      </trkpt>
      <trkpt lat="42.69946" lon="0.30445">
        <ele>1883.8</ele>
        <time>2009-08-03T13:12:50Z</time>
      </trkpt>
      <trkpt lat="42.69956" lon="0.30426">
        <ele>1881</ele>
        <time>2009-08-03T13:13:04Z</time>
      </trkpt>
      <trkpt lat="42.69965" lon="0.30402">
        <ele>1875.7</ele>
        <time>2009-08-03T13:13:21Z</time>
      </trkpt>
      <trkpt lat="42.69975" lon="0.30369">
        <ele>1867</ele>
        <time>2009-08-03T13:13:46Z</time>
      </trkpt>
      <trkpt lat="42.69983" lon="0.30349">
        <ele>1863.2</ele>
        <time>2009-08-03T13:13:59Z</time>
      </trkpt>
      <trkpt lat="42.69989" lon="0.30327">
        <ele>1858.8</ele>
        <time>2009-08-03T13:14:13Z</time>
      </trkpt>
      <trkpt lat="42.69991" lon="0.30318">
        <ele>1856.9</ele>
        <time>2009-08-03T13:14:19Z</time>
      </trkpt>
      <trkpt lat="42.69996" lon="0.30293">
        <ele>1857.9</ele>
        <time>2009-08-03T13:14:34Z</time>
      </trkpt>
      <trkpt lat="42.70004" lon="0.30272">
        <ele>1855</ele>
        <time>2009-08-03T13:14:56Z</time>
      </trkpt>
      <trkpt lat="42.70013" lon="0.30251">
        <ele>1855</ele>
        <time>2009-08-03T13:15:17Z</time>
      </trkpt>
      <trkpt lat="42.70022" lon="0.30232">
        <ele>1846.3</ele>
        <time>2009-08-03T13:15:42Z</time>
      </trkpt>
      <trkpt lat="42.70029" lon="0.30212">
        <ele>1839.6</ele>
        <time>2009-08-03T13:16:01Z</time>
      </trkpt>
      <trkpt lat="42.70027" lon="0.30197">
        <ele>1833.4</ele>
        <time>2009-08-03T13:16:15Z</time>
      </trkpt>
      <trkpt lat="42.70021" lon="0.30174">
        <ele>1836.7</ele>
        <time>2009-08-03T13:16:34Z</time>
      </trkpt>
      <trkpt lat="42.70023" lon="0.30171">
        <ele>1837.7</ele>
        <time>2009-08-03T13:16:40Z</time>
      </trkpt>
      <trkpt lat="42.70024" lon="0.30165">
        <ele>1837.2</ele>
        <time>2009-08-03T13:16:46Z</time>
      </trkpt>
      <trkpt lat="42.7003" lon="0.30163">
        <ele>1836.3</ele>
        <time>2009-08-03T13:16:53Z</time>
      </trkpt>
      <trkpt lat="42.7003" lon="0.30152">
        <ele>1829</ele>
        <time>2009-08-03T13:17:01Z</time>
      </trkpt>
      <trkpt lat="42.70031" lon="0.30121">
        <ele>1828.6</ele>
        <time>2009-08-03T13:17:19Z</time>
      </trkpt>
      <trkpt lat="42.70036" lon="0.30116">
        <ele>1819.4</ele>
        <time>2009-08-03T13:17:33Z</time>
      </trkpt>
      <trkpt lat="42.70037" lon="0.30101">
        <ele>1814.6</ele>
        <time>2009-08-03T13:17:49Z</time>
      </trkpt>
      <trkpt lat="42.70038" lon="0.301">
        <ele>1813.7</ele>
        <time>2009-08-03T13:17:50Z</time>
      </trkpt>
      <trkpt lat="42.7004" lon="0.30074">
        <ele>1813.7</ele>
        <time>2009-08-03T13:18:09Z</time>
      </trkpt>
      <trkpt lat="42.70042" lon="0.30061">
        <ele>1808.4</ele>
        <time>2009-08-03T13:18:25Z</time>
      </trkpt>
      <trkpt lat="42.70047" lon="0.30041">
        <ele>1808.4</ele>
        <time>2009-08-03T13:18:40Z</time>
      </trkpt>
      <trkpt lat="42.70056" lon="0.30029">
        <ele>1794.9</ele>
        <time>2009-08-03T13:18:57Z</time>
      </trkpt>
      <trkpt lat="42.7006" lon="0.3002">
        <ele>1792</ele>
        <time>2009-08-03T13:19:06Z</time>
      </trkpt>
      <trkpt lat="42.70059" lon="0.30015">
        <ele>1792.5</ele>
        <time>2009-08-03T13:19:09Z</time>
      </trkpt>
      <trkpt lat="42.7007" lon="0.29996">
        <ele>1791.1</ele>
        <time>2009-08-03T13:19:25Z</time>
      </trkpt>
      <trkpt lat="42.70079" lon="0.29983">
        <ele>1788.7</ele>
        <time>2009-08-03T13:19:42Z</time>
      </trkpt>
      <trkpt lat="42.70083" lon="0.29969">
        <ele>1785.8</ele>
        <time>2009-08-03T13:19:52Z</time>
      </trkpt>
      <trkpt lat="42.70095" lon="0.29952">
        <ele>1783.9</ele>
        <time>2009-08-03T13:20:06Z</time>
      </trkpt>
      <trkpt lat="42.701" lon="0.29936">
        <ele>1777.6</ele>
        <time>2009-08-03T13:20:22Z</time>
      </trkpt>
      <trkpt lat="42.7011" lon="0.29923">
        <ele>1774.3</ele>
        <time>2009-08-03T13:20:37Z</time>
      </trkpt>
      <trkpt lat="42.7013" lon="0.29916">
        <ele>1768</ele>
        <time>2009-08-03T13:20:58Z</time>
      </trkpt>
      <trkpt lat="42.70138" lon="0.29904">
        <ele>1757.4</ele>
        <time>2009-08-03T13:21:20Z</time>
      </trkpt>
      <trkpt lat="42.70149" lon="0.29894">
        <ele>1751.2</ele>
        <time>2009-08-03T13:21:49Z</time>
      </trkpt>
      <trkpt lat="42.70155" lon="0.29872">
        <ele>1744.4</ele>
        <time>2009-08-03T13:22:14Z</time>
      </trkpt>
      <trkpt lat="42.7016" lon="0.29851">
        <ele>1746.4</ele>
        <time>2009-08-03T13:22:32Z</time>
      </trkpt>
      <trkpt lat="42.70171" lon="0.29858">
        <ele>1736.8</ele>
        <time>2009-08-03T13:22:49Z</time>
      </trkpt>
      <trkpt lat="42.70178" lon="0.29875">
        <ele>1729.5</ele>
        <time>2009-08-03T13:23:07Z</time>
      </trkpt>
      <trkpt lat="42.70185" lon="0.29864">
        <ele>1723.3</ele>
        <time>2009-08-03T13:23:37Z</time>
      </trkpt>
      <trkpt lat="42.70189" lon="0.29847">
        <ele>1730.5</ele>
        <time>2009-08-03T13:23:50Z</time>
      </trkpt>
      <trkpt lat="42.70189" lon="0.29836">
        <ele>1729.1</ele>
        <time>2009-08-03T13:23:57Z</time>
      </trkpt>
      <trkpt lat="42.70193" lon="0.29815">
        <ele>1723.3</ele>
        <time>2009-08-03T13:24:15Z</time>
      </trkpt>
      <trkpt lat="42.70208" lon="0.29795">
        <ele>1710.3</ele>
        <time>2009-08-03T13:24:42Z</time>
      </trkpt>
      <trkpt lat="42.70208" lon="0.29774">
        <ele>1711.3</ele>
        <time>2009-08-03T13:24:55Z</time>
      </trkpt>
      <trkpt lat="42.7021" lon="0.29754">
        <ele>1707.9</ele>
        <time>2009-08-03T13:25:12Z</time>
      </trkpt>
      <trkpt lat="42.70212" lon="0.29741">
        <ele>1706.5</ele>
        <time>2009-08-03T13:25:23Z</time>
      </trkpt>
      <trkpt lat="42.70215" lon="0.29731">
        <ele>1703.1</ele>
        <time>2009-08-03T13:25:36Z</time>
      </trkpt>
      <trkpt lat="42.70214" lon="0.29714">
        <ele>1685.8</ele>
        <time>2009-08-03T13:25:58Z</time>
      </trkpt>
      <trkpt lat="42.70211" lon="0.29694">
        <ele>1689.7</ele>
        <time>2009-08-03T13:26:21Z</time>
      </trkpt>
      <trkpt lat="42.7022" lon="0.29679">
        <ele>1683.4</ele>
        <time>2009-08-03T13:26:42Z</time>
      </trkpt>
      <trkpt lat="42.70219" lon="0.29668">
        <ele>1671.4</ele>
        <time>2009-08-03T13:27:00Z</time>
      </trkpt>
      <trkpt lat="42.70213" lon="0.29649">
        <ele>1671.4</ele>
        <time>2009-08-03T13:27:18Z</time>
      </trkpt>
      <trkpt lat="42.70213" lon="0.29634">
        <ele>1667.1</ele>
        <time>2009-08-03T13:27:39Z</time>
      </trkpt>
      <trkpt lat="42.70208" lon="0.29624">
        <ele>1658.9</ele>
        <time>2009-08-03T13:27:49Z</time>
      </trkpt>
      <trkpt lat="42.70195" lon="0.29606">
        <ele>1663.2</ele>
        <time>2009-08-03T13:28:05Z</time>
      </trkpt>
      <trkpt lat="42.70187" lon="0.29586">
        <ele>1660.8</ele>
        <time>2009-08-03T13:28:18Z</time>
      </trkpt>
      <trkpt lat="42.70178" lon="0.29575">
        <ele>1661.8</ele>
        <time>2009-08-03T13:28:30Z</time>
      </trkpt>
      <trkpt lat="42.70175" lon="0.29563">
        <ele>1657</ele>
        <time>2009-08-03T13:28:39Z</time>
      </trkpt>
      <trkpt lat="42.70171" lon="0.29552">
        <ele>1648.3</ele>
        <time>2009-08-03T13:28:50Z</time>
      </trkpt>
      <trkpt lat="42.7017" lon="0.29548">
        <ele>1646.4</ele>
        <time>2009-08-03T13:28:53Z</time>
      </trkpt>
      <trkpt lat="42.70182" lon="0.2953">
        <ele>1638.2</ele>
        <time>2009-08-03T13:29:10Z</time>
      </trkpt>
      <trkpt lat="42.70207" lon="0.29521">
        <ele>1632.5</ele>
        <time>2009-08-03T13:29:31Z</time>
      </trkpt>
      <trkpt lat="42.70223" lon="0.29522">
        <ele>1632.9</ele>
        <time>2009-08-03T13:29:44Z</time>
      </trkpt>
      <trkpt lat="42.70229" lon="0.2952">
        <ele>1633.9</ele>
        <time>2009-08-03T13:29:49Z</time>
      </trkpt>
      <trkpt lat="42.7023" lon="0.29518">
        <ele>1635.3</ele>
        <time>2009-08-03T13:29:51Z</time>
      </trkpt>
      <trkpt lat="42.70237" lon="0.29511">
        <ele>1633.4</ele>
        <time>2009-08-03T13:29:59Z</time>
      </trkpt>
      <trkpt lat="42.70242" lon="0.2951">
        <ele>1628.6</ele>
        <time>2009-08-03T13:30:04Z</time>
      </trkpt>
      <trkpt lat="42.70244" lon="0.29506">
        <ele>1627.2</ele>
        <time>2009-08-03T13:30:07Z</time>
      </trkpt>
      <trkpt lat="42.70248" lon="0.29502">
        <ele>1626.7</ele>
        <time>2009-08-03T13:30:11Z</time>
      </trkpt>
      <trkpt lat="42.7025" lon="0.29492">
        <ele>1628.6</ele>
        <time>2009-08-03T13:30:18Z</time>
      </trkpt>
      <trkpt lat="42.70248" lon="0.29472">
        <ele>1632.5</ele>
        <time>2009-08-03T13:30:35Z</time>
      </trkpt>
      <trkpt lat="42.70247" lon="0.2946">
        <ele>1622.8</ele>
        <time>2009-08-03T13:30:52Z</time>
      </trkpt>
      <trkpt lat="42.70246" lon="0.29458">
        <ele>1623.8</ele>
        <time>2009-08-03T13:31:21Z</time>
      </trkpt>
      <trkpt lat="42.70245" lon="0.29459">
        <ele>1621.4</ele>
        <time>2009-08-03T13:33:12Z</time>
      </trkpt>
      <trkpt lat="42.70255" lon="0.29469">
        <ele>1622.4</ele>
        <time>2009-08-03T13:33:29Z</time>
      </trkpt>
      <trkpt lat="42.70263" lon="0.29461">
        <ele>1621.4</ele>
        <time>2009-08-03T13:33:48Z</time>
      </trkpt>
      <trkpt lat="42.7026" lon="0.29463">
        <ele>1622.4</ele>
        <time>2009-08-03T13:34:19Z</time>
      </trkpt>
      <trkpt lat="42.70258" lon="0.29452">
        <ele>1633.9</ele>
        <time>2009-08-03T13:34:38Z</time>
      </trkpt>
      <trkpt lat="42.70258" lon="0.29445">
        <ele>1630.5</ele>
        <time>2009-08-03T13:34:46Z</time>
      </trkpt>
      <trkpt lat="42.70278" lon="0.29441">
        <ele>1626.7</ele>
        <time>2009-08-03T13:35:04Z</time>
      </trkpt>
      <trkpt lat="42.70299" lon="0.29439">
        <ele>1627.2</ele>
        <time>2009-08-03T13:35:22Z</time>
      </trkpt>
      <trkpt lat="42.70309" lon="0.29427">
        <ele>1625.7</ele>
        <time>2009-08-03T13:35:32Z</time>
      </trkpt>
      <trkpt lat="42.70324" lon="0.29415">
        <ele>1620</ele>
        <time>2009-08-03T13:35:45Z</time>
      </trkpt>
      <trkpt lat="42.70345" lon="0.2939">
        <ele>1607.9</ele>
        <time>2009-08-03T13:36:07Z</time>
      </trkpt>
      <trkpt lat="42.70352" lon="0.29361">
        <ele>1606.5</ele>
        <time>2009-08-03T13:36:28Z</time>
      </trkpt>
      <trkpt lat="42.7036" lon="0.29343">
        <ele>1599.3</ele>
        <time>2009-08-03T13:37:09Z</time>
      </trkpt>
      <trkpt lat="42.70364" lon="0.29335">
        <ele>1599.8</ele>
        <time>2009-08-03T13:37:15Z</time>
      </trkpt>
      <trkpt lat="42.70397" lon="0.29322">
        <ele>1597.8</ele>
        <time>2009-08-03T13:37:41Z</time>
      </trkpt>
      <trkpt lat="42.70421" lon="0.29312">
        <ele>1594</ele>
        <time>2009-08-03T13:38:01Z</time>
      </trkpt>
      <trkpt lat="42.70449" lon="0.29291">
        <ele>1591.1</ele>
        <time>2009-08-03T13:38:25Z</time>
      </trkpt>
      <trkpt lat="42.70473" lon="0.29282">
        <ele>1590.2</ele>
        <time>2009-08-03T13:38:44Z</time>
      </trkpt>
      <trkpt lat="42.70504" lon="0.29278">
        <ele>1585.8</ele>
        <time>2009-08-03T13:39:06Z</time>
      </trkpt>
      <trkpt lat="42.70525" lon="0.29273">
        <ele>1582.9</ele>
        <time>2009-08-03T13:39:28Z</time>
      </trkpt>
      <trkpt lat="42.70555" lon="0.29274">
        <ele>1580.1</ele>
        <time>2009-08-03T13:39:51Z</time>
      </trkpt>
      <trkpt lat="42.70591" lon="0.29279">
        <ele>1577.2</ele>
        <time>2009-08-03T13:40:18Z</time>
      </trkpt>
      <trkpt lat="42.70593" lon="0.29278">
        <ele>1576.7</ele>
        <time>2009-08-03T13:40:20Z</time>
      </trkpt>
      <trkpt lat="42.70599" lon="0.29277">
        <ele>1576.2</ele>
        <time>2009-08-03T13:40:24Z</time>
      </trkpt>
      <trkpt lat="42.70639" lon="0.29283">
        <ele>1574.8</ele>
        <time>2009-08-03T13:40:54Z</time>
      </trkpt>
      <trkpt lat="42.7067" lon="0.29301">
        <ele>1571.9</ele>
        <time>2009-08-03T13:41:22Z</time>
      </trkpt>
      <trkpt lat="42.70672" lon="0.29297">
        <ele>1571.9</ele>
        <time>2009-08-03T13:41:27Z</time>
      </trkpt>
      <trkpt lat="42.70693" lon="0.29267">
        <ele>1573.3</ele>
        <time>2009-08-03T13:41:53Z</time>
      </trkpt>
      <trkpt lat="42.70695" lon="0.29267">
        <ele>1572.4</ele>
        <time>2009-08-03T13:41:55Z</time>
      </trkpt>
      <trkpt lat="42.70711" lon="0.29274">
        <ele>1572.9</ele>
        <time>2009-08-03T13:42:14Z</time>
      </trkpt>
      <trkpt lat="42.70708" lon="0.2928">
        <ele>1571.9</ele>
        <time>2009-08-03T13:42:21Z</time>
      </trkpt>
      <trkpt lat="42.70703" lon="0.29297">
        <ele>1569.5</ele>
        <time>2009-08-03T13:42:35Z</time>
      </trkpt>
      <trkpt lat="42.707" lon="0.29331">
        <ele>1568</ele>
        <time>2009-08-03T13:43:02Z</time>
      </trkpt>
      <trkpt lat="42.707" lon="0.29333">
        <ele>1567.6</ele>
        <time>2009-08-03T13:43:03Z</time>
      </trkpt>
      <trkpt lat="42.707" lon="0.29337">
        <ele>1565.6</ele>
        <time>2009-08-03T13:43:23Z</time>
      </trkpt>
      <trkpt lat="42.70714" lon="0.29367">
        <ele>1563.7</ele>
        <time>2009-08-03T13:43:44Z</time>
      </trkpt>
      <trkpt lat="42.7074" lon="0.29395">
        <ele>1563.7</ele>
        <time>2009-08-03T13:44:09Z</time>
      </trkpt>
      <trkpt lat="42.70748" lon="0.29401">
        <ele>1563.2</ele>
        <time>2009-08-03T13:44:16Z</time>
      </trkpt>
      <trkpt lat="42.70779" lon="0.2942">
        <ele>1561.3</ele>
        <time>2009-08-03T13:44:44Z</time>
      </trkpt>
      <trkpt lat="42.70797" lon="0.29436">
        <ele>1563.7</ele>
        <time>2009-08-03T13:45:05Z</time>
      </trkpt>
      <trkpt lat="42.70815" lon="0.29451">
        <ele>1570</ele>
        <time>2009-08-03T13:45:24Z</time>
      </trkpt>
      <trkpt lat="42.70828" lon="0.29467">
        <ele>1569</ele>
        <time>2009-08-03T13:45:45Z</time>
      </trkpt>
      <trkpt lat="42.70853" lon="0.29501">
        <ele>1560.8</ele>
        <time>2009-08-03T13:46:09Z</time>
      </trkpt>
      <trkpt lat="42.70881" lon="0.29536">
        <ele>1555.1</ele>
        <time>2009-08-03T13:46:36Z</time>
      </trkpt>
      <trkpt lat="42.70911" lon="0.2956">
        <ele>1552.2</ele>
        <time>2009-08-03T13:47:01Z</time>
      </trkpt>
      <trkpt lat="42.70941" lon="0.29575">
        <ele>1555.6</ele>
        <time>2009-08-03T13:47:24Z</time>
      </trkpt>
      <trkpt lat="42.70969" lon="0.29589">
        <ele>1555.6</ele>
        <time>2009-08-03T13:47:49Z</time>
      </trkpt>
      <trkpt lat="42.70971" lon="0.29589">
        <ele>1556</ele>
        <time>2009-08-03T13:47:53Z</time>
      </trkpt>
      <trkpt lat="42.70986" lon="0.296">
        <ele>1556</ele>
        <time>2009-08-03T13:48:04Z</time>
      </trkpt>
      <trkpt lat="42.71015" lon="0.29637">
        <ele>1545</ele>
        <time>2009-08-03T13:48:29Z</time>
      </trkpt>
      <trkpt lat="42.71051" lon="0.29657">
        <ele>1543.1</ele>
        <time>2009-08-03T13:48:54Z</time>
      </trkpt>
      <trkpt lat="42.71088" lon="0.29653">
        <ele>1552.7</ele>
        <time>2009-08-03T13:49:20Z</time>
      </trkpt>
      <trkpt lat="42.71107" lon="0.2965">
        <ele>1564.7</ele>
        <time>2009-08-03T13:49:34Z</time>
      </trkpt>
      <trkpt lat="42.71137" lon="0.29652">
        <ele>1570.9</ele>
        <time>2009-08-03T13:49:55Z</time>
      </trkpt>
      <trkpt lat="42.71148" lon="0.29658">
        <ele>1568.5</ele>
        <time>2009-08-03T13:50:00Z</time>
      </trkpt>
      <trkpt lat="42.71156" lon="0.29661">
        <ele>1570.9</ele>
        <time>2009-08-03T13:50:05Z</time>
      </trkpt>
      <trkpt lat="42.71184" lon="0.2965">
        <ele>1576.2</ele>
        <time>2009-08-03T13:50:26Z</time>
      </trkpt>
      <trkpt lat="42.71198" lon="0.29642">
        <ele>1568.5</ele>
        <time>2009-08-03T13:50:36Z</time>
      </trkpt>
      <trkpt lat="42.71206" lon="0.29639">
        <ele>1564.7</ele>
        <time>2009-08-03T13:50:42Z</time>
      </trkpt>
      <trkpt lat="42.71234" lon="0.29639">
        <ele>1556.5</ele>
        <time>2009-08-03T13:51:01Z</time>
      </trkpt>
      <trkpt lat="42.71271" lon="0.29628">
        <ele>1545.9</ele>
        <time>2009-08-03T13:51:27Z</time>
      </trkpt>
      <trkpt lat="42.71279" lon="0.29623">
        <ele>1544.5</ele>
        <time>2009-08-03T13:51:33Z</time>
      </trkpt>
      <trkpt lat="42.71283" lon="0.29621">
        <ele>1544.5</ele>
        <time>2009-08-03T13:51:36Z</time>
      </trkpt>
      <trkpt lat="42.71291" lon="0.29618">
        <ele>1544.5</ele>
        <time>2009-08-03T13:51:42Z</time>
      </trkpt>
      <trkpt lat="42.71328" lon="0.29611">
        <ele>1542.1</ele>
        <time>2009-08-03T13:52:06Z</time>
      </trkpt>
      <trkpt lat="42.7136" lon="0.29625">
        <ele>1555.1</ele>
        <time>2009-08-03T13:52:27Z</time>
      </trkpt>
      <trkpt lat="42.71382" lon="0.2964">
        <ele>1548.8</ele>
        <time>2009-08-03T13:52:44Z</time>
      </trkpt>
      <trkpt lat="42.71402" lon="0.29667">
        <ele>1534.9</ele>
        <time>2009-08-03T13:53:07Z</time>
      </trkpt>
      <trkpt lat="42.71426" lon="0.29679">
        <ele>1553.6</ele>
        <time>2009-08-03T13:53:25Z</time>
      </trkpt>
      <trkpt lat="42.71444" lon="0.29686">
        <ele>1557.5</ele>
        <time>2009-08-03T13:53:39Z</time>
      </trkpt>
      <trkpt lat="42.71463" lon="0.29686">
        <ele>1549.3</ele>
        <time>2009-08-03T13:53:50Z</time>
      </trkpt>
      <trkpt lat="42.71474" lon="0.29692">
        <ele>1552.2</ele>
        <time>2009-08-03T13:53:55Z</time>
      </trkpt>
      <trkpt lat="42.71504" lon="0.29707">
        <ele>1562.3</ele>
        <time>2009-08-03T13:54:14Z</time>
      </trkpt>
      <trkpt lat="42.71505" lon="0.29703">
        <ele>1564.2</ele>
        <time>2009-08-03T13:54:16Z</time>
      </trkpt>
      <trkpt lat="42.71521" lon="0.29712">
        <ele>1557</ele>
        <time>2009-08-03T13:54:26Z</time>
      </trkpt>
      <trkpt lat="42.71535" lon="0.29715">
        <ele>1558.9</ele>
        <time>2009-08-03T13:54:37Z</time>
      </trkpt>
      <trkpt lat="42.71556" lon="0.29728">
        <ele>1559.4</ele>
        <time>2009-08-03T13:54:53Z</time>
      </trkpt>
      <trkpt lat="42.71585" lon="0.29742">
        <ele>1551.2</ele>
        <time>2009-08-03T13:55:12Z</time>
      </trkpt>
      <trkpt lat="42.71609" lon="0.29757">
        <ele>1535.8</ele>
        <time>2009-08-03T13:55:25Z</time>
      </trkpt>
      <trkpt lat="42.71621" lon="0.29758">
        <ele>1528.6</ele>
        <time>2009-08-03T13:55:32Z</time>
      </trkpt>
      <trkpt lat="42.71626" lon="0.29752">
        <ele>1528.6</ele>
        <time>2009-08-03T13:55:36Z</time>
      </trkpt>
      <trkpt lat="42.71665" lon="0.2975">
        <ele>1514.7</ele>
        <time>2009-08-03T13:56:00Z</time>
      </trkpt>
      <trkpt lat="42.7169" lon="0.2975">
        <ele>1537.8</ele>
        <time>2009-08-03T13:56:22Z</time>
      </trkpt>
      <trkpt lat="42.71691" lon="0.29749">
        <ele>1538.2</ele>
        <time>2009-08-03T13:56:24Z</time>
      </trkpt>
      <trkpt lat="42.71715" lon="0.29761">
        <ele>1530.6</ele>
        <time>2009-08-03T13:56:42Z</time>
      </trkpt>
      <trkpt lat="42.71748" lon="0.29756">
        <ele>1522.4</ele>
        <time>2009-08-03T13:57:02Z</time>
      </trkpt>
      <trkpt lat="42.71774" lon="0.29731">
        <ele>1527.2</ele>
        <time>2009-08-03T13:57:26Z</time>
      </trkpt>
      <trkpt lat="42.71809" lon="0.29733">
        <ele>1527.7</ele>
        <time>2009-08-03T13:57:54Z</time>
      </trkpt>
      <trkpt lat="42.71836" lon="0.29743">
        <ele>1537.8</ele>
        <time>2009-08-03T13:58:21Z</time>
      </trkpt>
      <trkpt lat="42.71868" lon="0.29744">
        <ele>1530.1</ele>
        <time>2009-08-03T13:58:43Z</time>
      </trkpt>
      <trkpt lat="42.71901" lon="0.29743">
        <ele>1519</ele>
        <time>2009-08-03T13:59:06Z</time>
      </trkpt>
      <trkpt lat="42.71936" lon="0.2974">
        <ele>1512.3</ele>
        <time>2009-08-03T13:59:30Z</time>
      </trkpt>
      <trkpt lat="42.71975" lon="0.29756">
        <ele>1523.3</ele>
        <time>2009-08-03T13:59:57Z</time>
      </trkpt>
      <trkpt lat="42.72018" lon="0.29762">
        <ele>1530.1</ele>
        <time>2009-08-03T14:00:28Z</time>
      </trkpt>
      <trkpt lat="42.72053" lon="0.29778">
        <ele>1546.4</ele>
        <time>2009-08-03T14:00:52Z</time>
      </trkpt>
      <trkpt lat="42.72088" lon="0.2978">
        <ele>1512.3</ele>
        <time>2009-08-03T14:01:18Z</time>
      </trkpt>
      <trkpt lat="42.72128" lon="0.29777">
        <ele>1507</ele>
        <time>2009-08-03T14:01:47Z</time>
      </trkpt>
      <trkpt lat="42.72134" lon="0.2978">
        <ele>1506.5</ele>
        <time>2009-08-03T14:02:07Z</time>
      </trkpt>
      <trkpt lat="42.72138" lon="0.29784">
        <ele>1506.5</ele>
        <time>2009-08-03T14:02:11Z</time>
      </trkpt>
      <trkpt lat="42.72164" lon="0.29806">
        <ele>1506.5</ele>
        <time>2009-08-03T14:02:36Z</time>
      </trkpt>
      <trkpt lat="42.72192" lon="0.29804">
        <ele>1509.4</ele>
        <time>2009-08-03T14:02:55Z</time>
      </trkpt>
      <trkpt lat="42.72228" lon="0.29827">
        <ele>1512.8</ele>
        <time>2009-08-03T14:03:23Z</time>
      </trkpt>
      <trkpt lat="42.72255" lon="0.29846">
        <ele>1497.4</ele>
        <time>2009-08-03T14:03:46Z</time>
      </trkpt>
      <trkpt lat="42.7228" lon="0.29883">
        <ele>1495.5</ele>
        <time>2009-08-03T14:04:11Z</time>
      </trkpt>
      <trkpt lat="42.72313" lon="0.29915">
        <ele>1496.9</ele>
        <time>2009-08-03T14:04:38Z</time>
      </trkpt>
      <trkpt lat="42.7233" lon="0.29925">
        <ele>1496.4</ele>
        <time>2009-08-03T14:04:51Z</time>
      </trkpt>
      <trkpt lat="42.72337" lon="0.29931">
        <ele>1499.3</ele>
        <time>2009-08-03T14:04:56Z</time>
      </trkpt>
      <trkpt lat="42.72371" lon="0.29954">
        <ele>1504.1</ele>
        <time>2009-08-03T14:05:21Z</time>
      </trkpt>
      <trkpt lat="42.7239" lon="0.29969">
        <ele>1496.4</ele>
        <time>2009-08-03T14:05:38Z</time>
      </trkpt>
      <trkpt lat="42.72391" lon="0.29972">
        <ele>1494.5</ele>
        <time>2009-08-03T14:05:40Z</time>
      </trkpt>
      <trkpt lat="42.724" lon="0.29985">
        <ele>1486.3</ele>
        <time>2009-08-03T14:05:51Z</time>
      </trkpt>
      <trkpt lat="42.7243" lon="0.3001">
        <ele>1486.8</ele>
        <time>2009-08-03T14:06:14Z</time>
      </trkpt>
      <trkpt lat="42.7246" lon="0.30039">
        <ele>1491.1</ele>
        <time>2009-08-03T14:06:38Z</time>
      </trkpt>
      <trkpt lat="42.72498" lon="0.30064">
        <ele>1484.4</ele>
        <time>2009-08-03T14:07:07Z</time>
      </trkpt>
      <trkpt lat="42.72543" lon="0.30075">
        <ele>1479.6</ele>
        <time>2009-08-03T14:07:39Z</time>
      </trkpt>
      <trkpt lat="42.72588" lon="0.30093">
        <ele>1477.7</ele>
        <time>2009-08-03T14:08:11Z</time>
      </trkpt>
      <trkpt lat="42.72608" lon="0.30093">
        <ele>1474.8</ele>
        <time>2009-08-03T14:08:24Z</time>
      </trkpt>
      <trkpt lat="42.72649" lon="0.30131">
        <ele>1475.8</ele>
        <time>2009-08-03T14:08:56Z</time>
      </trkpt>
      <trkpt lat="42.72658" lon="0.30141">
        <ele>1471.9</ele>
        <time>2009-08-03T14:09:05Z</time>
      </trkpt>
      <trkpt lat="42.72673" lon="0.30183">
        <ele>1469.5</ele>
        <time>2009-08-03T14:09:30Z</time>
      </trkpt>
      <trkpt lat="42.72708" lon="0.3023">
        <ele>1485.9</ele>
        <time>2009-08-03T14:10:01Z</time>
      </trkpt>
      <trkpt lat="42.72729" lon="0.30246">
        <ele>1485.9</ele>
        <time>2009-08-03T14:10:18Z</time>
      </trkpt>
      <trkpt lat="42.72755" lon="0.30264">
        <ele>1484.4</ele>
        <time>2009-08-03T14:10:37Z</time>
      </trkpt>
      <trkpt lat="42.72763" lon="0.30268">
        <ele>1485.9</ele>
        <time>2009-08-03T14:10:43Z</time>
      </trkpt>
      <trkpt lat="42.72788" lon="0.30285">
        <ele>1488.3</ele>
        <time>2009-08-03T14:11:02Z</time>
      </trkpt>
      <trkpt lat="42.72793" lon="0.30289">
        <ele>1486.3</ele>
        <time>2009-08-03T14:11:07Z</time>
      </trkpt>
      <trkpt lat="42.72796" lon="0.30291">
        <ele>1483.9</ele>
        <time>2009-08-03T14:11:09Z</time>
      </trkpt>
      <trkpt lat="42.72801" lon="0.30293">
        <ele>1480.1</ele>
        <time>2009-08-03T14:11:13Z</time>
      </trkpt>
      <trkpt lat="42.72823" lon="0.30311">
        <ele>1483.5</ele>
        <time>2009-08-03T14:11:29Z</time>
      </trkpt>
      <trkpt lat="42.72847" lon="0.30341">
        <ele>1474.3</ele>
        <time>2009-08-03T14:11:52Z</time>
      </trkpt>
      <trkpt lat="42.72847" lon="0.30343">
        <ele>1474.8</ele>
        <time>2009-08-03T14:11:53Z</time>
      </trkpt>
      <trkpt lat="42.72853" lon="0.30354">
        <ele>1472.9</ele>
        <time>2009-08-03T14:12:00Z</time>
      </trkpt>
      <trkpt lat="42.7289" lon="0.30383">
        <ele>1466.6</ele>
        <time>2009-08-03T14:12:28Z</time>
      </trkpt>
      <trkpt lat="42.72932" lon="0.30401">
        <ele>1465.2</ele>
        <time>2009-08-03T14:12:56Z</time>
      </trkpt>
      <trkpt lat="42.72936" lon="0.30404">
        <ele>1465.2</ele>
        <time>2009-08-03T14:13:00Z</time>
      </trkpt>
      <trkpt lat="42.72956" lon="0.30412">
        <ele>1464.7</ele>
        <time>2009-08-03T14:13:15Z</time>
      </trkpt>
      <trkpt lat="42.7297" lon="0.30414">
        <ele>1462.3</ele>
        <time>2009-08-03T14:13:24Z</time>
      </trkpt>
      <trkpt lat="42.72983" lon="0.30414">
        <ele>1460.9</ele>
        <time>2009-08-03T14:13:33Z</time>
      </trkpt>
      <trkpt lat="42.72992" lon="0.30427">
        <ele>1461.3</ele>
        <time>2009-08-03T14:13:42Z</time>
      </trkpt>
      <trkpt lat="42.73009" lon="0.30442">
        <ele>1466.6</ele>
        <time>2009-08-03T14:13:54Z</time>
      </trkpt>
      <trkpt lat="42.73011" lon="0.30443">
        <ele>1466.1</ele>
        <time>2009-08-03T14:13:56Z</time>
      </trkpt>
      <trkpt lat="42.73016" lon="0.30444">
        <ele>1464.7</ele>
        <time>2009-08-03T14:13:59Z</time>
      </trkpt>
      <trkpt lat="42.73048" lon="0.30443">
        <ele>1454.6</ele>
        <time>2009-08-03T14:14:21Z</time>
      </trkpt>
      <trkpt lat="42.73087" lon="0.30466">
        <ele>1453.7</ele>
        <time>2009-08-03T14:14:50Z</time>
      </trkpt>
      <trkpt lat="42.73091" lon="0.30468">
        <ele>1455.6</ele>
        <time>2009-08-03T14:14:53Z</time>
      </trkpt>
      <trkpt lat="42.73097" lon="0.30474">
        <ele>1457.5</ele>
        <time>2009-08-03T14:14:58Z</time>
      </trkpt>
      <trkpt lat="42.73114" lon="0.3049">
        <ele>1458.5</ele>
        <time>2009-08-03T14:15:14Z</time>
      </trkpt>
      <trkpt lat="42.73123" lon="0.305">
        <ele>1459.4</ele>
        <time>2009-08-03T14:15:21Z</time>
      </trkpt>
      <trkpt lat="42.73126" lon="0.30505">
        <ele>1461.3</ele>
        <time>2009-08-03T14:15:24Z</time>
      </trkpt>
      <trkpt lat="42.73151" lon="0.30518">
        <ele>1455.6</ele>
        <time>2009-08-03T14:15:43Z</time>
      </trkpt>
      <trkpt lat="42.73158" lon="0.30521">
        <ele>1455.6</ele>
        <time>2009-08-03T14:15:48Z</time>
      </trkpt>
      <trkpt lat="42.73171" lon="0.30528">
        <ele>1456.1</ele>
        <time>2009-08-03T14:15:57Z</time>
      </trkpt>
      <trkpt lat="42.73177" lon="0.3053">
        <ele>1451.7</ele>
        <time>2009-08-03T14:16:01Z</time>
      </trkpt>
      <trkpt lat="42.73191" lon="0.30545">
        <ele>1452.2</ele>
        <time>2009-08-03T14:16:12Z</time>
      </trkpt>
      <trkpt lat="42.73197" lon="0.30547">
        <ele>1451.7</ele>
        <time>2009-08-03T14:16:17Z</time>
      </trkpt>
      <trkpt lat="42.73219" lon="0.30569">
        <ele>1442.6</ele>
        <time>2009-08-03T14:16:37Z</time>
      </trkpt>
      <trkpt lat="42.73242" lon="0.30596">
        <ele>1443.1</ele>
        <time>2009-08-03T14:16:57Z</time>
      </trkpt>
      <trkpt lat="42.73248" lon="0.30604">
        <ele>1444.5</ele>
        <time>2009-08-03T14:17:03Z</time>
      </trkpt>
      <trkpt lat="42.73249" lon="0.30607">
        <ele>1444</ele>
        <time>2009-08-03T14:17:05Z</time>
      </trkpt>
      <trkpt lat="42.73254" lon="0.30614">
        <ele>1447.4</ele>
        <time>2009-08-03T14:17:11Z</time>
      </trkpt>
      <trkpt lat="42.73278" lon="0.30636">
        <ele>1444.5</ele>
        <time>2009-08-03T14:17:31Z</time>
      </trkpt>
      <trkpt lat="42.733" lon="0.30659">
        <ele>1444</ele>
        <time>2009-08-03T14:17:51Z</time>
      </trkpt>
      <trkpt lat="42.7331" lon="0.30691">
        <ele>1441.6</ele>
        <time>2009-08-03T14:18:10Z</time>
      </trkpt>
      <trkpt lat="42.73313" lon="0.30699">
        <ele>1443.6</ele>
        <time>2009-08-03T14:18:14Z</time>
      </trkpt>
      <trkpt lat="42.73323" lon="0.30707">
        <ele>1443.6</ele>
        <time>2009-08-03T14:18:23Z</time>
      </trkpt>
      <trkpt lat="42.73341" lon="0.30716">
        <ele>1433.9</ele>
        <time>2009-08-03T14:18:37Z</time>
      </trkpt>
      <trkpt lat="42.73358" lon="0.30743">
        <ele>1436.3</ele>
        <time>2009-08-03T14:18:54Z</time>
      </trkpt>
      <trkpt lat="42.73379" lon="0.30764">
        <ele>1433.5</ele>
        <time>2009-08-03T14:19:10Z</time>
      </trkpt>
      <trkpt lat="42.73382" lon="0.30765">
        <ele>1433.9</ele>
        <time>2009-08-03T14:19:12Z</time>
      </trkpt>
      <trkpt lat="42.73409" lon="0.30769">
        <ele>1433</ele>
        <time>2009-08-03T14:19:29Z</time>
      </trkpt>
      <trkpt lat="42.73432" lon="0.30761">
        <ele>1425.8</ele>
        <time>2009-08-03T14:19:45Z</time>
      </trkpt>
      <trkpt lat="42.73438" lon="0.30757">
        <ele>1422.9</ele>
        <time>2009-08-03T14:19:49Z</time>
      </trkpt>
      <trkpt lat="42.73458" lon="0.30748">
        <ele>1421</ele>
        <time>2009-08-03T14:20:05Z</time>
      </trkpt>
      <trkpt lat="42.73491" lon="0.30744">
        <ele>1423.4</ele>
        <time>2009-08-03T14:20:27Z</time>
      </trkpt>
      <trkpt lat="42.73528" lon="0.30751">
        <ele>1423.8</ele>
        <time>2009-08-03T14:20:53Z</time>
      </trkpt>
      <trkpt lat="42.73551" lon="0.30747">
        <ele>1428.2</ele>
        <time>2009-08-03T14:21:07Z</time>
      </trkpt>
      <trkpt lat="42.73563" lon="0.30743">
        <ele>1422.9</ele>
        <time>2009-08-03T14:21:15Z</time>
      </trkpt>
      <trkpt lat="42.73586" lon="0.30737">
        <ele>1415.2</ele>
        <time>2009-08-03T14:21:34Z</time>
      </trkpt>
      <trkpt lat="42.73611" lon="0.30729">
        <ele>1419.5</ele>
        <time>2009-08-03T14:21:51Z</time>
      </trkpt>
      <trkpt lat="42.73636" lon="0.30738">
        <ele>1413.8</ele>
        <time>2009-08-03T14:22:09Z</time>
      </trkpt>
      <trkpt lat="42.73663" lon="0.30747">
        <ele>1393.6</ele>
        <time>2009-08-03T14:22:24Z</time>
      </trkpt>
      <trkpt lat="42.73688" lon="0.30754">
        <ele>1392.6</ele>
        <time>2009-08-03T14:22:41Z</time>
      </trkpt>
      <trkpt lat="42.73695" lon="0.30751">
        <ele>1385.4</ele>
        <time>2009-08-03T14:22:45Z</time>
      </trkpt>
      <trkpt lat="42.7371" lon="0.3074">
        <ele>1409.4</ele>
        <time>2009-08-03T14:22:59Z</time>
      </trkpt>
      <trkpt lat="42.73733" lon="0.30744">
        <ele>1410.9</ele>
        <time>2009-08-03T14:23:13Z</time>
      </trkpt>
      <trkpt lat="42.73763" lon="0.30752">
        <ele>1382</ele>
        <time>2009-08-03T14:23:29Z</time>
      </trkpt>
      <trkpt lat="42.73769" lon="0.30753">
        <ele>1385.9</ele>
        <time>2009-08-03T14:23:36Z</time>
      </trkpt>
      <trkpt lat="42.73775" lon="0.30749">
        <ele>1380.6</ele>
        <time>2009-08-03T14:23:39Z</time>
      </trkpt>
      <trkpt lat="42.73801" lon="0.30758">
        <ele>1367.1</ele>
        <time>2009-08-03T14:23:54Z</time>
      </trkpt>
      <trkpt lat="42.73812" lon="0.30752">
        <ele>1381.6</ele>
        <time>2009-08-03T14:24:06Z</time>
      </trkpt>
      <trkpt lat="42.73831" lon="0.30755">
        <ele>1388.8</ele>
        <time>2009-08-03T14:24:19Z</time>
      </trkpt>
      <trkpt lat="42.73853" lon="0.30769">
        <ele>1410.4</ele>
        <time>2009-08-03T14:24:41Z</time>
      </trkpt>
      <trkpt lat="42.73873" lon="0.30773">
        <ele>1394</ele>
        <time>2009-08-03T14:24:50Z</time>
      </trkpt>
      <trkpt lat="42.73908" lon="0.30761">
        <ele>1374.8</ele>
        <time>2009-08-03T14:25:11Z</time>
      </trkpt>
      <trkpt lat="42.73929" lon="0.30769">
        <ele>1359.4</ele>
        <time>2009-08-03T14:25:22Z</time>
      </trkpt>
      <trkpt lat="42.73954" lon="0.30785">
        <ele>1359.9</ele>
        <time>2009-08-03T14:25:42Z</time>
      </trkpt>
      <trkpt lat="42.73961" lon="0.30777">
        <ele>1380.1</ele>
        <time>2009-08-03T14:25:53Z</time>
      </trkpt>
      <trkpt lat="42.73996" lon="0.30773">
        <ele>1382</ele>
        <time>2009-08-03T14:26:20Z</time>
      </trkpt>
      <trkpt lat="42.74009" lon="0.30787">
        <ele>1372.9</ele>
        <time>2009-08-03T14:26:30Z</time>
      </trkpt>
      <trkpt lat="42.74032" lon="0.30804">
        <ele>1366.2</ele>
        <time>2009-08-03T14:26:50Z</time>
      </trkpt>
      <trkpt lat="42.74048" lon="0.30807">
        <ele>1368.6</ele>
        <time>2009-08-03T14:27:08Z</time>
      </trkpt>
      <trkpt lat="42.74066" lon="0.3081">
        <ele>1373.9</ele>
        <time>2009-08-03T14:27:24Z</time>
      </trkpt>
      <trkpt lat="42.74091" lon="0.30812">
        <ele>1396.5</ele>
        <time>2009-08-03T14:27:41Z</time>
      </trkpt>
    </trkseg>
  </trk>
</gpx>